<?xml version="1.0" encoding="UTF-8" standalone="no" ?>
<gpx xmlns="http://www.topografix.com/GPX/1/1" xmlns:xsi="http://www.w3.org/2001/XMLSchema-instance" xsi:schemaLocation="http://www.topografix.com/GPX/1/1 http://www.topografix.com/GPX/1/1/gpx.xsd" version="1.1" creator="VisuGPX - https://www.visugpx.com">
  <metadata>
    <name>Chamonix/Zermatt - Etape4 - Cabane de Prat Fleuri / Cabane des Dix</name>
    <desc><![CDATA[Chamonix/Zermatt - Etape4 - Cabane de Prat Fleuri / Cabane des Dix]]></desc>
  </metadata>
  <trk>
    <name><![CDATA[ETAPE4-10 13:11:27]]></name>
    <trkseg>
      <trkpt lat="46.07483" lon="7.37869">
        <ele>2673.08</ele>
        <time>2010-04-14T05:12:42Z</time>
      </trkpt>
      <trkpt lat="46.07483" lon="7.37869">
        <ele>2670.2</ele>
        <time>2010-04-14T05:12:51Z</time>
      </trkpt>
      <trkpt lat="46.07483" lon="7.37869">
        <ele>2673.08</ele>
        <time>2010-04-14T05:12:53Z</time>
      </trkpt>
      <trkpt lat="46.07483" lon="7.37869">
        <ele>2669.24</ele>
        <time>2010-04-14T05:12:54Z</time>
      </trkpt>
      <trkpt lat="46.07483" lon="7.37869">
        <ele>2672.6</ele>
        <time>2010-04-14T05:12:55Z</time>
      </trkpt>
      <trkpt lat="46.07483" lon="7.37869">
        <ele>2671.64</ele>
        <time>2010-04-14T05:13:12Z</time>
      </trkpt>
      <trkpt lat="46.07483" lon="7.37869">
        <ele>2670.68</ele>
        <time>2010-04-14T05:13:23Z</time>
      </trkpt>
      <trkpt lat="46.07483" lon="7.37869">
        <ele>2665.39</ele>
        <time>2010-04-14T05:13:24Z</time>
      </trkpt>
      <trkpt lat="46.07483" lon="7.37869">
        <ele>2671.16</ele>
        <time>2010-04-14T05:13:25Z</time>
      </trkpt>
      <trkpt lat="46.07483" lon="7.37869">
        <ele>2672.6</ele>
        <time>2010-04-14T05:13:41Z</time>
      </trkpt>
      <trkpt lat="46.07482" lon="7.37869">
        <ele>2668.76</ele>
        <time>2010-04-14T05:13:43Z</time>
      </trkpt>
      <trkpt lat="46.07482" lon="7.37868">
        <ele>2671.64</ele>
        <time>2010-04-14T05:13:45Z</time>
      </trkpt>
      <trkpt lat="46.07481" lon="7.37868">
        <ele>2665.39</ele>
        <time>2010-04-14T05:13:47Z</time>
      </trkpt>
      <trkpt lat="46.07481" lon="7.37868">
        <ele>2670.68</ele>
        <time>2010-04-14T05:13:48Z</time>
      </trkpt>
      <trkpt lat="46.07481" lon="7.37868">
        <ele>2669.24</ele>
        <time>2010-04-14T05:14:21Z</time>
      </trkpt>
      <trkpt lat="46.07481" lon="7.37868">
        <ele>2669.24</ele>
        <time>2010-04-14T05:14:49Z</time>
      </trkpt>
      <trkpt lat="46.07482" lon="7.37868">
        <ele>2669.24</ele>
        <time>2010-04-14T05:15:22Z</time>
      </trkpt>
      <trkpt lat="46.07482" lon="7.37867">
        <ele>2668.76</ele>
        <time>2010-04-14T05:15:46Z</time>
      </trkpt>
      <trkpt lat="46.07482" lon="7.37867">
        <ele>2670.2</ele>
        <time>2010-04-14T05:17:26Z</time>
      </trkpt>
      <trkpt lat="46.07482" lon="7.37866">
        <ele>2668.28</ele>
        <time>2010-04-14T05:17:40Z</time>
      </trkpt>
      <trkpt lat="46.07482" lon="7.37866">
        <ele>2669.72</ele>
        <time>2010-04-14T05:17:42Z</time>
      </trkpt>
      <trkpt lat="46.07483" lon="7.37866">
        <ele>2664.91</ele>
        <time>2010-04-14T05:19:12Z</time>
      </trkpt>
      <trkpt lat="46.07483" lon="7.37866">
        <ele>2666.83</ele>
        <time>2010-04-14T05:19:13Z</time>
      </trkpt>
      <trkpt lat="46.07483" lon="7.37866">
        <ele>2668.28</ele>
        <time>2010-04-14T05:19:52Z</time>
      </trkpt>
      <trkpt lat="46.07483" lon="7.37867">
        <ele>2662.51</ele>
        <time>2010-04-14T05:20:10Z</time>
      </trkpt>
      <trkpt lat="46.07483" lon="7.37867">
        <ele>2667.8</ele>
        <time>2010-04-14T05:20:11Z</time>
      </trkpt>
      <trkpt lat="46.07482" lon="7.37868">
        <ele>2669.72</ele>
        <time>2010-04-14T05:20:39Z</time>
      </trkpt>
      <trkpt lat="46.07482" lon="7.37868">
        <ele>2666.83</ele>
        <time>2010-04-14T05:21:18Z</time>
      </trkpt>
      <trkpt lat="46.07482" lon="7.37869">
        <ele>2668.76</ele>
        <time>2010-04-14T05:21:56Z</time>
      </trkpt>
      <trkpt lat="46.07482" lon="7.3787">
        <ele>2668.28</ele>
        <time>2010-04-14T05:23:09Z</time>
      </trkpt>
      <trkpt lat="46.07481" lon="7.3787">
        <ele>2666.83</ele>
        <time>2010-04-14T05:24:07Z</time>
      </trkpt>
      <trkpt lat="46.07481" lon="7.37871">
        <ele>2667.8</ele>
        <time>2010-04-14T05:25:03Z</time>
      </trkpt>
      <trkpt lat="46.0748" lon="7.37865">
        <ele>2665.87</ele>
        <time>2010-04-14T05:25:09Z</time>
      </trkpt>
      <trkpt lat="46.0748" lon="7.37865">
        <ele>2667.31</ele>
        <time>2010-04-14T05:25:11Z</time>
      </trkpt>
      <trkpt lat="46.0748" lon="7.37864">
        <ele>2668.28</ele>
        <time>2010-04-14T05:26:37Z</time>
      </trkpt>
      <trkpt lat="46.07481" lon="7.37865">
        <ele>2668.28</ele>
        <time>2010-04-14T05:26:49Z</time>
      </trkpt>
      <trkpt lat="46.07482" lon="7.37866">
        <ele>2668.28</ele>
        <time>2010-04-14T05:27:07Z</time>
      </trkpt>
      <trkpt lat="46.07482" lon="7.37866">
        <ele>2667.31</ele>
        <time>2010-04-14T05:27:18Z</time>
      </trkpt>
      <trkpt lat="46.07482" lon="7.37866">
        <ele>2668.28</ele>
        <time>2010-04-14T05:27:58Z</time>
      </trkpt>
      <trkpt lat="46.07478" lon="7.37867">
        <ele>2667.8</ele>
        <time>2010-04-14T05:28:20Z</time>
      </trkpt>
      <trkpt lat="46.07473" lon="7.37863">
        <ele>2669.24</ele>
        <time>2010-04-14T05:28:25Z</time>
      </trkpt>
      <trkpt lat="46.07468" lon="7.37859">
        <ele>2667.31</ele>
        <time>2010-04-14T05:28:29Z</time>
      </trkpt>
      <trkpt lat="46.07458" lon="7.37857">
        <ele>2668.76</ele>
        <time>2010-04-14T05:28:42Z</time>
      </trkpt>
      <trkpt lat="46.07452" lon="7.37858">
        <ele>2670.68</ele>
        <time>2010-04-14T05:28:53Z</time>
      </trkpt>
      <trkpt lat="46.07444" lon="7.37864">
        <ele>2672.12</ele>
        <time>2010-04-14T05:29:07Z</time>
      </trkpt>
      <trkpt lat="46.07441" lon="7.37866">
        <ele>2674.04</ele>
        <time>2010-04-14T05:29:13Z</time>
      </trkpt>
      <trkpt lat="46.07435" lon="7.37871">
        <ele>2674.04</ele>
        <time>2010-04-14T05:29:27Z</time>
      </trkpt>
      <trkpt lat="46.07427" lon="7.37878">
        <ele>2674.52</ele>
        <time>2010-04-14T05:29:43Z</time>
      </trkpt>
      <trkpt lat="46.07422" lon="7.37886">
        <ele>2675.01</ele>
        <time>2010-04-14T05:29:55Z</time>
      </trkpt>
      <trkpt lat="46.07419" lon="7.37891">
        <ele>2676.93</ele>
        <time>2010-04-14T05:30:06Z</time>
      </trkpt>
      <trkpt lat="46.07416" lon="7.37896">
        <ele>2677.89</ele>
        <time>2010-04-14T05:30:18Z</time>
      </trkpt>
      <trkpt lat="46.07412" lon="7.37903">
        <ele>2679.81</ele>
        <time>2010-04-14T05:30:29Z</time>
      </trkpt>
      <trkpt lat="46.07408" lon="7.37907">
        <ele>2680.77</ele>
        <time>2010-04-14T05:30:43Z</time>
      </trkpt>
      <trkpt lat="46.07404" lon="7.37912">
        <ele>2681.73</ele>
        <time>2010-04-14T05:30:56Z</time>
      </trkpt>
      <trkpt lat="46.07399" lon="7.37915">
        <ele>2684.14</ele>
        <time>2010-04-14T05:31:08Z</time>
      </trkpt>
      <trkpt lat="46.07394" lon="7.3792">
        <ele>2684.62</ele>
        <time>2010-04-14T05:31:19Z</time>
      </trkpt>
      <trkpt lat="46.07389" lon="7.37921">
        <ele>2683.66</ele>
        <time>2010-04-14T05:31:31Z</time>
      </trkpt>
      <trkpt lat="46.07385" lon="7.37925">
        <ele>2685.58</ele>
        <time>2010-04-14T05:31:47Z</time>
      </trkpt>
      <trkpt lat="46.0738" lon="7.37928">
        <ele>2686.54</ele>
        <time>2010-04-14T05:32:03Z</time>
      </trkpt>
      <trkpt lat="46.07373" lon="7.37934">
        <ele>2687.5</ele>
        <time>2010-04-14T05:32:15Z</time>
      </trkpt>
      <trkpt lat="46.07372" lon="7.37935">
        <ele>2686.54</ele>
        <time>2010-04-14T05:32:17Z</time>
      </trkpt>
      <trkpt lat="46.07366" lon="7.37937">
        <ele>2688.46</ele>
        <time>2010-04-14T05:32:28Z</time>
      </trkpt>
      <trkpt lat="46.07361" lon="7.37933">
        <ele>2690.87</ele>
        <time>2010-04-14T05:32:41Z</time>
      </trkpt>
      <trkpt lat="46.07353" lon="7.37933">
        <ele>2692.31</ele>
        <time>2010-04-14T05:32:54Z</time>
      </trkpt>
      <trkpt lat="46.07349" lon="7.37934">
        <ele>2691.83</ele>
        <time>2010-04-14T05:32:58Z</time>
      </trkpt>
      <trkpt lat="46.07339" lon="7.37941">
        <ele>2689.43</ele>
        <time>2010-04-14T05:33:09Z</time>
      </trkpt>
      <trkpt lat="46.07329" lon="7.37949">
        <ele>2690.39</ele>
        <time>2010-04-14T05:33:21Z</time>
      </trkpt>
      <trkpt lat="46.07325" lon="7.37951">
        <ele>2690.87</ele>
        <time>2010-04-14T05:33:26Z</time>
      </trkpt>
      <trkpt lat="46.0732" lon="7.37954">
        <ele>2690.87</ele>
        <time>2010-04-14T05:33:33Z</time>
      </trkpt>
      <trkpt lat="46.07317" lon="7.37956">
        <ele>2691.83</ele>
        <time>2010-04-14T05:33:37Z</time>
      </trkpt>
      <trkpt lat="46.07312" lon="7.3796">
        <ele>2691.83</ele>
        <time>2010-04-14T05:33:45Z</time>
      </trkpt>
      <trkpt lat="46.07306" lon="7.37967">
        <ele>2691.35</ele>
        <time>2010-04-14T05:33:58Z</time>
      </trkpt>
      <trkpt lat="46.07304" lon="7.37969">
        <ele>2692.79</ele>
        <time>2010-04-14T05:34:01Z</time>
      </trkpt>
      <trkpt lat="46.073" lon="7.37969">
        <ele>2692.79</ele>
        <time>2010-04-14T05:34:07Z</time>
      </trkpt>
      <trkpt lat="46.07293" lon="7.37967">
        <ele>2693.27</ele>
        <time>2010-04-14T05:34:20Z</time>
      </trkpt>
      <trkpt lat="46.07284" lon="7.37958">
        <ele>2694.23</ele>
        <time>2010-04-14T05:34:33Z</time>
      </trkpt>
      <trkpt lat="46.07277" lon="7.37957">
        <ele>2695.67</ele>
        <time>2010-04-14T05:34:43Z</time>
      </trkpt>
      <trkpt lat="46.07273" lon="7.37958">
        <ele>2694.71</ele>
        <time>2010-04-14T05:34:47Z</time>
      </trkpt>
      <trkpt lat="46.07265" lon="7.3796">
        <ele>2694.23</ele>
        <time>2010-04-14T05:34:56Z</time>
      </trkpt>
      <trkpt lat="46.07263" lon="7.3796">
        <ele>2694.23</ele>
        <time>2010-04-14T05:35:01Z</time>
      </trkpt>
      <trkpt lat="46.07259" lon="7.3796">
        <ele>2696.64</ele>
        <time>2010-04-14T05:35:07Z</time>
      </trkpt>
      <trkpt lat="46.07251" lon="7.37963">
        <ele>2698.08</ele>
        <time>2010-04-14T05:35:18Z</time>
      </trkpt>
      <trkpt lat="46.07247" lon="7.37963">
        <ele>2699.04</ele>
        <time>2010-04-14T05:35:31Z</time>
      </trkpt>
      <trkpt lat="46.0724" lon="7.37956">
        <ele>2700.96</ele>
        <time>2010-04-14T05:35:44Z</time>
      </trkpt>
      <trkpt lat="46.07234" lon="7.37951">
        <ele>2701.92</ele>
        <time>2010-04-14T05:35:56Z</time>
      </trkpt>
      <trkpt lat="46.07227" lon="7.37949">
        <ele>2702.88</ele>
        <time>2010-04-14T05:36:11Z</time>
      </trkpt>
      <trkpt lat="46.07218" lon="7.37948">
        <ele>2705.77</ele>
        <time>2010-04-14T05:36:24Z</time>
      </trkpt>
      <trkpt lat="46.07211" lon="7.37949">
        <ele>2706.73</ele>
        <time>2010-04-14T05:36:38Z</time>
      </trkpt>
      <trkpt lat="46.07202" lon="7.37946">
        <ele>2708.17</ele>
        <time>2010-04-14T05:36:52Z</time>
      </trkpt>
      <trkpt lat="46.07196" lon="7.37944">
        <ele>2709.13</ele>
        <time>2010-04-14T05:37:04Z</time>
      </trkpt>
      <trkpt lat="46.07188" lon="7.37942">
        <ele>2711.54</ele>
        <time>2010-04-14T05:37:18Z</time>
      </trkpt>
      <trkpt lat="46.07182" lon="7.3794">
        <ele>2712.98</ele>
        <time>2010-04-14T05:37:31Z</time>
      </trkpt>
      <trkpt lat="46.07182" lon="7.37939">
        <ele>2713.46</ele>
        <time>2010-04-14T05:37:32Z</time>
      </trkpt>
      <trkpt lat="46.0718" lon="7.37939">
        <ele>2714.42</ele>
        <time>2010-04-14T05:37:49Z</time>
      </trkpt>
      <trkpt lat="46.07176" lon="7.37937">
        <ele>2714.42</ele>
        <time>2010-04-14T05:38:09Z</time>
      </trkpt>
      <trkpt lat="46.07168" lon="7.37929">
        <ele>2716.82</ele>
        <time>2010-04-14T05:38:21Z</time>
      </trkpt>
      <trkpt lat="46.07166" lon="7.37928">
        <ele>2717.78</ele>
        <time>2010-04-14T05:38:25Z</time>
      </trkpt>
      <trkpt lat="46.0716" lon="7.37925">
        <ele>2719.23</ele>
        <time>2010-04-14T05:38:38Z</time>
      </trkpt>
      <trkpt lat="46.07156" lon="7.37923">
        <ele>2720.67</ele>
        <time>2010-04-14T05:38:47Z</time>
      </trkpt>
      <trkpt lat="46.07153" lon="7.37924">
        <ele>2721.63</ele>
        <time>2010-04-14T05:38:57Z</time>
      </trkpt>
      <trkpt lat="46.07151" lon="7.37937">
        <ele>2724.03</ele>
        <time>2010-04-14T05:39:12Z</time>
      </trkpt>
      <trkpt lat="46.07153" lon="7.37947">
        <ele>2725.48</ele>
        <time>2010-04-14T05:39:23Z</time>
      </trkpt>
      <trkpt lat="46.07154" lon="7.37951">
        <ele>2725.96</ele>
        <time>2010-04-14T05:39:34Z</time>
      </trkpt>
      <trkpt lat="46.07158" lon="7.37959">
        <ele>2727.88</ele>
        <time>2010-04-14T05:39:50Z</time>
      </trkpt>
      <trkpt lat="46.07163" lon="7.37967">
        <ele>2729.32</ele>
        <time>2010-04-14T05:40:02Z</time>
      </trkpt>
      <trkpt lat="46.07165" lon="7.37974">
        <ele>2730.28</ele>
        <time>2010-04-14T05:40:17Z</time>
      </trkpt>
      <trkpt lat="46.07167" lon="7.37979">
        <ele>2731.72</ele>
        <time>2010-04-14T05:40:30Z</time>
      </trkpt>
      <trkpt lat="46.07167" lon="7.37979">
        <ele>2732.2</ele>
        <time>2010-04-14T05:40:43Z</time>
      </trkpt>
      <trkpt lat="46.07169" lon="7.37987">
        <ele>2733.17</ele>
        <time>2010-04-14T05:40:58Z</time>
      </trkpt>
      <trkpt lat="46.07169" lon="7.37987">
        <ele>2732.68</ele>
        <time>2010-04-14T05:41:13Z</time>
      </trkpt>
      <trkpt lat="46.07169" lon="7.37987">
        <ele>2732.2</ele>
        <time>2010-04-14T05:41:25Z</time>
      </trkpt>
      <trkpt lat="46.07171" lon="7.37992">
        <ele>2734.61</ele>
        <time>2010-04-14T05:41:32Z</time>
      </trkpt>
      <trkpt lat="46.07165" lon="7.37992">
        <ele>2736.05</ele>
        <time>2010-04-14T05:41:43Z</time>
      </trkpt>
      <trkpt lat="46.07158" lon="7.37992">
        <ele>2737.01</ele>
        <time>2010-04-14T05:41:56Z</time>
      </trkpt>
      <trkpt lat="46.07153" lon="7.37991">
        <ele>2738.93</ele>
        <time>2010-04-14T05:42:12Z</time>
      </trkpt>
      <trkpt lat="46.07145" lon="7.37992">
        <ele>2741.34</ele>
        <time>2010-04-14T05:42:25Z</time>
      </trkpt>
      <trkpt lat="46.07139" lon="7.37993">
        <ele>2744.22</ele>
        <time>2010-04-14T05:42:37Z</time>
      </trkpt>
      <trkpt lat="46.07139" lon="7.37994">
        <ele>2743.26</ele>
        <time>2010-04-14T05:42:38Z</time>
      </trkpt>
      <trkpt lat="46.07133" lon="7.37994">
        <ele>2743.74</ele>
        <time>2010-04-14T05:42:48Z</time>
      </trkpt>
      <trkpt lat="46.07133" lon="7.37994">
        <ele>2746.62</ele>
        <time>2010-04-14T05:43:03Z</time>
      </trkpt>
      <trkpt lat="46.07133" lon="7.37994">
        <ele>2745.66</ele>
        <time>2010-04-14T05:43:34Z</time>
      </trkpt>
      <trkpt lat="46.07122" lon="7.37996">
        <ele>2747.59</ele>
        <time>2010-04-14T05:44:27Z</time>
      </trkpt>
      <trkpt lat="46.0712" lon="7.37996">
        <ele>2748.07</ele>
        <time>2010-04-14T05:44:49Z</time>
      </trkpt>
      <trkpt lat="46.07117" lon="7.37997">
        <ele>2749.03</ele>
        <time>2010-04-14T05:45:06Z</time>
      </trkpt>
      <trkpt lat="46.07117" lon="7.37997">
        <ele>2749.99</ele>
        <time>2010-04-14T05:45:31Z</time>
      </trkpt>
      <trkpt lat="46.07117" lon="7.37997">
        <ele>2750.47</ele>
        <time>2010-04-14T05:45:39Z</time>
      </trkpt>
      <trkpt lat="46.07118" lon="7.38007">
        <ele>2752.87</ele>
        <time>2010-04-14T05:45:51Z</time>
      </trkpt>
      <trkpt lat="46.0712" lon="7.38012">
        <ele>2754.31</ele>
        <time>2010-04-14T05:46:03Z</time>
      </trkpt>
      <trkpt lat="46.0712" lon="7.38012">
        <ele>2755.28</ele>
        <time>2010-04-14T05:46:16Z</time>
      </trkpt>
      <trkpt lat="46.07121" lon="7.38016">
        <ele>2756.24</ele>
        <time>2010-04-14T05:46:27Z</time>
      </trkpt>
      <trkpt lat="46.07121" lon="7.38017">
        <ele>2757.2</ele>
        <time>2010-04-14T05:46:31Z</time>
      </trkpt>
      <trkpt lat="46.07125" lon="7.38028">
        <ele>2759.6</ele>
        <time>2010-04-14T05:46:46Z</time>
      </trkpt>
      <trkpt lat="46.07127" lon="7.38032">
        <ele>2760.08</ele>
        <time>2010-04-14T05:47:09Z</time>
      </trkpt>
      <trkpt lat="46.07129" lon="7.38036">
        <ele>2761.52</ele>
        <time>2010-04-14T05:47:28Z</time>
      </trkpt>
      <trkpt lat="46.07129" lon="7.38037">
        <ele>2761.52</ele>
        <time>2010-04-14T05:47:31Z</time>
      </trkpt>
      <trkpt lat="46.07124" lon="7.38041">
        <ele>2763.45</ele>
        <time>2010-04-14T05:47:43Z</time>
      </trkpt>
      <trkpt lat="46.07117" lon="7.38043">
        <ele>2765.37</ele>
        <time>2010-04-14T05:47:56Z</time>
      </trkpt>
      <trkpt lat="46.07117" lon="7.38043">
        <ele>2766.81</ele>
        <time>2010-04-14T05:48:09Z</time>
      </trkpt>
      <trkpt lat="46.07107" lon="7.38043">
        <ele>2768.25</ele>
        <time>2010-04-14T05:48:22Z</time>
      </trkpt>
      <trkpt lat="46.07101" lon="7.38042">
        <ele>2769.21</ele>
        <time>2010-04-14T05:48:36Z</time>
      </trkpt>
      <trkpt lat="46.07097" lon="7.38042">
        <ele>2770.18</ele>
        <time>2010-04-14T05:48:47Z</time>
      </trkpt>
      <trkpt lat="46.07092" lon="7.3804">
        <ele>2771.62</ele>
        <time>2010-04-14T05:49:07Z</time>
      </trkpt>
      <trkpt lat="46.07089" lon="7.38041">
        <ele>2772.1</ele>
        <time>2010-04-14T05:49:21Z</time>
      </trkpt>
      <trkpt lat="46.0709" lon="7.38047">
        <ele>2774.5</ele>
        <time>2010-04-14T05:49:34Z</time>
      </trkpt>
      <trkpt lat="46.07091" lon="7.38054">
        <ele>2775.94</ele>
        <time>2010-04-14T05:49:45Z</time>
      </trkpt>
      <trkpt lat="46.07091" lon="7.38054">
        <ele>2777.87</ele>
        <time>2010-04-14T05:50:02Z</time>
      </trkpt>
      <trkpt lat="46.07092" lon="7.38056">
        <ele>2779.31</ele>
        <time>2010-04-14T05:50:14Z</time>
      </trkpt>
      <trkpt lat="46.07094" lon="7.38061">
        <ele>2781.23</ele>
        <time>2010-04-14T05:50:25Z</time>
      </trkpt>
      <trkpt lat="46.07097" lon="7.38068">
        <ele>2783.15</ele>
        <time>2010-04-14T05:50:38Z</time>
      </trkpt>
      <trkpt lat="46.07097" lon="7.38068">
        <ele>2783.15</ele>
        <time>2010-04-14T05:50:52Z</time>
      </trkpt>
      <trkpt lat="46.07098" lon="7.38075">
        <ele>2784.12</ele>
        <time>2010-04-14T05:51:06Z</time>
      </trkpt>
      <trkpt lat="46.07099" lon="7.38087">
        <ele>2785.56</ele>
        <time>2010-04-14T05:51:18Z</time>
      </trkpt>
      <trkpt lat="46.07094" lon="7.38093">
        <ele>2787.96</ele>
        <time>2010-04-14T05:51:31Z</time>
      </trkpt>
      <trkpt lat="46.07091" lon="7.38095">
        <ele>2788.92</ele>
        <time>2010-04-14T05:51:44Z</time>
      </trkpt>
      <trkpt lat="46.07093" lon="7.38097">
        <ele>2790.36</ele>
        <time>2010-04-14T05:52:02Z</time>
      </trkpt>
      <trkpt lat="46.07097" lon="7.38103">
        <ele>2792.29</ele>
        <time>2010-04-14T05:52:13Z</time>
      </trkpt>
      <trkpt lat="46.07098" lon="7.38106">
        <ele>2792.29</ele>
        <time>2010-04-14T05:52:27Z</time>
      </trkpt>
      <trkpt lat="46.07098" lon="7.38108">
        <ele>2793.73</ele>
        <time>2010-04-14T05:52:38Z</time>
      </trkpt>
      <trkpt lat="46.07091" lon="7.38111">
        <ele>2795.65</ele>
        <time>2010-04-14T05:52:51Z</time>
      </trkpt>
      <trkpt lat="46.07088" lon="7.38113">
        <ele>2796.61</ele>
        <time>2010-04-14T05:53:05Z</time>
      </trkpt>
      <trkpt lat="46.07088" lon="7.38116">
        <ele>2797.57</ele>
        <time>2010-04-14T05:53:14Z</time>
      </trkpt>
      <trkpt lat="46.07093" lon="7.38124">
        <ele>2799.02</ele>
        <time>2010-04-14T05:53:27Z</time>
      </trkpt>
      <trkpt lat="46.07095" lon="7.38127">
        <ele>2799.5</ele>
        <time>2010-04-14T05:53:42Z</time>
      </trkpt>
      <trkpt lat="46.07092" lon="7.38129">
        <ele>2800.94</ele>
        <time>2010-04-14T05:53:54Z</time>
      </trkpt>
      <trkpt lat="46.07083" lon="7.38129">
        <ele>2802.86</ele>
        <time>2010-04-14T05:54:06Z</time>
      </trkpt>
      <trkpt lat="46.07076" lon="7.38129">
        <ele>2805.26</ele>
        <time>2010-04-14T05:54:19Z</time>
      </trkpt>
      <trkpt lat="46.07074" lon="7.38128">
        <ele>2805.75</ele>
        <time>2010-04-14T05:54:36Z</time>
      </trkpt>
      <trkpt lat="46.0707" lon="7.38126">
        <ele>2807.19</ele>
        <time>2010-04-14T05:54:41Z</time>
      </trkpt>
      <trkpt lat="46.0706" lon="7.38123">
        <ele>2809.11</ele>
        <time>2010-04-14T05:54:55Z</time>
      </trkpt>
      <trkpt lat="46.0706" lon="7.38132">
        <ele>2811.03</ele>
        <time>2010-04-14T05:55:07Z</time>
      </trkpt>
      <trkpt lat="46.0706" lon="7.38133">
        <ele>2810.55</ele>
        <time>2010-04-14T05:55:08Z</time>
      </trkpt>
      <trkpt lat="46.07058" lon="7.38138">
        <ele>2813.44</ele>
        <time>2010-04-14T05:55:18Z</time>
      </trkpt>
      <trkpt lat="46.0705" lon="7.38128">
        <ele>2814.4</ele>
        <time>2010-04-14T05:55:32Z</time>
      </trkpt>
      <trkpt lat="46.07048" lon="7.38129">
        <ele>2815.36</ele>
        <time>2010-04-14T05:55:42Z</time>
      </trkpt>
      <trkpt lat="46.07048" lon="7.38129">
        <ele>2813.92</ele>
        <time>2010-04-14T05:55:56Z</time>
      </trkpt>
      <trkpt lat="46.07048" lon="7.38129">
        <ele>2814.4</ele>
        <time>2010-04-14T05:56:18Z</time>
      </trkpt>
      <trkpt lat="46.07049" lon="7.38129">
        <ele>2812.96</ele>
        <time>2010-04-14T05:56:33Z</time>
      </trkpt>
      <trkpt lat="46.07049" lon="7.3813">
        <ele>2813.44</ele>
        <time>2010-04-14T05:56:59Z</time>
      </trkpt>
      <trkpt lat="46.0705" lon="7.38129">
        <ele>2812.96</ele>
        <time>2010-04-14T05:58:53Z</time>
      </trkpt>
      <trkpt lat="46.0705" lon="7.38129">
        <ele>2813.44</ele>
        <time>2010-04-14T05:59:34Z</time>
      </trkpt>
      <trkpt lat="46.07049" lon="7.38129">
        <ele>2812.96</ele>
        <time>2010-04-14T06:00:54Z</time>
      </trkpt>
      <trkpt lat="46.0705" lon="7.38129">
        <ele>2814.4</ele>
        <time>2010-04-14T06:02:13Z</time>
      </trkpt>
      <trkpt lat="46.0705" lon="7.3813">
        <ele>2809.59</ele>
        <time>2010-04-14T06:02:14Z</time>
      </trkpt>
      <trkpt lat="46.0705" lon="7.3813">
        <ele>2811.51</ele>
        <time>2010-04-14T06:02:15Z</time>
      </trkpt>
      <trkpt lat="46.0705" lon="7.3813">
        <ele>2813.44</ele>
        <time>2010-04-14T06:02:18Z</time>
      </trkpt>
      <trkpt lat="46.0705" lon="7.3813">
        <ele>2813.44</ele>
        <time>2010-04-14T06:02:59Z</time>
      </trkpt>
      <trkpt lat="46.07049" lon="7.38129">
        <ele>2812.47</ele>
        <time>2010-04-14T06:05:05Z</time>
      </trkpt>
      <trkpt lat="46.07049" lon="7.38129">
        <ele>2813.44</ele>
        <time>2010-04-14T06:05:15Z</time>
      </trkpt>
      <trkpt lat="46.07049" lon="7.38129">
        <ele>2813.92</ele>
        <time>2010-04-14T06:11:10Z</time>
      </trkpt>
      <trkpt lat="46.07049" lon="7.38129">
        <ele>2810.55</ele>
        <time>2010-04-14T06:11:16Z</time>
      </trkpt>
      <trkpt lat="46.07049" lon="7.38129">
        <ele>2817.76</ele>
        <time>2010-04-14T06:11:25Z</time>
      </trkpt>
      <trkpt lat="46.07049" lon="7.38129">
        <ele>2821.13</ele>
        <time>2010-04-14T06:11:26Z</time>
      </trkpt>
      <trkpt lat="46.07049" lon="7.38129">
        <ele>2814.88</ele>
        <time>2010-04-14T06:11:27Z</time>
      </trkpt>
      <trkpt lat="46.07049" lon="7.38129">
        <ele>2813.44</ele>
        <time>2010-04-14T06:11:29Z</time>
      </trkpt>
      <trkpt lat="46.07049" lon="7.38129">
        <ele>2813.92</ele>
        <time>2010-04-14T06:12:38Z</time>
      </trkpt>
      <trkpt lat="46.07049" lon="7.38128">
        <ele>2813.92</ele>
        <time>2010-04-14T06:12:46Z</time>
      </trkpt>
      <trkpt lat="46.07049" lon="7.38128">
        <ele>2814.88</ele>
        <time>2010-04-14T06:12:55Z</time>
      </trkpt>
      <trkpt lat="46.07049" lon="7.38128">
        <ele>2813.92</ele>
        <time>2010-04-14T06:13:25Z</time>
      </trkpt>
      <trkpt lat="46.07048" lon="7.38128">
        <ele>2813.92</ele>
        <time>2010-04-14T06:13:45Z</time>
      </trkpt>
      <trkpt lat="46.07048" lon="7.38128">
        <ele>2813.44</ele>
        <time>2010-04-14T06:14:17Z</time>
      </trkpt>
      <trkpt lat="46.07048" lon="7.38128">
        <ele>2813.44</ele>
        <time>2010-04-14T06:14:52Z</time>
      </trkpt>
      <trkpt lat="46.07048" lon="7.38128">
        <ele>2813.44</ele>
        <time>2010-04-14T06:15:27Z</time>
      </trkpt>
      <trkpt lat="46.07048" lon="7.38129">
        <ele>2813.44</ele>
        <time>2010-04-14T06:16:08Z</time>
      </trkpt>
      <trkpt lat="46.07048" lon="7.3813">
        <ele>2813.92</ele>
        <time>2010-04-14T06:16:33Z</time>
      </trkpt>
      <trkpt lat="46.07049" lon="7.38131">
        <ele>2813.44</ele>
        <time>2010-04-14T06:16:54Z</time>
      </trkpt>
      <trkpt lat="46.07049" lon="7.38132">
        <ele>2813.44</ele>
        <time>2010-04-14T06:17:01Z</time>
      </trkpt>
      <trkpt lat="46.07045" lon="7.38135">
        <ele>2810.55</ele>
        <time>2010-04-14T06:17:06Z</time>
      </trkpt>
      <trkpt lat="46.07044" lon="7.38136">
        <ele>2811.03</ele>
        <time>2010-04-14T06:17:10Z</time>
      </trkpt>
      <trkpt lat="46.07048" lon="7.38152">
        <ele>2806.23</ele>
        <time>2010-04-14T06:17:14Z</time>
      </trkpt>
      <trkpt lat="46.07054" lon="7.38164">
        <ele>2802.86</ele>
        <time>2010-04-14T06:17:17Z</time>
      </trkpt>
      <trkpt lat="46.07057" lon="7.38183">
        <ele>2799.02</ele>
        <time>2010-04-14T06:17:24Z</time>
      </trkpt>
      <trkpt lat="46.07056" lon="7.38185">
        <ele>2797.57</ele>
        <time>2010-04-14T06:18:07Z</time>
      </trkpt>
      <trkpt lat="46.07055" lon="7.38185">
        <ele>2797.57</ele>
        <time>2010-04-14T06:18:10Z</time>
      </trkpt>
      <trkpt lat="46.07048" lon="7.38184">
        <ele>2794.69</ele>
        <time>2010-04-14T06:18:15Z</time>
      </trkpt>
      <trkpt lat="46.07034" lon="7.38184">
        <ele>2790.36</ele>
        <time>2010-04-14T06:18:19Z</time>
      </trkpt>
      <trkpt lat="46.07021" lon="7.38186">
        <ele>2788.44</ele>
        <time>2010-04-14T06:18:22Z</time>
      </trkpt>
      <trkpt lat="46.0701" lon="7.38187">
        <ele>2785.08</ele>
        <time>2010-04-14T06:18:26Z</time>
      </trkpt>
      <trkpt lat="46.06998" lon="7.38184">
        <ele>2782.67</ele>
        <time>2010-04-14T06:18:34Z</time>
      </trkpt>
      <trkpt lat="46.06997" lon="7.38182">
        <ele>2783.15</ele>
        <time>2010-04-14T06:18:36Z</time>
      </trkpt>
      <trkpt lat="46.06989" lon="7.38176">
        <ele>2781.71</ele>
        <time>2010-04-14T06:18:40Z</time>
      </trkpt>
      <trkpt lat="46.06977" lon="7.38171">
        <ele>2779.31</ele>
        <time>2010-04-14T06:18:43Z</time>
      </trkpt>
      <trkpt lat="46.06963" lon="7.38172">
        <ele>2776.91</ele>
        <time>2010-04-14T06:18:46Z</time>
      </trkpt>
      <trkpt lat="46.06938" lon="7.38172">
        <ele>2773.06</ele>
        <time>2010-04-14T06:18:50Z</time>
      </trkpt>
      <trkpt lat="46.06934" lon="7.38171">
        <ele>2772.1</ele>
        <time>2010-04-14T06:18:51Z</time>
      </trkpt>
      <trkpt lat="46.06909" lon="7.38156">
        <ele>2769.21</ele>
        <time>2010-04-14T06:18:58Z</time>
      </trkpt>
      <trkpt lat="46.06888" lon="7.38137">
        <ele>2765.85</ele>
        <time>2010-04-14T06:19:08Z</time>
      </trkpt>
      <trkpt lat="46.06867" lon="7.381">
        <ele>2762.97</ele>
        <time>2010-04-14T06:19:22Z</time>
      </trkpt>
      <trkpt lat="46.06856" lon="7.38082">
        <ele>2760.56</ele>
        <time>2010-04-14T06:19:26Z</time>
      </trkpt>
      <trkpt lat="46.06846" lon="7.38061">
        <ele>2757.68</ele>
        <time>2010-04-14T06:19:29Z</time>
      </trkpt>
      <trkpt lat="46.06839" lon="7.38046">
        <ele>2756.24</ele>
        <time>2010-04-14T06:19:31Z</time>
      </trkpt>
      <trkpt lat="46.06832" lon="7.38036">
        <ele>2754.8</ele>
        <time>2010-04-14T06:19:34Z</time>
      </trkpt>
      <trkpt lat="46.06817" lon="7.38013">
        <ele>2750.47</ele>
        <time>2010-04-14T06:19:45Z</time>
      </trkpt>
      <trkpt lat="46.06817" lon="7.38013">
        <ele>2751.91</ele>
        <time>2010-04-14T06:20:15Z</time>
      </trkpt>
      <trkpt lat="46.06817" lon="7.38014">
        <ele>2751.43</ele>
        <time>2010-04-14T06:20:44Z</time>
      </trkpt>
      <trkpt lat="46.06808" lon="7.38005">
        <ele>2749.99</ele>
        <time>2010-04-14T06:21:03Z</time>
      </trkpt>
      <trkpt lat="46.06799" lon="7.37987">
        <ele>2746.62</ele>
        <time>2010-04-14T06:21:12Z</time>
      </trkpt>
      <trkpt lat="46.06795" lon="7.37977">
        <ele>2745.66</ele>
        <time>2010-04-14T06:21:16Z</time>
      </trkpt>
      <trkpt lat="46.06792" lon="7.37964">
        <ele>2743.74</ele>
        <time>2010-04-14T06:21:21Z</time>
      </trkpt>
      <trkpt lat="46.06787" lon="7.37942">
        <ele>2739.89</ele>
        <time>2010-04-14T06:21:29Z</time>
      </trkpt>
      <trkpt lat="46.06784" lon="7.37939">
        <ele>2739.41</ele>
        <time>2010-04-14T06:21:30Z</time>
      </trkpt>
      <trkpt lat="46.06776" lon="7.37934">
        <ele>2737.49</ele>
        <time>2010-04-14T06:21:33Z</time>
      </trkpt>
      <trkpt lat="46.06759" lon="7.37926">
        <ele>2733.17</ele>
        <time>2010-04-14T06:21:38Z</time>
      </trkpt>
      <trkpt lat="46.06748" lon="7.37919">
        <ele>2729.8</ele>
        <time>2010-04-14T06:21:42Z</time>
      </trkpt>
      <trkpt lat="46.06744" lon="7.37916">
        <ele>2726.44</ele>
        <time>2010-04-14T06:21:44Z</time>
      </trkpt>
      <trkpt lat="46.06742" lon="7.37914">
        <ele>2726.92</ele>
        <time>2010-04-14T06:21:45Z</time>
      </trkpt>
      <trkpt lat="46.06738" lon="7.3791">
        <ele>2724.51</ele>
        <time>2010-04-14T06:21:48Z</time>
      </trkpt>
      <trkpt lat="46.06729" lon="7.37894">
        <ele>2720.67</ele>
        <time>2010-04-14T06:21:54Z</time>
      </trkpt>
      <trkpt lat="46.06719" lon="7.37864">
        <ele>2719.71</ele>
        <time>2010-04-14T06:22:04Z</time>
      </trkpt>
      <trkpt lat="46.06699" lon="7.37832">
        <ele>2717.3</ele>
        <time>2010-04-14T06:22:13Z</time>
      </trkpt>
      <trkpt lat="46.06668" lon="7.37787">
        <ele>2713.94</ele>
        <time>2010-04-14T06:22:24Z</time>
      </trkpt>
      <trkpt lat="46.0666" lon="7.37778">
        <ele>2713.94</ele>
        <time>2010-04-14T06:22:26Z</time>
      </trkpt>
      <trkpt lat="46.06652" lon="7.37769">
        <ele>2712.98</ele>
        <time>2010-04-14T06:22:28Z</time>
      </trkpt>
      <trkpt lat="46.06639" lon="7.37762">
        <ele>2711.06</ele>
        <time>2010-04-14T06:22:31Z</time>
      </trkpt>
      <trkpt lat="46.06623" lon="7.37747">
        <ele>2709.61</ele>
        <time>2010-04-14T06:22:36Z</time>
      </trkpt>
      <trkpt lat="46.06617" lon="7.37737">
        <ele>2708.65</ele>
        <time>2010-04-14T06:22:46Z</time>
      </trkpt>
      <trkpt lat="46.06617" lon="7.37737">
        <ele>2709.13</ele>
        <time>2010-04-14T06:23:05Z</time>
      </trkpt>
      <trkpt lat="46.06618" lon="7.37736">
        <ele>2709.13</ele>
        <time>2010-04-14T06:23:14Z</time>
      </trkpt>
      <trkpt lat="46.06613" lon="7.37733">
        <ele>2709.13</ele>
        <time>2010-04-14T06:23:33Z</time>
      </trkpt>
      <trkpt lat="46.06614" lon="7.37732">
        <ele>2710.09</ele>
        <time>2010-04-14T06:23:38Z</time>
      </trkpt>
      <trkpt lat="46.06613" lon="7.37732">
        <ele>2709.61</ele>
        <time>2010-04-14T06:24:13Z</time>
      </trkpt>
      <trkpt lat="46.06612" lon="7.37731">
        <ele>2709.13</ele>
        <time>2010-04-14T06:24:23Z</time>
      </trkpt>
      <trkpt lat="46.06603" lon="7.37716">
        <ele>2708.65</ele>
        <time>2010-04-14T06:24:33Z</time>
      </trkpt>
      <trkpt lat="46.06584" lon="7.37686">
        <ele>2705.77</ele>
        <time>2010-04-14T06:24:45Z</time>
      </trkpt>
      <trkpt lat="46.0658" lon="7.37678">
        <ele>2705.29</ele>
        <time>2010-04-14T06:24:47Z</time>
      </trkpt>
      <trkpt lat="46.06566" lon="7.37652">
        <ele>2701.44</ele>
        <time>2010-04-14T06:24:53Z</time>
      </trkpt>
      <trkpt lat="46.06563" lon="7.37642">
        <ele>2700.48</ele>
        <time>2010-04-14T06:24:55Z</time>
      </trkpt>
      <trkpt lat="46.06561" lon="7.37624">
        <ele>2699.04</ele>
        <time>2010-04-14T06:24:58Z</time>
      </trkpt>
      <trkpt lat="46.06556" lon="7.37581">
        <ele>2696.15</ele>
        <time>2010-04-14T06:25:05Z</time>
      </trkpt>
      <trkpt lat="46.06555" lon="7.37573">
        <ele>2696.15</ele>
        <time>2010-04-14T06:25:06Z</time>
      </trkpt>
      <trkpt lat="46.06552" lon="7.37562">
        <ele>2694.71</ele>
        <time>2010-04-14T06:25:08Z</time>
      </trkpt>
      <trkpt lat="46.0654" lon="7.37521">
        <ele>2690.87</ele>
        <time>2010-04-14T06:25:19Z</time>
      </trkpt>
      <trkpt lat="46.06539" lon="7.37501">
        <ele>2690.39</ele>
        <time>2010-04-14T06:25:24Z</time>
      </trkpt>
      <trkpt lat="46.0653" lon="7.3749">
        <ele>2687.5</ele>
        <time>2010-04-14T06:25:28Z</time>
      </trkpt>
      <trkpt lat="46.06513" lon="7.37479">
        <ele>2684.14</ele>
        <time>2010-04-14T06:25:34Z</time>
      </trkpt>
      <trkpt lat="46.06506" lon="7.37474">
        <ele>2682.22</ele>
        <time>2010-04-14T06:25:36Z</time>
      </trkpt>
      <trkpt lat="46.06492" lon="7.37467">
        <ele>2678.37</ele>
        <time>2010-04-14T06:25:41Z</time>
      </trkpt>
      <trkpt lat="46.06475" lon="7.37453">
        <ele>2676.45</ele>
        <time>2010-04-14T06:25:48Z</time>
      </trkpt>
      <trkpt lat="46.06468" lon="7.37453">
        <ele>2671.64</ele>
        <time>2010-04-14T06:25:53Z</time>
      </trkpt>
      <trkpt lat="46.0646" lon="7.37451">
        <ele>2668.28</ele>
        <time>2010-04-14T06:25:57Z</time>
      </trkpt>
      <trkpt lat="46.06456" lon="7.37445">
        <ele>2667.31</ele>
        <time>2010-04-14T06:25:59Z</time>
      </trkpt>
      <trkpt lat="46.0645" lon="7.37436">
        <ele>2665.87</ele>
        <time>2010-04-14T06:26:02Z</time>
      </trkpt>
      <trkpt lat="46.06426" lon="7.37421">
        <ele>2662.99</ele>
        <time>2010-04-14T06:26:07Z</time>
      </trkpt>
      <trkpt lat="46.06384" lon="7.37423">
        <ele>2660.11</ele>
        <time>2010-04-14T06:26:15Z</time>
      </trkpt>
      <trkpt lat="46.06362" lon="7.37415">
        <ele>2658.66</ele>
        <time>2010-04-14T06:26:20Z</time>
      </trkpt>
      <trkpt lat="46.06337" lon="7.37397">
        <ele>2656.74</ele>
        <time>2010-04-14T06:26:27Z</time>
      </trkpt>
      <trkpt lat="46.06314" lon="7.37389">
        <ele>2656.26</ele>
        <time>2010-04-14T06:26:33Z</time>
      </trkpt>
      <trkpt lat="46.06293" lon="7.37396">
        <ele>2654.82</ele>
        <time>2010-04-14T06:26:39Z</time>
      </trkpt>
      <trkpt lat="46.06286" lon="7.37402">
        <ele>2653.38</ele>
        <time>2010-04-14T06:26:41Z</time>
      </trkpt>
      <trkpt lat="46.0628" lon="7.3741">
        <ele>2653.38</ele>
        <time>2010-04-14T06:26:45Z</time>
      </trkpt>
      <trkpt lat="46.06275" lon="7.37413">
        <ele>2654.34</ele>
        <time>2010-04-14T06:26:51Z</time>
      </trkpt>
      <trkpt lat="46.06269" lon="7.37413">
        <ele>2655.3</ele>
        <time>2010-04-14T06:27:01Z</time>
      </trkpt>
      <trkpt lat="46.06268" lon="7.37413">
        <ele>2654.82</ele>
        <time>2010-04-14T06:27:03Z</time>
      </trkpt>
      <trkpt lat="46.06261" lon="7.37408">
        <ele>2654.82</ele>
        <time>2010-04-14T06:27:15Z</time>
      </trkpt>
      <trkpt lat="46.06258" lon="7.37407">
        <ele>2655.3</ele>
        <time>2010-04-14T06:27:19Z</time>
      </trkpt>
      <trkpt lat="46.0625" lon="7.37405">
        <ele>2655.78</ele>
        <time>2010-04-14T06:27:25Z</time>
      </trkpt>
      <trkpt lat="46.06232" lon="7.374">
        <ele>2653.86</ele>
        <time>2010-04-14T06:27:30Z</time>
      </trkpt>
      <trkpt lat="46.06227" lon="7.37396">
        <ele>2653.86</ele>
        <time>2010-04-14T06:27:37Z</time>
      </trkpt>
      <trkpt lat="46.06226" lon="7.37395">
        <ele>2654.34</ele>
        <time>2010-04-14T06:27:39Z</time>
      </trkpt>
      <trkpt lat="46.06226" lon="7.37393">
        <ele>2655.3</ele>
        <time>2010-04-14T06:27:42Z</time>
      </trkpt>
      <trkpt lat="46.06225" lon="7.37392">
        <ele>2653.86</ele>
        <time>2010-04-14T06:27:44Z</time>
      </trkpt>
      <trkpt lat="46.06225" lon="7.37389">
        <ele>2654.34</ele>
        <time>2010-04-14T06:27:47Z</time>
      </trkpt>
      <trkpt lat="46.06223" lon="7.37387">
        <ele>2654.82</ele>
        <time>2010-04-14T06:27:50Z</time>
      </trkpt>
      <trkpt lat="46.06222" lon="7.37382">
        <ele>2655.3</ele>
        <time>2010-04-14T06:27:55Z</time>
      </trkpt>
      <trkpt lat="46.06221" lon="7.37378">
        <ele>2655.3</ele>
        <time>2010-04-14T06:28:05Z</time>
      </trkpt>
      <trkpt lat="46.06222" lon="7.37377">
        <ele>2655.3</ele>
        <time>2010-04-14T06:28:07Z</time>
      </trkpt>
      <trkpt lat="46.06221" lon="7.37375">
        <ele>2655.78</ele>
        <time>2010-04-14T06:28:10Z</time>
      </trkpt>
      <trkpt lat="46.06222" lon="7.37373">
        <ele>2656.26</ele>
        <time>2010-04-14T06:28:12Z</time>
      </trkpt>
      <trkpt lat="46.06223" lon="7.37364">
        <ele>2656.26</ele>
        <time>2010-04-14T06:28:22Z</time>
      </trkpt>
      <trkpt lat="46.06224" lon="7.37361">
        <ele>2657.22</ele>
        <time>2010-04-14T06:28:34Z</time>
      </trkpt>
      <trkpt lat="46.06222" lon="7.37353">
        <ele>2658.18</ele>
        <time>2010-04-14T06:28:43Z</time>
      </trkpt>
      <trkpt lat="46.06207" lon="7.37336">
        <ele>2656.26</ele>
        <time>2010-04-14T06:28:53Z</time>
      </trkpt>
      <trkpt lat="46.06201" lon="7.37335">
        <ele>2656.74</ele>
        <time>2010-04-14T06:28:57Z</time>
      </trkpt>
      <trkpt lat="46.06175" lon="7.37331">
        <ele>2654.82</ele>
        <time>2010-04-14T06:29:09Z</time>
      </trkpt>
      <trkpt lat="46.06173" lon="7.37331">
        <ele>2654.34</ele>
        <time>2010-04-14T06:29:14Z</time>
      </trkpt>
      <trkpt lat="46.06166" lon="7.3733">
        <ele>2653.86</ele>
        <time>2010-04-14T06:29:28Z</time>
      </trkpt>
      <trkpt lat="46.06138" lon="7.37338">
        <ele>2653.86</ele>
        <time>2010-04-14T06:29:40Z</time>
      </trkpt>
      <trkpt lat="46.06127" lon="7.37347">
        <ele>2653.38</ele>
        <time>2010-04-14T06:29:51Z</time>
      </trkpt>
      <trkpt lat="46.06125" lon="7.37349">
        <ele>2653.86</ele>
        <time>2010-04-14T06:29:56Z</time>
      </trkpt>
      <trkpt lat="46.0612" lon="7.37352">
        <ele>2653.38</ele>
        <time>2010-04-14T06:30:04Z</time>
      </trkpt>
      <trkpt lat="46.06117" lon="7.37351">
        <ele>2655.3</ele>
        <time>2010-04-14T06:30:15Z</time>
      </trkpt>
      <trkpt lat="46.06115" lon="7.37351">
        <ele>2654.82</ele>
        <time>2010-04-14T06:30:26Z</time>
      </trkpt>
      <trkpt lat="46.06115" lon="7.37351">
        <ele>2654.34</ele>
        <time>2010-04-14T06:30:43Z</time>
      </trkpt>
      <trkpt lat="46.06115" lon="7.37351">
        <ele>2653.86</ele>
        <time>2010-04-14T06:30:54Z</time>
      </trkpt>
      <trkpt lat="46.06116" lon="7.37351">
        <ele>2654.82</ele>
        <time>2010-04-14T06:31:05Z</time>
      </trkpt>
      <trkpt lat="46.06116" lon="7.37351">
        <ele>2653.38</ele>
        <time>2010-04-14T06:31:08Z</time>
      </trkpt>
      <trkpt lat="46.06116" lon="7.37351">
        <ele>2654.34</ele>
        <time>2010-04-14T06:31:24Z</time>
      </trkpt>
      <trkpt lat="46.06115" lon="7.37351">
        <ele>2654.82</ele>
        <time>2010-04-14T06:31:37Z</time>
      </trkpt>
      <trkpt lat="46.06116" lon="7.37352">
        <ele>2655.78</ele>
        <time>2010-04-14T06:31:39Z</time>
      </trkpt>
      <trkpt lat="46.06115" lon="7.37353">
        <ele>2655.3</ele>
        <time>2010-04-14T06:32:01Z</time>
      </trkpt>
      <trkpt lat="46.06114" lon="7.37352">
        <ele>2655.78</ele>
        <time>2010-04-14T06:32:11Z</time>
      </trkpt>
      <trkpt lat="46.0611" lon="7.37348">
        <ele>2656.74</ele>
        <time>2010-04-14T06:32:15Z</time>
      </trkpt>
      <trkpt lat="46.06106" lon="7.37343">
        <ele>2656.26</ele>
        <time>2010-04-14T06:32:22Z</time>
      </trkpt>
      <trkpt lat="46.06101" lon="7.37337">
        <ele>2655.3</ele>
        <time>2010-04-14T06:32:29Z</time>
      </trkpt>
      <trkpt lat="46.06099" lon="7.37335">
        <ele>2656.74</ele>
        <time>2010-04-14T06:32:32Z</time>
      </trkpt>
      <trkpt lat="46.06097" lon="7.37335">
        <ele>2656.26</ele>
        <time>2010-04-14T06:32:37Z</time>
      </trkpt>
      <trkpt lat="46.06078" lon="7.3735">
        <ele>2655.3</ele>
        <time>2010-04-14T06:32:47Z</time>
      </trkpt>
      <trkpt lat="46.06077" lon="7.37355">
        <ele>2656.26</ele>
        <time>2010-04-14T06:32:55Z</time>
      </trkpt>
      <trkpt lat="46.06064" lon="7.37354">
        <ele>2656.74</ele>
        <time>2010-04-14T06:33:04Z</time>
      </trkpt>
      <trkpt lat="46.06021" lon="7.37335">
        <ele>2653.86</ele>
        <time>2010-04-14T06:33:18Z</time>
      </trkpt>
      <trkpt lat="46.06" lon="7.37323">
        <ele>2650.97</ele>
        <time>2010-04-14T06:33:26Z</time>
      </trkpt>
      <trkpt lat="46.05997" lon="7.37321">
        <ele>2651.45</ele>
        <time>2010-04-14T06:33:27Z</time>
      </trkpt>
      <trkpt lat="46.05975" lon="7.37311">
        <ele>2648.57</ele>
        <time>2010-04-14T06:33:31Z</time>
      </trkpt>
      <trkpt lat="46.05958" lon="7.373">
        <ele>2644.24</ele>
        <time>2010-04-14T06:33:34Z</time>
      </trkpt>
      <trkpt lat="46.05942" lon="7.37298">
        <ele>2641.84</ele>
        <time>2010-04-14T06:33:38Z</time>
      </trkpt>
      <trkpt lat="46.05944" lon="7.3731">
        <ele>2637.99</ele>
        <time>2010-04-14T06:33:40Z</time>
      </trkpt>
      <trkpt lat="46.05939" lon="7.3733">
        <ele>2632.71</ele>
        <time>2010-04-14T06:33:44Z</time>
      </trkpt>
      <trkpt lat="46.05933" lon="7.37341">
        <ele>2630.79</ele>
        <time>2010-04-14T06:33:46Z</time>
      </trkpt>
      <trkpt lat="46.05916" lon="7.37392">
        <ele>2621.17</ele>
        <time>2010-04-14T06:33:50Z</time>
      </trkpt>
      <trkpt lat="46.05907" lon="7.37438">
        <ele>2615.4</ele>
        <time>2010-04-14T06:33:53Z</time>
      </trkpt>
      <trkpt lat="46.0591" lon="7.37464">
        <ele>2613.96</ele>
        <time>2010-04-14T06:33:55Z</time>
      </trkpt>
      <trkpt lat="46.05913" lon="7.37514">
        <ele>2612.52</ele>
        <time>2010-04-14T06:33:59Z</time>
      </trkpt>
      <trkpt lat="46.05912" lon="7.37539">
        <ele>2610.6</ele>
        <time>2010-04-14T06:34:01Z</time>
      </trkpt>
      <trkpt lat="46.05897" lon="7.37608">
        <ele>2605.31</ele>
        <time>2010-04-14T06:34:07Z</time>
      </trkpt>
      <trkpt lat="46.05898" lon="7.37644">
        <ele>2603.39</ele>
        <time>2010-04-14T06:34:10Z</time>
      </trkpt>
      <trkpt lat="46.05915" lon="7.37696">
        <ele>2599.54</ele>
        <time>2010-04-14T06:34:15Z</time>
      </trkpt>
      <trkpt lat="46.05922" lon="7.37715">
        <ele>2598.58</ele>
        <time>2010-04-14T06:34:17Z</time>
      </trkpt>
      <trkpt lat="46.05939" lon="7.37758">
        <ele>2597.14</ele>
        <time>2010-04-14T06:34:22Z</time>
      </trkpt>
      <trkpt lat="46.05946" lon="7.37773">
        <ele>2595.7</ele>
        <time>2010-04-14T06:34:24Z</time>
      </trkpt>
      <trkpt lat="46.05953" lon="7.37787">
        <ele>2594.74</ele>
        <time>2010-04-14T06:34:26Z</time>
      </trkpt>
      <trkpt lat="46.05956" lon="7.37794">
        <ele>2594.74</ele>
        <time>2010-04-14T06:34:27Z</time>
      </trkpt>
      <trkpt lat="46.05964" lon="7.37845">
        <ele>2592.81</ele>
        <time>2010-04-14T06:34:39Z</time>
      </trkpt>
      <trkpt lat="46.05962" lon="7.37855">
        <ele>2593.77</ele>
        <time>2010-04-14T06:34:53Z</time>
      </trkpt>
      <trkpt lat="46.0596" lon="7.37861">
        <ele>2593.77</ele>
        <time>2010-04-14T06:35:03Z</time>
      </trkpt>
      <trkpt lat="46.05961" lon="7.37888">
        <ele>2592.81</ele>
        <time>2010-04-14T06:35:13Z</time>
      </trkpt>
      <trkpt lat="46.05964" lon="7.37903">
        <ele>2593.29</ele>
        <time>2010-04-14T06:35:22Z</time>
      </trkpt>
      <trkpt lat="46.05964" lon="7.37914">
        <ele>2594.25</ele>
        <time>2010-04-14T06:35:31Z</time>
      </trkpt>
      <trkpt lat="46.05964" lon="7.37922">
        <ele>2594.74</ele>
        <time>2010-04-14T06:35:37Z</time>
      </trkpt>
      <trkpt lat="46.05961" lon="7.37926">
        <ele>2595.7</ele>
        <time>2010-04-14T06:35:41Z</time>
      </trkpt>
      <trkpt lat="46.05953" lon="7.37939">
        <ele>2595.7</ele>
        <time>2010-04-14T06:35:47Z</time>
      </trkpt>
      <trkpt lat="46.05949" lon="7.37962">
        <ele>2592.33</ele>
        <time>2010-04-14T06:35:51Z</time>
      </trkpt>
      <trkpt lat="46.05951" lon="7.38003">
        <ele>2590.89</ele>
        <time>2010-04-14T06:35:58Z</time>
      </trkpt>
      <trkpt lat="46.05959" lon="7.38031">
        <ele>2589.45</ele>
        <time>2010-04-14T06:36:03Z</time>
      </trkpt>
      <trkpt lat="46.05978" lon="7.38084">
        <ele>2588.49</ele>
        <time>2010-04-14T06:36:14Z</time>
      </trkpt>
      <trkpt lat="46.05977" lon="7.38093">
        <ele>2588.01</ele>
        <time>2010-04-14T06:36:16Z</time>
      </trkpt>
      <trkpt lat="46.05979" lon="7.38132">
        <ele>2584.16</ele>
        <time>2010-04-14T06:36:21Z</time>
      </trkpt>
      <trkpt lat="46.05985" lon="7.38186">
        <ele>2582.72</ele>
        <time>2010-04-14T06:36:30Z</time>
      </trkpt>
      <trkpt lat="46.05985" lon="7.38192">
        <ele>2583.2</ele>
        <time>2010-04-14T06:36:35Z</time>
      </trkpt>
      <trkpt lat="46.05986" lon="7.38197">
        <ele>2583.2</ele>
        <time>2010-04-14T06:36:39Z</time>
      </trkpt>
      <trkpt lat="46.05986" lon="7.38201">
        <ele>2583.68</ele>
        <time>2010-04-14T06:36:42Z</time>
      </trkpt>
      <trkpt lat="46.05988" lon="7.38209">
        <ele>2584.16</ele>
        <time>2010-04-14T06:36:49Z</time>
      </trkpt>
      <trkpt lat="46.05985" lon="7.38223">
        <ele>2586.08</ele>
        <time>2010-04-14T06:37:03Z</time>
      </trkpt>
      <trkpt lat="46.05982" lon="7.38233">
        <ele>2586.08</ele>
        <time>2010-04-14T06:37:16Z</time>
      </trkpt>
      <trkpt lat="46.05981" lon="7.38234">
        <ele>2586.08</ele>
        <time>2010-04-14T06:37:30Z</time>
      </trkpt>
      <trkpt lat="46.05981" lon="7.38234">
        <ele>2586.56</ele>
        <time>2010-04-14T06:37:57Z</time>
      </trkpt>
      <trkpt lat="46.05981" lon="7.38234">
        <ele>2586.08</ele>
        <time>2010-04-14T06:38:13Z</time>
      </trkpt>
      <trkpt lat="46.05981" lon="7.38234">
        <ele>2584.64</ele>
        <time>2010-04-14T06:39:05Z</time>
      </trkpt>
      <trkpt lat="46.05981" lon="7.38234">
        <ele>2585.12</ele>
        <time>2010-04-14T06:39:46Z</time>
      </trkpt>
      <trkpt lat="46.05981" lon="7.38234">
        <ele>2586.08</ele>
        <time>2010-04-14T06:42:12Z</time>
      </trkpt>
      <trkpt lat="46.05981" lon="7.38234">
        <ele>2587.04</ele>
        <time>2010-04-14T06:42:47Z</time>
      </trkpt>
      <trkpt lat="46.05981" lon="7.38234">
        <ele>2585.6</ele>
        <time>2010-04-14T06:43:12Z</time>
      </trkpt>
      <trkpt lat="46.05981" lon="7.38234">
        <ele>2582.24</ele>
        <time>2010-04-14T06:43:24Z</time>
      </trkpt>
      <trkpt lat="46.05981" lon="7.38234">
        <ele>2585.6</ele>
        <time>2010-04-14T06:43:27Z</time>
      </trkpt>
      <trkpt lat="46.05981" lon="7.38234">
        <ele>2581.28</ele>
        <time>2010-04-14T06:43:31Z</time>
      </trkpt>
      <trkpt lat="46.05981" lon="7.38234">
        <ele>2586.08</ele>
        <time>2010-04-14T06:43:32Z</time>
      </trkpt>
      <trkpt lat="46.05982" lon="7.38234">
        <ele>2586.56</ele>
        <time>2010-04-14T06:43:51Z</time>
      </trkpt>
      <trkpt lat="46.0598" lon="7.38233">
        <ele>2587.04</ele>
        <time>2010-04-14T06:44:02Z</time>
      </trkpt>
      <trkpt lat="46.0598" lon="7.38233">
        <ele>2587.04</ele>
        <time>2010-04-14T06:44:39Z</time>
      </trkpt>
      <trkpt lat="46.0598" lon="7.38234">
        <ele>2587.04</ele>
        <time>2010-04-14T06:44:52Z</time>
      </trkpt>
      <trkpt lat="46.0598" lon="7.38234">
        <ele>2586.56</ele>
        <time>2010-04-14T06:45:11Z</time>
      </trkpt>
      <trkpt lat="46.0598" lon="7.38234">
        <ele>2586.56</ele>
        <time>2010-04-14T06:45:38Z</time>
      </trkpt>
      <trkpt lat="46.0598" lon="7.38234">
        <ele>2587.04</ele>
        <time>2010-04-14T06:46:19Z</time>
      </trkpt>
      <trkpt lat="46.05974" lon="7.38241">
        <ele>2586.08</ele>
        <time>2010-04-14T06:46:23Z</time>
      </trkpt>
      <trkpt lat="46.05949" lon="7.38262">
        <ele>2584.64</ele>
        <time>2010-04-14T06:46:35Z</time>
      </trkpt>
      <trkpt lat="46.05926" lon="7.38292">
        <ele>2583.2</ele>
        <time>2010-04-14T06:46:45Z</time>
      </trkpt>
      <trkpt lat="46.0591" lon="7.38305">
        <ele>2582.24</ele>
        <time>2010-04-14T06:46:52Z</time>
      </trkpt>
      <trkpt lat="46.05883" lon="7.38337">
        <ele>2579.35</ele>
        <time>2010-04-14T06:47:00Z</time>
      </trkpt>
      <trkpt lat="46.05872" lon="7.38351">
        <ele>2577.91</ele>
        <time>2010-04-14T06:47:03Z</time>
      </trkpt>
      <trkpt lat="46.05852" lon="7.38376">
        <ele>2574.55</ele>
        <time>2010-04-14T06:47:08Z</time>
      </trkpt>
      <trkpt lat="46.05839" lon="7.38394">
        <ele>2573.11</ele>
        <time>2010-04-14T06:47:11Z</time>
      </trkpt>
      <trkpt lat="46.05831" lon="7.38406">
        <ele>2570.7</ele>
        <time>2010-04-14T06:47:13Z</time>
      </trkpt>
      <trkpt lat="46.05818" lon="7.38426">
        <ele>2569.74</ele>
        <time>2010-04-14T06:47:17Z</time>
      </trkpt>
      <trkpt lat="46.05792" lon="7.38466">
        <ele>2567.34</ele>
        <time>2010-04-14T06:47:28Z</time>
      </trkpt>
      <trkpt lat="46.05786" lon="7.38477">
        <ele>2570.22</ele>
        <time>2010-04-14T06:47:40Z</time>
      </trkpt>
      <trkpt lat="46.05786" lon="7.38478">
        <ele>2569.74</ele>
        <time>2010-04-14T06:47:53Z</time>
      </trkpt>
      <trkpt lat="46.05782" lon="7.38484">
        <ele>2568.3</ele>
        <time>2010-04-14T06:48:04Z</time>
      </trkpt>
      <trkpt lat="46.05782" lon="7.38486">
        <ele>2568.3</ele>
        <time>2010-04-14T06:48:30Z</time>
      </trkpt>
      <trkpt lat="46.05782" lon="7.38487">
        <ele>2568.78</ele>
        <time>2010-04-14T06:48:44Z</time>
      </trkpt>
      <trkpt lat="46.0578" lon="7.38486">
        <ele>2568.3</ele>
        <time>2010-04-14T06:48:47Z</time>
      </trkpt>
      <trkpt lat="46.05778" lon="7.38485">
        <ele>2568.3</ele>
        <time>2010-04-14T06:48:49Z</time>
      </trkpt>
      <trkpt lat="46.05748" lon="7.38496">
        <ele>2567.34</ele>
        <time>2010-04-14T06:49:03Z</time>
      </trkpt>
      <trkpt lat="46.05716" lon="7.38508">
        <ele>2563.49</ele>
        <time>2010-04-14T06:49:13Z</time>
      </trkpt>
      <trkpt lat="46.05713" lon="7.38509">
        <ele>2563.49</ele>
        <time>2010-04-14T06:49:14Z</time>
      </trkpt>
      <trkpt lat="46.05688" lon="7.38526">
        <ele>2562.05</ele>
        <time>2010-04-14T06:49:23Z</time>
      </trkpt>
      <trkpt lat="46.05669" lon="7.38541">
        <ele>2559.65</ele>
        <time>2010-04-14T06:49:28Z</time>
      </trkpt>
      <trkpt lat="46.05655" lon="7.38556">
        <ele>2556.28</ele>
        <time>2010-04-14T06:49:32Z</time>
      </trkpt>
      <trkpt lat="46.05647" lon="7.38566">
        <ele>2555.32</ele>
        <time>2010-04-14T06:49:35Z</time>
      </trkpt>
      <trkpt lat="46.05636" lon="7.38573">
        <ele>2553.4</ele>
        <time>2010-04-14T06:49:40Z</time>
      </trkpt>
      <trkpt lat="46.05612" lon="7.38592">
        <ele>2551</ele>
        <time>2010-04-14T06:49:49Z</time>
      </trkpt>
      <trkpt lat="46.05596" lon="7.3861">
        <ele>2549.55</ele>
        <time>2010-04-14T06:49:59Z</time>
      </trkpt>
      <trkpt lat="46.05576" lon="7.38625">
        <ele>2548.59</ele>
        <time>2010-04-14T06:50:10Z</time>
      </trkpt>
      <trkpt lat="46.05558" lon="7.38641">
        <ele>2547.63</ele>
        <time>2010-04-14T06:50:19Z</time>
      </trkpt>
      <trkpt lat="46.0553" lon="7.38662">
        <ele>2545.71</ele>
        <time>2010-04-14T06:50:31Z</time>
      </trkpt>
      <trkpt lat="46.05502" lon="7.38684">
        <ele>2542.82</ele>
        <time>2010-04-14T06:50:41Z</time>
      </trkpt>
      <trkpt lat="46.05495" lon="7.38691">
        <ele>2542.34</ele>
        <time>2010-04-14T06:50:43Z</time>
      </trkpt>
      <trkpt lat="46.0548" lon="7.38711">
        <ele>2540.42</ele>
        <time>2010-04-14T06:50:50Z</time>
      </trkpt>
      <trkpt lat="46.05472" lon="7.38711">
        <ele>2540.9</ele>
        <time>2010-04-14T06:50:56Z</time>
      </trkpt>
      <trkpt lat="46.05449" lon="7.38706">
        <ele>2538.98</ele>
        <time>2010-04-14T06:51:09Z</time>
      </trkpt>
      <trkpt lat="46.05432" lon="7.38712">
        <ele>2538.98</ele>
        <time>2010-04-14T06:51:31Z</time>
      </trkpt>
      <trkpt lat="46.05404" lon="7.38724">
        <ele>2535.13</ele>
        <time>2010-04-14T06:51:38Z</time>
      </trkpt>
      <trkpt lat="46.05399" lon="7.38726">
        <ele>2536.1</ele>
        <time>2010-04-14T06:51:39Z</time>
      </trkpt>
      <trkpt lat="46.05389" lon="7.38732">
        <ele>2534.65</ele>
        <time>2010-04-14T06:51:41Z</time>
      </trkpt>
      <trkpt lat="46.05374" lon="7.38746">
        <ele>2533.21</ele>
        <time>2010-04-14T06:51:44Z</time>
      </trkpt>
      <trkpt lat="46.05353" lon="7.38762">
        <ele>2531.77</ele>
        <time>2010-04-14T06:51:48Z</time>
      </trkpt>
      <trkpt lat="46.05343" lon="7.38767">
        <ele>2530.33</ele>
        <time>2010-04-14T06:51:50Z</time>
      </trkpt>
      <trkpt lat="46.0533" lon="7.38772">
        <ele>2527.92</ele>
        <time>2010-04-14T06:51:54Z</time>
      </trkpt>
      <trkpt lat="46.05327" lon="7.38772">
        <ele>2526.96</ele>
        <time>2010-04-14T06:51:56Z</time>
      </trkpt>
      <trkpt lat="46.05326" lon="7.38772">
        <ele>2526.48</ele>
        <time>2010-04-14T06:52:19Z</time>
      </trkpt>
      <trkpt lat="46.05326" lon="7.38773">
        <ele>2526</ele>
        <time>2010-04-14T06:52:21Z</time>
      </trkpt>
      <trkpt lat="46.05322" lon="7.38782">
        <ele>2523.12</ele>
        <time>2010-04-14T06:52:27Z</time>
      </trkpt>
      <trkpt lat="46.0532" lon="7.38785">
        <ele>2521.19</ele>
        <time>2010-04-14T06:52:29Z</time>
      </trkpt>
      <trkpt lat="46.05318" lon="7.38789">
        <ele>2517.83</ele>
        <time>2010-04-14T06:52:32Z</time>
      </trkpt>
      <trkpt lat="46.05318" lon="7.38794">
        <ele>2515.43</ele>
        <time>2010-04-14T06:52:38Z</time>
      </trkpt>
      <trkpt lat="46.05317" lon="7.38795">
        <ele>2514.95</ele>
        <time>2010-04-14T06:52:40Z</time>
      </trkpt>
      <trkpt lat="46.05313" lon="7.38797">
        <ele>2513.98</ele>
        <time>2010-04-14T06:52:42Z</time>
      </trkpt>
      <trkpt lat="46.05303" lon="7.38798">
        <ele>2510.62</ele>
        <time>2010-04-14T06:52:45Z</time>
      </trkpt>
      <trkpt lat="46.05271" lon="7.38809">
        <ele>2508.22</ele>
        <time>2010-04-14T06:52:55Z</time>
      </trkpt>
      <trkpt lat="46.05263" lon="7.38805">
        <ele>2509.66</ele>
        <time>2010-04-14T06:53:07Z</time>
      </trkpt>
      <trkpt lat="46.05263" lon="7.38804">
        <ele>2509.66</ele>
        <time>2010-04-14T06:53:08Z</time>
      </trkpt>
      <trkpt lat="46.05238" lon="7.38801">
        <ele>2508.7</ele>
        <time>2010-04-14T06:53:24Z</time>
      </trkpt>
      <trkpt lat="46.05232" lon="7.38799">
        <ele>2509.66</ele>
        <time>2010-04-14T06:53:33Z</time>
      </trkpt>
      <trkpt lat="46.05216" lon="7.38792">
        <ele>2506.29</ele>
        <time>2010-04-14T06:53:40Z</time>
      </trkpt>
      <trkpt lat="46.05213" lon="7.3879">
        <ele>2505.33</ele>
        <time>2010-04-14T06:53:41Z</time>
      </trkpt>
      <trkpt lat="46.05209" lon="7.38785">
        <ele>2506.29</ele>
        <time>2010-04-14T06:53:45Z</time>
      </trkpt>
      <trkpt lat="46.05197" lon="7.38782">
        <ele>2504.85</ele>
        <time>2010-04-14T06:53:52Z</time>
      </trkpt>
      <trkpt lat="46.05166" lon="7.38779">
        <ele>2503.41</ele>
        <time>2010-04-14T06:54:03Z</time>
      </trkpt>
      <trkpt lat="46.0516" lon="7.38779">
        <ele>2501.97</ele>
        <time>2010-04-14T06:54:15Z</time>
      </trkpt>
      <trkpt lat="46.05149" lon="7.38776">
        <ele>2502.45</ele>
        <time>2010-04-14T06:54:26Z</time>
      </trkpt>
      <trkpt lat="46.05141" lon="7.38773">
        <ele>2501.49</ele>
        <time>2010-04-14T06:54:28Z</time>
      </trkpt>
      <trkpt lat="46.05121" lon="7.38774">
        <ele>2499.57</ele>
        <time>2010-04-14T06:54:32Z</time>
      </trkpt>
      <trkpt lat="46.05087" lon="7.38789">
        <ele>2496.2</ele>
        <time>2010-04-14T06:54:39Z</time>
      </trkpt>
      <trkpt lat="46.05077" lon="7.38795">
        <ele>2495.72</ele>
        <time>2010-04-14T06:54:41Z</time>
      </trkpt>
      <trkpt lat="46.05063" lon="7.38803">
        <ele>2494.28</ele>
        <time>2010-04-14T06:54:44Z</time>
      </trkpt>
      <trkpt lat="46.05029" lon="7.38835">
        <ele>2492.84</ele>
        <time>2010-04-14T06:54:54Z</time>
      </trkpt>
      <trkpt lat="46.04988" lon="7.3888">
        <ele>2489.47</ele>
        <time>2010-04-14T06:55:06Z</time>
      </trkpt>
      <trkpt lat="46.04981" lon="7.38887">
        <ele>2488.99</ele>
        <time>2010-04-14T06:55:08Z</time>
      </trkpt>
      <trkpt lat="46.04969" lon="7.38895">
        <ele>2487.55</ele>
        <time>2010-04-14T06:55:11Z</time>
      </trkpt>
      <trkpt lat="46.04963" lon="7.389">
        <ele>2487.07</ele>
        <time>2010-04-14T06:55:13Z</time>
      </trkpt>
      <trkpt lat="46.04952" lon="7.3891">
        <ele>2486.59</ele>
        <time>2010-04-14T06:55:16Z</time>
      </trkpt>
      <trkpt lat="46.04921" lon="7.38941">
        <ele>2484.18</ele>
        <time>2010-04-14T06:55:24Z</time>
      </trkpt>
      <trkpt lat="46.04908" lon="7.38959">
        <ele>2482.74</ele>
        <time>2010-04-14T06:55:28Z</time>
      </trkpt>
      <trkpt lat="46.049" lon="7.38973">
        <ele>2481.78</ele>
        <time>2010-04-14T06:55:31Z</time>
      </trkpt>
      <trkpt lat="46.04901" lon="7.38994">
        <ele>2480.82</ele>
        <time>2010-04-14T06:55:35Z</time>
      </trkpt>
      <trkpt lat="46.04895" lon="7.39021">
        <ele>2482.26</ele>
        <time>2010-04-14T06:55:48Z</time>
      </trkpt>
      <trkpt lat="46.0489" lon="7.39035">
        <ele>2481.3</ele>
        <time>2010-04-14T06:56:01Z</time>
      </trkpt>
      <trkpt lat="46.04886" lon="7.39039">
        <ele>2482.26</ele>
        <time>2010-04-14T06:56:20Z</time>
      </trkpt>
      <trkpt lat="46.04886" lon="7.39039">
        <ele>2483.22</ele>
        <time>2010-04-14T06:56:51Z</time>
      </trkpt>
      <trkpt lat="46.04871" lon="7.39065">
        <ele>2482.74</ele>
        <time>2010-04-14T06:58:42Z</time>
      </trkpt>
      <trkpt lat="46.04869" lon="7.39069">
        <ele>2482.26</ele>
        <time>2010-04-14T06:58:43Z</time>
      </trkpt>
      <trkpt lat="46.04845" lon="7.3909">
        <ele>2479.38</ele>
        <time>2010-04-14T06:58:49Z</time>
      </trkpt>
      <trkpt lat="46.04829" lon="7.39106">
        <ele>2477.94</ele>
        <time>2010-04-14T06:58:53Z</time>
      </trkpt>
      <trkpt lat="46.04784" lon="7.39147">
        <ele>2473.61</ele>
        <time>2010-04-14T06:59:03Z</time>
      </trkpt>
      <trkpt lat="46.04749" lon="7.39169">
        <ele>2471.69</ele>
        <time>2010-04-14T06:59:13Z</time>
      </trkpt>
      <trkpt lat="46.04717" lon="7.39195">
        <ele>2469.28</ele>
        <time>2010-04-14T06:59:23Z</time>
      </trkpt>
      <trkpt lat="46.04708" lon="7.39207">
        <ele>2467.36</ele>
        <time>2010-04-14T06:59:26Z</time>
      </trkpt>
      <trkpt lat="46.04705" lon="7.39211">
        <ele>2466.88</ele>
        <time>2010-04-14T06:59:27Z</time>
      </trkpt>
      <trkpt lat="46.04669" lon="7.39236">
        <ele>2464.96</ele>
        <time>2010-04-14T06:59:39Z</time>
      </trkpt>
      <trkpt lat="46.0465" lon="7.39254">
        <ele>2464</ele>
        <time>2010-04-14T06:59:45Z</time>
      </trkpt>
      <trkpt lat="46.04642" lon="7.39279">
        <ele>2463.04</ele>
        <time>2010-04-14T06:59:50Z</time>
      </trkpt>
      <trkpt lat="46.0463" lon="7.39301">
        <ele>2460.63</ele>
        <time>2010-04-14T06:59:55Z</time>
      </trkpt>
      <trkpt lat="46.04617" lon="7.39313">
        <ele>2460.63</ele>
        <time>2010-04-14T07:00:00Z</time>
      </trkpt>
      <trkpt lat="46.04604" lon="7.39328">
        <ele>2459.67</ele>
        <time>2010-04-14T07:00:04Z</time>
      </trkpt>
      <trkpt lat="46.04581" lon="7.39348">
        <ele>2458.23</ele>
        <time>2010-04-14T07:00:12Z</time>
      </trkpt>
      <trkpt lat="46.04575" lon="7.39338">
        <ele>2460.15</ele>
        <time>2010-04-14T07:00:25Z</time>
      </trkpt>
      <trkpt lat="46.04568" lon="7.3933">
        <ele>2460.15</ele>
        <time>2010-04-14T07:00:37Z</time>
      </trkpt>
      <trkpt lat="46.04565" lon="7.3933">
        <ele>2460.63</ele>
        <time>2010-04-14T07:01:20Z</time>
      </trkpt>
      <trkpt lat="46.04553" lon="7.39329">
        <ele>2460.15</ele>
        <time>2010-04-14T07:01:27Z</time>
      </trkpt>
      <trkpt lat="46.04525" lon="7.39315">
        <ele>2459.19</ele>
        <time>2010-04-14T07:01:36Z</time>
      </trkpt>
      <trkpt lat="46.04505" lon="7.39311">
        <ele>2458.71</ele>
        <time>2010-04-14T07:01:41Z</time>
      </trkpt>
      <trkpt lat="46.04483" lon="7.39317">
        <ele>2457.27</ele>
        <time>2010-04-14T07:01:45Z</time>
      </trkpt>
      <trkpt lat="46.04474" lon="7.39327">
        <ele>2455.34</ele>
        <time>2010-04-14T07:01:47Z</time>
      </trkpt>
      <trkpt lat="46.04452" lon="7.39338">
        <ele>2454.86</ele>
        <time>2010-04-14T07:01:53Z</time>
      </trkpt>
      <trkpt lat="46.04448" lon="7.39338">
        <ele>2454.86</ele>
        <time>2010-04-14T07:01:55Z</time>
      </trkpt>
      <trkpt lat="46.04437" lon="7.39333">
        <ele>2454.38</ele>
        <time>2010-04-14T07:02:00Z</time>
      </trkpt>
      <trkpt lat="46.04433" lon="7.39332">
        <ele>2453.9</ele>
        <time>2010-04-14T07:02:01Z</time>
      </trkpt>
      <trkpt lat="46.04421" lon="7.3935">
        <ele>2452.46</ele>
        <time>2010-04-14T07:02:10Z</time>
      </trkpt>
      <trkpt lat="46.04407" lon="7.39359">
        <ele>2451.5</ele>
        <time>2010-04-14T07:02:25Z</time>
      </trkpt>
      <trkpt lat="46.04404" lon="7.3936">
        <ele>2451.5</ele>
        <time>2010-04-14T07:02:26Z</time>
      </trkpt>
      <trkpt lat="46.04367" lon="7.3936">
        <ele>2449.1</ele>
        <time>2010-04-14T07:02:39Z</time>
      </trkpt>
      <trkpt lat="46.04328" lon="7.39369">
        <ele>2446.69</ele>
        <time>2010-04-14T07:02:50Z</time>
      </trkpt>
      <trkpt lat="46.04303" lon="7.39392">
        <ele>2445.25</ele>
        <time>2010-04-14T07:02:56Z</time>
      </trkpt>
      <trkpt lat="46.04294" lon="7.39401">
        <ele>2444.29</ele>
        <time>2010-04-14T07:02:58Z</time>
      </trkpt>
      <trkpt lat="46.04275" lon="7.39414">
        <ele>2442.37</ele>
        <time>2010-04-14T07:03:03Z</time>
      </trkpt>
      <trkpt lat="46.04261" lon="7.39419">
        <ele>2442.37</ele>
        <time>2010-04-14T07:03:08Z</time>
      </trkpt>
      <trkpt lat="46.04253" lon="7.39421">
        <ele>2442.85</ele>
        <time>2010-04-14T07:03:10Z</time>
      </trkpt>
      <trkpt lat="46.04244" lon="7.39426">
        <ele>2441.41</ele>
        <time>2010-04-14T07:03:12Z</time>
      </trkpt>
      <trkpt lat="46.04221" lon="7.39441">
        <ele>2439.48</ele>
        <time>2010-04-14T07:03:17Z</time>
      </trkpt>
      <trkpt lat="46.04197" lon="7.39466">
        <ele>2437.08</ele>
        <time>2010-04-14T07:03:23Z</time>
      </trkpt>
      <trkpt lat="46.04178" lon="7.39502">
        <ele>2434.68</ele>
        <time>2010-04-14T07:03:29Z</time>
      </trkpt>
      <trkpt lat="46.04169" lon="7.39523">
        <ele>2433.71</ele>
        <time>2010-04-14T07:03:37Z</time>
      </trkpt>
      <trkpt lat="46.04169" lon="7.39524">
        <ele>2434.2</ele>
        <time>2010-04-14T07:03:40Z</time>
      </trkpt>
      <trkpt lat="46.04136" lon="7.39563">
        <ele>2432.75</ele>
        <time>2010-04-14T07:03:54Z</time>
      </trkpt>
      <trkpt lat="46.04123" lon="7.3957">
        <ele>2431.31</ele>
        <time>2010-04-14T07:03:58Z</time>
      </trkpt>
      <trkpt lat="46.04121" lon="7.3957">
        <ele>2431.31</ele>
        <time>2010-04-14T07:03:59Z</time>
      </trkpt>
      <trkpt lat="46.04113" lon="7.39571">
        <ele>2430.35</ele>
        <time>2010-04-14T07:04:01Z</time>
      </trkpt>
      <trkpt lat="46.04095" lon="7.39576">
        <ele>2429.39</ele>
        <time>2010-04-14T07:04:05Z</time>
      </trkpt>
      <trkpt lat="46.04058" lon="7.39594">
        <ele>2426.99</ele>
        <time>2010-04-14T07:04:14Z</time>
      </trkpt>
      <trkpt lat="46.04046" lon="7.39608">
        <ele>2425.54</ele>
        <time>2010-04-14T07:04:17Z</time>
      </trkpt>
      <trkpt lat="46.04023" lon="7.39621">
        <ele>2425.06</ele>
        <time>2010-04-14T07:04:25Z</time>
      </trkpt>
      <trkpt lat="46.0401" lon="7.39618">
        <ele>2424.58</ele>
        <time>2010-04-14T07:04:28Z</time>
      </trkpt>
      <trkpt lat="46.03994" lon="7.3962">
        <ele>2421.7</ele>
        <time>2010-04-14T07:04:31Z</time>
      </trkpt>
      <trkpt lat="46.03954" lon="7.39631">
        <ele>2420.74</ele>
        <time>2010-04-14T07:04:42Z</time>
      </trkpt>
      <trkpt lat="46.03952" lon="7.39631">
        <ele>2420.74</ele>
        <time>2010-04-14T07:04:43Z</time>
      </trkpt>
      <trkpt lat="46.03939" lon="7.39632">
        <ele>2418.33</ele>
        <time>2010-04-14T07:04:48Z</time>
      </trkpt>
      <trkpt lat="46.03933" lon="7.39642">
        <ele>2417.37</ele>
        <time>2010-04-14T07:04:50Z</time>
      </trkpt>
      <trkpt lat="46.03915" lon="7.39664">
        <ele>2414.97</ele>
        <time>2010-04-14T07:04:58Z</time>
      </trkpt>
      <trkpt lat="46.03907" lon="7.39673">
        <ele>2410.16</ele>
        <time>2010-04-14T07:05:00Z</time>
      </trkpt>
      <trkpt lat="46.03885" lon="7.39715">
        <ele>2411.6</ele>
        <time>2010-04-14T07:05:06Z</time>
      </trkpt>
      <trkpt lat="46.03874" lon="7.3973">
        <ele>2409.68</ele>
        <time>2010-04-14T07:05:10Z</time>
      </trkpt>
      <trkpt lat="46.03867" lon="7.39732">
        <ele>2409.68</ele>
        <time>2010-04-14T07:05:12Z</time>
      </trkpt>
      <trkpt lat="46.03843" lon="7.3976">
        <ele>2408.72</ele>
        <time>2010-04-14T07:05:22Z</time>
      </trkpt>
      <trkpt lat="46.03833" lon="7.39771">
        <ele>2408.24</ele>
        <time>2010-04-14T07:05:26Z</time>
      </trkpt>
      <trkpt lat="46.03803" lon="7.39791">
        <ele>2407.28</ele>
        <time>2010-04-14T07:05:39Z</time>
      </trkpt>
      <trkpt lat="46.03784" lon="7.39812">
        <ele>2406.8</ele>
        <time>2010-04-14T07:05:52Z</time>
      </trkpt>
      <trkpt lat="46.03779" lon="7.39816">
        <ele>2408.24</ele>
        <time>2010-04-14T07:06:02Z</time>
      </trkpt>
      <trkpt lat="46.03777" lon="7.39816">
        <ele>2408.72</ele>
        <time>2010-04-14T07:06:12Z</time>
      </trkpt>
      <trkpt lat="46.03773" lon="7.39823">
        <ele>2409.68</ele>
        <time>2010-04-14T07:06:22Z</time>
      </trkpt>
      <trkpt lat="46.03773" lon="7.39825">
        <ele>2409.68</ele>
        <time>2010-04-14T07:06:24Z</time>
      </trkpt>
      <trkpt lat="46.03771" lon="7.39854">
        <ele>2408.24</ele>
        <time>2010-04-14T07:06:34Z</time>
      </trkpt>
      <trkpt lat="46.03772" lon="7.39857">
        <ele>2408.72</ele>
        <time>2010-04-14T07:06:48Z</time>
      </trkpt>
      <trkpt lat="46.03773" lon="7.39864">
        <ele>2409.2</ele>
        <time>2010-04-14T07:07:03Z</time>
      </trkpt>
      <trkpt lat="46.03772" lon="7.39866">
        <ele>2409.68</ele>
        <time>2010-04-14T07:07:05Z</time>
      </trkpt>
      <trkpt lat="46.03771" lon="7.39877">
        <ele>2410.64</ele>
        <time>2010-04-14T07:07:14Z</time>
      </trkpt>
      <trkpt lat="46.0377" lon="7.39878">
        <ele>2410.16</ele>
        <time>2010-04-14T07:07:16Z</time>
      </trkpt>
      <trkpt lat="46.03766" lon="7.39893">
        <ele>2411.6</ele>
        <time>2010-04-14T07:07:28Z</time>
      </trkpt>
      <trkpt lat="46.03761" lon="7.399">
        <ele>2412.57</ele>
        <time>2010-04-14T07:07:38Z</time>
      </trkpt>
      <trkpt lat="46.03756" lon="7.39908">
        <ele>2413.53</ele>
        <time>2010-04-14T07:07:48Z</time>
      </trkpt>
      <trkpt lat="46.03751" lon="7.39916">
        <ele>2415.45</ele>
        <time>2010-04-14T07:08:00Z</time>
      </trkpt>
      <trkpt lat="46.0375" lon="7.39917">
        <ele>2414.97</ele>
        <time>2010-04-14T07:08:21Z</time>
      </trkpt>
      <trkpt lat="46.03749" lon="7.39918">
        <ele>2410.64</ele>
        <time>2010-04-14T07:08:24Z</time>
      </trkpt>
      <trkpt lat="46.03749" lon="7.39917">
        <ele>2414.97</ele>
        <time>2010-04-14T07:08:25Z</time>
      </trkpt>
      <trkpt lat="46.03749" lon="7.39917">
        <ele>2410.64</ele>
        <time>2010-04-14T07:09:03Z</time>
      </trkpt>
      <trkpt lat="46.03749" lon="7.39917">
        <ele>2412.57</ele>
        <time>2010-04-14T07:09:04Z</time>
      </trkpt>
      <trkpt lat="46.03749" lon="7.39917">
        <ele>2415.93</ele>
        <time>2010-04-14T07:09:06Z</time>
      </trkpt>
      <trkpt lat="46.03749" lon="7.39917">
        <ele>2415.45</ele>
        <time>2010-04-14T07:10:31Z</time>
      </trkpt>
      <trkpt lat="46.03749" lon="7.39917">
        <ele>2415.93</ele>
        <time>2010-04-14T07:10:43Z</time>
      </trkpt>
      <trkpt lat="46.03749" lon="7.39917">
        <ele>2412.57</ele>
        <time>2010-04-14T07:10:54Z</time>
      </trkpt>
      <trkpt lat="46.03749" lon="7.39917">
        <ele>2416.41</ele>
        <time>2010-04-14T07:10:57Z</time>
      </trkpt>
      <trkpt lat="46.03749" lon="7.39917">
        <ele>2416.41</ele>
        <time>2010-04-14T07:10:58Z</time>
      </trkpt>
      <trkpt lat="46.03749" lon="7.39917">
        <ele>2414.97</ele>
        <time>2010-04-14T07:11:00Z</time>
      </trkpt>
      <trkpt lat="46.0375" lon="7.39918">
        <ele>2416.89</ele>
        <time>2010-04-14T07:12:34Z</time>
      </trkpt>
      <trkpt lat="46.03749" lon="7.39918">
        <ele>2417.37</ele>
        <time>2010-04-14T07:13:51Z</time>
      </trkpt>
      <trkpt lat="46.03743" lon="7.3992">
        <ele>2417.37</ele>
        <time>2010-04-14T07:13:55Z</time>
      </trkpt>
      <trkpt lat="46.03731" lon="7.39933">
        <ele>2415.45</ele>
        <time>2010-04-14T07:13:58Z</time>
      </trkpt>
      <trkpt lat="46.03726" lon="7.39943">
        <ele>2414.97</ele>
        <time>2010-04-14T07:14:00Z</time>
      </trkpt>
      <trkpt lat="46.037" lon="7.39972">
        <ele>2414.49</ele>
        <time>2010-04-14T07:14:11Z</time>
      </trkpt>
      <trkpt lat="46.03693" lon="7.39981">
        <ele>2414.97</ele>
        <time>2010-04-14T07:14:14Z</time>
      </trkpt>
      <trkpt lat="46.03677" lon="7.39989">
        <ele>2415.93</ele>
        <time>2010-04-14T07:14:24Z</time>
      </trkpt>
      <trkpt lat="46.03673" lon="7.39994">
        <ele>2415.93</ele>
        <time>2010-04-14T07:14:41Z</time>
      </trkpt>
      <trkpt lat="46.0365" lon="7.40006">
        <ele>2413.53</ele>
        <time>2010-04-14T07:14:52Z</time>
      </trkpt>
      <trkpt lat="46.0362" lon="7.40019">
        <ele>2410.16</ele>
        <time>2010-04-14T07:15:01Z</time>
      </trkpt>
      <trkpt lat="46.03593" lon="7.40024">
        <ele>2409.68</ele>
        <time>2010-04-14T07:15:10Z</time>
      </trkpt>
      <trkpt lat="46.03576" lon="7.40025">
        <ele>2408.24</ele>
        <time>2010-04-14T07:15:14Z</time>
      </trkpt>
      <trkpt lat="46.03568" lon="7.40029">
        <ele>2407.76</ele>
        <time>2010-04-14T07:15:16Z</time>
      </trkpt>
      <trkpt lat="46.03528" lon="7.40064">
        <ele>2405.36</ele>
        <time>2010-04-14T07:15:29Z</time>
      </trkpt>
      <trkpt lat="46.03505" lon="7.40078">
        <ele>2404.39</ele>
        <time>2010-04-14T07:15:42Z</time>
      </trkpt>
      <trkpt lat="46.03497" lon="7.40082">
        <ele>2402.95</ele>
        <time>2010-04-14T07:15:46Z</time>
      </trkpt>
      <trkpt lat="46.0349" lon="7.40081">
        <ele>2401.99</ele>
        <time>2010-04-14T07:16:02Z</time>
      </trkpt>
      <trkpt lat="46.03491" lon="7.40081">
        <ele>2402.95</ele>
        <time>2010-04-14T07:16:13Z</time>
      </trkpt>
      <trkpt lat="46.03491" lon="7.40081">
        <ele>2401.03</ele>
        <time>2010-04-14T07:16:23Z</time>
      </trkpt>
      <trkpt lat="46.03491" lon="7.40081">
        <ele>2401.51</ele>
        <time>2010-04-14T07:16:32Z</time>
      </trkpt>
      <trkpt lat="46.03491" lon="7.40081">
        <ele>2404.88</ele>
        <time>2010-04-14T07:16:57Z</time>
      </trkpt>
      <trkpt lat="46.03491" lon="7.40081">
        <ele>2400.55</ele>
        <time>2010-04-14T07:16:58Z</time>
      </trkpt>
      <trkpt lat="46.03491" lon="7.40081">
        <ele>2401.99</ele>
        <time>2010-04-14T07:17:01Z</time>
      </trkpt>
      <trkpt lat="46.03491" lon="7.40081">
        <ele>2400.55</ele>
        <time>2010-04-14T07:17:09Z</time>
      </trkpt>
      <trkpt lat="46.03491" lon="7.4008">
        <ele>2403.91</ele>
        <time>2010-04-14T07:17:11Z</time>
      </trkpt>
      <trkpt lat="46.03492" lon="7.40082">
        <ele>2402.95</ele>
        <time>2010-04-14T07:17:23Z</time>
      </trkpt>
      <trkpt lat="46.03492" lon="7.40082">
        <ele>2402.47</ele>
        <time>2010-04-14T07:17:43Z</time>
      </trkpt>
      <trkpt lat="46.03492" lon="7.40091">
        <ele>2400.55</ele>
        <time>2010-04-14T07:17:51Z</time>
      </trkpt>
      <trkpt lat="46.03492" lon="7.40093">
        <ele>2400.07</ele>
        <time>2010-04-14T07:17:52Z</time>
      </trkpt>
      <trkpt lat="46.03506" lon="7.40099">
        <ele>2397.67</ele>
        <time>2010-04-14T07:17:57Z</time>
      </trkpt>
      <trkpt lat="46.03514" lon="7.40114">
        <ele>2392.86</ele>
        <time>2010-04-14T07:18:02Z</time>
      </trkpt>
      <trkpt lat="46.03514" lon="7.40123">
        <ele>2387.57</ele>
        <time>2010-04-14T07:18:04Z</time>
      </trkpt>
      <trkpt lat="46.03514" lon="7.40128">
        <ele>2385.65</ele>
        <time>2010-04-14T07:18:05Z</time>
      </trkpt>
      <trkpt lat="46.03514" lon="7.40139">
        <ele>2379.88</ele>
        <time>2010-04-14T07:18:07Z</time>
      </trkpt>
      <trkpt lat="46.03514" lon="7.40143">
        <ele>2377.96</ele>
        <time>2010-04-14T07:18:08Z</time>
      </trkpt>
      <trkpt lat="46.03512" lon="7.40154">
        <ele>2372.67</ele>
        <time>2010-04-14T07:18:10Z</time>
      </trkpt>
      <trkpt lat="46.03509" lon="7.40157">
        <ele>2370.27</ele>
        <time>2010-04-14T07:18:11Z</time>
      </trkpt>
      <trkpt lat="46.03507" lon="7.40173">
        <ele>2365.46</ele>
        <time>2010-04-14T07:18:14Z</time>
      </trkpt>
      <trkpt lat="46.03507" lon="7.40178">
        <ele>2364.02</ele>
        <time>2010-04-14T07:18:15Z</time>
      </trkpt>
      <trkpt lat="46.03491" lon="7.40178">
        <ele>2361.62</ele>
        <time>2010-04-14T07:18:22Z</time>
      </trkpt>
      <trkpt lat="46.03479" lon="7.40186">
        <ele>2363.06</ele>
        <time>2010-04-14T07:18:35Z</time>
      </trkpt>
      <trkpt lat="46.03478" lon="7.40187">
        <ele>2363.54</ele>
        <time>2010-04-14T07:18:47Z</time>
      </trkpt>
      <trkpt lat="46.03478" lon="7.40189">
        <ele>2361.62</ele>
        <time>2010-04-14T07:19:01Z</time>
      </trkpt>
      <trkpt lat="46.0348" lon="7.40189">
        <ele>2364.98</ele>
        <time>2010-04-14T07:21:28Z</time>
      </trkpt>
      <trkpt lat="46.0348" lon="7.40189">
        <ele>2364.98</ele>
        <time>2010-04-14T07:22:07Z</time>
      </trkpt>
      <trkpt lat="46.03478" lon="7.4021">
        <ele>2362.1</ele>
        <time>2010-04-14T07:22:12Z</time>
      </trkpt>
      <trkpt lat="46.03479" lon="7.40217">
        <ele>2360.17</ele>
        <time>2010-04-14T07:22:13Z</time>
      </trkpt>
      <trkpt lat="46.03479" lon="7.4024">
        <ele>2352.96</ele>
        <time>2010-04-14T07:22:16Z</time>
      </trkpt>
      <trkpt lat="46.03482" lon="7.40265">
        <ele>2345.75</ele>
        <time>2010-04-14T07:22:19Z</time>
      </trkpt>
      <trkpt lat="46.03489" lon="7.40295">
        <ele>2340.47</ele>
        <time>2010-04-14T07:22:22Z</time>
      </trkpt>
      <trkpt lat="46.03491" lon="7.40316">
        <ele>2336.62</ele>
        <time>2010-04-14T07:22:24Z</time>
      </trkpt>
      <trkpt lat="46.03492" lon="7.40326">
        <ele>2335.18</ele>
        <time>2010-04-14T07:22:25Z</time>
      </trkpt>
      <trkpt lat="46.03493" lon="7.40336">
        <ele>2331.33</ele>
        <time>2010-04-14T07:22:26Z</time>
      </trkpt>
      <trkpt lat="46.03494" lon="7.40358">
        <ele>2327.49</ele>
        <time>2010-04-14T07:22:29Z</time>
      </trkpt>
      <trkpt lat="46.03492" lon="7.40361">
        <ele>2324.12</ele>
        <time>2010-04-14T07:22:31Z</time>
      </trkpt>
      <trkpt lat="46.03487" lon="7.40367">
        <ele>2323.64</ele>
        <time>2010-04-14T07:22:33Z</time>
      </trkpt>
      <trkpt lat="46.03486" lon="7.40383">
        <ele>2318.36</ele>
        <time>2010-04-14T07:22:36Z</time>
      </trkpt>
      <trkpt lat="46.03486" lon="7.40394">
        <ele>2314.03</ele>
        <time>2010-04-14T07:22:38Z</time>
      </trkpt>
      <trkpt lat="46.03489" lon="7.40406">
        <ele>2310.19</ele>
        <time>2010-04-14T07:22:40Z</time>
      </trkpt>
      <trkpt lat="46.03491" lon="7.40417">
        <ele>2305.86</ele>
        <time>2010-04-14T07:22:42Z</time>
      </trkpt>
      <trkpt lat="46.03487" lon="7.40426">
        <ele>2302.49</ele>
        <time>2010-04-14T07:22:44Z</time>
      </trkpt>
      <trkpt lat="46.03482" lon="7.40438">
        <ele>2301.05</ele>
        <time>2010-04-14T07:22:47Z</time>
      </trkpt>
      <trkpt lat="46.03476" lon="7.40454">
        <ele>2300.09</ele>
        <time>2010-04-14T07:22:50Z</time>
      </trkpt>
      <trkpt lat="46.03479" lon="7.40468">
        <ele>2296.25</ele>
        <time>2010-04-14T07:22:53Z</time>
      </trkpt>
      <trkpt lat="46.03481" lon="7.40472">
        <ele>2293.84</ele>
        <time>2010-04-14T07:22:56Z</time>
      </trkpt>
      <trkpt lat="46.0348" lon="7.40471">
        <ele>2294.32</ele>
        <time>2010-04-14T07:23:12Z</time>
      </trkpt>
      <trkpt lat="46.03479" lon="7.40469">
        <ele>2295.28</ele>
        <time>2010-04-14T07:23:29Z</time>
      </trkpt>
      <trkpt lat="46.0348" lon="7.40469">
        <ele>2294.32</ele>
        <time>2010-04-14T07:23:32Z</time>
      </trkpt>
      <trkpt lat="46.03492" lon="7.40472">
        <ele>2291.44</ele>
        <time>2010-04-14T07:23:37Z</time>
      </trkpt>
      <trkpt lat="46.03503" lon="7.4048">
        <ele>2287.59</ele>
        <time>2010-04-14T07:23:40Z</time>
      </trkpt>
      <trkpt lat="46.03505" lon="7.40492">
        <ele>2282.31</ele>
        <time>2010-04-14T07:23:42Z</time>
      </trkpt>
      <trkpt lat="46.035" lon="7.40501">
        <ele>2280.38</ele>
        <time>2010-04-14T07:23:45Z</time>
      </trkpt>
      <trkpt lat="46.03502" lon="7.40511">
        <ele>2277.98</ele>
        <time>2010-04-14T07:23:53Z</time>
      </trkpt>
      <trkpt lat="46.03499" lon="7.40513">
        <ele>2276.54</ele>
        <time>2010-04-14T07:24:12Z</time>
      </trkpt>
      <trkpt lat="46.03498" lon="7.40513">
        <ele>2276.54</ele>
        <time>2010-04-14T07:24:28Z</time>
      </trkpt>
      <trkpt lat="46.03496" lon="7.40512">
        <ele>2276.54</ele>
        <time>2010-04-14T07:24:44Z</time>
      </trkpt>
      <trkpt lat="46.03493" lon="7.40513">
        <ele>2277.98</ele>
        <time>2010-04-14T07:24:49Z</time>
      </trkpt>
      <trkpt lat="46.03491" lon="7.40517">
        <ele>2277.02</ele>
        <time>2010-04-14T07:24:56Z</time>
      </trkpt>
      <trkpt lat="46.03492" lon="7.40521">
        <ele>2277.02</ele>
        <time>2010-04-14T07:25:01Z</time>
      </trkpt>
      <trkpt lat="46.03489" lon="7.40523">
        <ele>2277.02</ele>
        <time>2010-04-14T07:25:04Z</time>
      </trkpt>
      <trkpt lat="46.03489" lon="7.40529">
        <ele>2277.5</ele>
        <time>2010-04-14T07:25:08Z</time>
      </trkpt>
      <trkpt lat="46.03492" lon="7.40538">
        <ele>2277.02</ele>
        <time>2010-04-14T07:25:14Z</time>
      </trkpt>
      <trkpt lat="46.03487" lon="7.40561">
        <ele>2278.46</ele>
        <time>2010-04-14T07:25:30Z</time>
      </trkpt>
      <trkpt lat="46.03485" lon="7.40568">
        <ele>2278.46</ele>
        <time>2010-04-14T07:25:35Z</time>
      </trkpt>
      <trkpt lat="46.0348" lon="7.40577">
        <ele>2277.98</ele>
        <time>2010-04-14T07:25:42Z</time>
      </trkpt>
      <trkpt lat="46.03475" lon="7.40593">
        <ele>2277.98</ele>
        <time>2010-04-14T07:25:55Z</time>
      </trkpt>
      <trkpt lat="46.03474" lon="7.40593">
        <ele>2277.98</ele>
        <time>2010-04-14T07:26:07Z</time>
      </trkpt>
      <trkpt lat="46.03476" lon="7.40593">
        <ele>2277.5</ele>
        <time>2010-04-14T07:26:10Z</time>
      </trkpt>
      <trkpt lat="46.03477" lon="7.40597">
        <ele>2277.02</ele>
        <time>2010-04-14T07:26:19Z</time>
      </trkpt>
      <trkpt lat="46.03477" lon="7.406">
        <ele>2277.5</ele>
        <time>2010-04-14T07:26:28Z</time>
      </trkpt>
      <trkpt lat="46.03477" lon="7.40598">
        <ele>2277.02</ele>
        <time>2010-04-14T07:26:50Z</time>
      </trkpt>
      <trkpt lat="46.03476" lon="7.40599">
        <ele>2275.58</ele>
        <time>2010-04-14T07:27:00Z</time>
      </trkpt>
      <trkpt lat="46.03476" lon="7.40599">
        <ele>2277.02</ele>
        <time>2010-04-14T07:27:09Z</time>
      </trkpt>
      <trkpt lat="46.03476" lon="7.40599">
        <ele>2276.54</ele>
        <time>2010-04-14T07:27:52Z</time>
      </trkpt>
      <trkpt lat="46.03476" lon="7.40599">
        <ele>2276.54</ele>
        <time>2010-04-14T07:28:22Z</time>
      </trkpt>
      <trkpt lat="46.03476" lon="7.40599">
        <ele>2270.29</ele>
        <time>2010-04-14T07:28:51Z</time>
      </trkpt>
      <trkpt lat="46.03476" lon="7.40599">
        <ele>2275.1</ele>
        <time>2010-04-14T07:28:52Z</time>
      </trkpt>
      <trkpt lat="46.03476" lon="7.40599">
        <ele>2276.54</ele>
        <time>2010-04-14T07:28:54Z</time>
      </trkpt>
      <trkpt lat="46.03476" lon="7.40599">
        <ele>2281.35</ele>
        <time>2010-04-14T07:29:47Z</time>
      </trkpt>
      <trkpt lat="46.03476" lon="7.40598">
        <ele>2274.62</ele>
        <time>2010-04-14T07:29:48Z</time>
      </trkpt>
      <trkpt lat="46.03476" lon="7.40598">
        <ele>2276.06</ele>
        <time>2010-04-14T07:29:51Z</time>
      </trkpt>
      <trkpt lat="46.03476" lon="7.40598">
        <ele>2267.41</ele>
        <time>2010-04-14T07:45:08Z</time>
      </trkpt>
      <trkpt lat="46.03476" lon="7.40598">
        <ele>2267.41</ele>
        <time>2010-04-14T07:45:09Z</time>
      </trkpt>
      <trkpt lat="46.03477" lon="7.40598">
        <ele>2274.14</ele>
        <time>2010-04-14T07:45:10Z</time>
      </trkpt>
      <trkpt lat="46.03477" lon="7.40598">
        <ele>2275.58</ele>
        <time>2010-04-14T07:45:11Z</time>
      </trkpt>
      <trkpt lat="46.03476" lon="7.40599">
        <ele>2278.46</ele>
        <time>2010-04-14T07:45:21Z</time>
      </trkpt>
      <trkpt lat="46.03477" lon="7.406">
        <ele>2275.58</ele>
        <time>2010-04-14T07:45:23Z</time>
      </trkpt>
      <trkpt lat="46.03477" lon="7.40601">
        <ele>2273.17</ele>
        <time>2010-04-14T07:45:24Z</time>
      </trkpt>
      <trkpt lat="46.03477" lon="7.40602">
        <ele>2277.98</ele>
        <time>2010-04-14T07:45:25Z</time>
      </trkpt>
      <trkpt lat="46.03477" lon="7.40602">
        <ele>2277.5</ele>
        <time>2010-04-14T07:45:33Z</time>
      </trkpt>
      <trkpt lat="46.03477" lon="7.40603">
        <ele>2270.77</ele>
        <time>2010-04-14T07:50:19Z</time>
      </trkpt>
      <trkpt lat="46.03477" lon="7.40603">
        <ele>2270.77</ele>
        <time>2010-04-14T07:50:20Z</time>
      </trkpt>
      <trkpt lat="46.03477" lon="7.40603">
        <ele>2273.66</ele>
        <time>2010-04-14T07:50:21Z</time>
      </trkpt>
      <trkpt lat="46.03477" lon="7.40602">
        <ele>2276.54</ele>
        <time>2010-04-14T07:50:35Z</time>
      </trkpt>
      <trkpt lat="46.03477" lon="7.40602">
        <ele>2277.98</ele>
        <time>2010-04-14T07:51:12Z</time>
      </trkpt>
      <trkpt lat="46.03478" lon="7.40602">
        <ele>2276.06</ele>
        <time>2010-04-14T07:51:46Z</time>
      </trkpt>
      <trkpt lat="46.03477" lon="7.40601">
        <ele>2277.5</ele>
        <time>2010-04-14T07:54:01Z</time>
      </trkpt>
      <trkpt lat="46.03477" lon="7.40601">
        <ele>2274.62</ele>
        <time>2010-04-14T07:54:35Z</time>
      </trkpt>
      <trkpt lat="46.03477" lon="7.40601">
        <ele>2274.62</ele>
        <time>2010-04-14T07:54:36Z</time>
      </trkpt>
      <trkpt lat="46.03477" lon="7.40601">
        <ele>2276.06</ele>
        <time>2010-04-14T07:54:37Z</time>
      </trkpt>
      <trkpt lat="46.03476" lon="7.40602">
        <ele>2275.1</ele>
        <time>2010-04-14T07:54:58Z</time>
      </trkpt>
      <trkpt lat="46.03476" lon="7.40602">
        <ele>2275.1</ele>
        <time>2010-04-14T07:55:04Z</time>
      </trkpt>
      <trkpt lat="46.03473" lon="7.40592">
        <ele>2265.48</ele>
        <time>2010-04-14T08:07:21Z</time>
      </trkpt>
      <trkpt lat="46.03473" lon="7.40591">
        <ele>2274.62</ele>
        <time>2010-04-14T08:07:22Z</time>
      </trkpt>
      <trkpt lat="46.03473" lon="7.40591">
        <ele>2277.5</ele>
        <time>2010-04-14T08:07:25Z</time>
      </trkpt>
      <trkpt lat="46.03474" lon="7.40591">
        <ele>2276.54</ele>
        <time>2010-04-14T08:07:46Z</time>
      </trkpt>
      <trkpt lat="46.03475" lon="7.40595">
        <ele>2278.46</ele>
        <time>2010-04-14T08:11:12Z</time>
      </trkpt>
      <trkpt lat="46.03478" lon="7.40598">
        <ele>2278.94</ele>
        <time>2010-04-14T08:11:25Z</time>
      </trkpt>
      <trkpt lat="46.03477" lon="7.40598">
        <ele>2279.42</ele>
        <time>2010-04-14T08:12:16Z</time>
      </trkpt>
      <trkpt lat="46.03477" lon="7.40597">
        <ele>2279.42</ele>
        <time>2010-04-14T08:12:48Z</time>
      </trkpt>
      <trkpt lat="46.03474" lon="7.406">
        <ele>2279.9</ele>
        <time>2010-04-14T08:13:08Z</time>
      </trkpt>
      <trkpt lat="46.03473" lon="7.406">
        <ele>2279.42</ele>
        <time>2010-04-14T08:13:09Z</time>
      </trkpt>
      <trkpt lat="46.03471" lon="7.40601">
        <ele>2280.38</ele>
        <time>2010-04-14T08:13:18Z</time>
      </trkpt>
      <trkpt lat="46.03472" lon="7.40602">
        <ele>2280.87</ele>
        <time>2010-04-14T08:13:29Z</time>
      </trkpt>
      <trkpt lat="46.03472" lon="7.40603">
        <ele>2280.38</ele>
        <time>2010-04-14T08:13:42Z</time>
      </trkpt>
      <trkpt lat="46.03472" lon="7.40604">
        <ele>2280.38</ele>
        <time>2010-04-14T08:14:20Z</time>
      </trkpt>
      <trkpt lat="46.03472" lon="7.40604">
        <ele>2280.87</ele>
        <time>2010-04-14T08:14:31Z</time>
      </trkpt>
      <trkpt lat="46.03472" lon="7.40604">
        <ele>2280.38</ele>
        <time>2010-04-14T08:15:02Z</time>
      </trkpt>
      <trkpt lat="46.03467" lon="7.40609">
        <ele>2281.83</ele>
        <time>2010-04-14T08:15:23Z</time>
      </trkpt>
      <trkpt lat="46.03459" lon="7.40618">
        <ele>2283.75</ele>
        <time>2010-04-14T08:15:38Z</time>
      </trkpt>
      <trkpt lat="46.03452" lon="7.40629">
        <ele>2284.71</ele>
        <time>2010-04-14T08:15:51Z</time>
      </trkpt>
      <trkpt lat="46.03451" lon="7.40633">
        <ele>2284.71</ele>
        <time>2010-04-14T08:15:55Z</time>
      </trkpt>
      <trkpt lat="46.03447" lon="7.40647">
        <ele>2287.59</ele>
        <time>2010-04-14T08:16:07Z</time>
      </trkpt>
      <trkpt lat="46.03447" lon="7.40647">
        <ele>2288.08</ele>
        <time>2010-04-14T08:16:09Z</time>
      </trkpt>
      <trkpt lat="46.03444" lon="7.4065">
        <ele>2289.04</ele>
        <time>2010-04-14T08:16:16Z</time>
      </trkpt>
      <trkpt lat="46.0344" lon="7.40654">
        <ele>2290.96</ele>
        <time>2010-04-14T08:16:26Z</time>
      </trkpt>
      <trkpt lat="46.03436" lon="7.40666">
        <ele>2292.88</ele>
        <time>2010-04-14T08:16:38Z</time>
      </trkpt>
      <trkpt lat="46.03428" lon="7.40675">
        <ele>2294.32</ele>
        <time>2010-04-14T08:16:49Z</time>
      </trkpt>
      <trkpt lat="46.03424" lon="7.40677">
        <ele>2295.77</ele>
        <time>2010-04-14T08:16:57Z</time>
      </trkpt>
      <trkpt lat="46.03423" lon="7.40677">
        <ele>2296.25</ele>
        <time>2010-04-14T08:16:58Z</time>
      </trkpt>
      <trkpt lat="46.03417" lon="7.40687">
        <ele>2298.17</ele>
        <time>2010-04-14T08:17:12Z</time>
      </trkpt>
      <trkpt lat="46.03412" lon="7.40691">
        <ele>2299.61</ele>
        <time>2010-04-14T08:17:22Z</time>
      </trkpt>
      <trkpt lat="46.03405" lon="7.407">
        <ele>2301.53</ele>
        <time>2010-04-14T08:17:36Z</time>
      </trkpt>
      <trkpt lat="46.03401" lon="7.40704">
        <ele>2302.98</ele>
        <time>2010-04-14T08:17:47Z</time>
      </trkpt>
      <trkpt lat="46.03398" lon="7.40709">
        <ele>2303.94</ele>
        <time>2010-04-14T08:18:00Z</time>
      </trkpt>
      <trkpt lat="46.03394" lon="7.40716">
        <ele>2306.34</ele>
        <time>2010-04-14T08:18:15Z</time>
      </trkpt>
      <trkpt lat="46.03388" lon="7.4072">
        <ele>2308.26</ele>
        <time>2010-04-14T08:18:26Z</time>
      </trkpt>
      <trkpt lat="46.03388" lon="7.4071">
        <ele>2310.19</ele>
        <time>2010-04-14T08:18:40Z</time>
      </trkpt>
      <trkpt lat="46.03386" lon="7.40701">
        <ele>2311.63</ele>
        <time>2010-04-14T08:18:53Z</time>
      </trkpt>
      <trkpt lat="46.03382" lon="7.4069">
        <ele>2314.03</ele>
        <time>2010-04-14T08:19:10Z</time>
      </trkpt>
      <trkpt lat="46.03381" lon="7.40686">
        <ele>2314.51</ele>
        <time>2010-04-14T08:19:32Z</time>
      </trkpt>
      <trkpt lat="46.03381" lon="7.40685">
        <ele>2315.47</ele>
        <time>2010-04-14T08:19:33Z</time>
      </trkpt>
      <trkpt lat="46.03377" lon="7.40676">
        <ele>2316.91</ele>
        <time>2010-04-14T08:19:44Z</time>
      </trkpt>
      <trkpt lat="46.03374" lon="7.40668">
        <ele>2317.88</ele>
        <time>2010-04-14T08:19:56Z</time>
      </trkpt>
      <trkpt lat="46.03368" lon="7.40665">
        <ele>2319.8</ele>
        <time>2010-04-14T08:20:08Z</time>
      </trkpt>
      <trkpt lat="46.03363" lon="7.40673">
        <ele>2321.72</ele>
        <time>2010-04-14T08:20:21Z</time>
      </trkpt>
      <trkpt lat="46.0336" lon="7.4068">
        <ele>2323.64</ele>
        <time>2010-04-14T08:20:33Z</time>
      </trkpt>
      <trkpt lat="46.03358" lon="7.40681">
        <ele>2324.12</ele>
        <time>2010-04-14T08:20:39Z</time>
      </trkpt>
      <trkpt lat="46.03353" lon="7.40688">
        <ele>2326.05</ele>
        <time>2010-04-14T08:20:49Z</time>
      </trkpt>
      <trkpt lat="46.03349" lon="7.40697">
        <ele>2328.93</ele>
        <time>2010-04-14T08:21:05Z</time>
      </trkpt>
      <trkpt lat="46.03345" lon="7.40704">
        <ele>2330.37</ele>
        <time>2010-04-14T08:21:16Z</time>
      </trkpt>
      <trkpt lat="46.03342" lon="7.40712">
        <ele>2332.78</ele>
        <time>2010-04-14T08:21:31Z</time>
      </trkpt>
      <trkpt lat="46.03338" lon="7.4072">
        <ele>2334.22</ele>
        <time>2010-04-14T08:21:43Z</time>
      </trkpt>
      <trkpt lat="46.03336" lon="7.40726">
        <ele>2336.14</ele>
        <time>2010-04-14T08:21:56Z</time>
      </trkpt>
      <trkpt lat="46.03333" lon="7.40731">
        <ele>2339.02</ele>
        <time>2010-04-14T08:22:12Z</time>
      </trkpt>
      <trkpt lat="46.03329" lon="7.40738">
        <ele>2339.99</ele>
        <time>2010-04-14T08:22:26Z</time>
      </trkpt>
      <trkpt lat="46.03329" lon="7.40746">
        <ele>2340.95</ele>
        <time>2010-04-14T08:22:38Z</time>
      </trkpt>
      <trkpt lat="46.03329" lon="7.40752">
        <ele>2343.35</ele>
        <time>2010-04-14T08:22:51Z</time>
      </trkpt>
      <trkpt lat="46.0333" lon="7.40756">
        <ele>2343.83</ele>
        <time>2010-04-14T08:22:55Z</time>
      </trkpt>
      <trkpt lat="46.03332" lon="7.40769">
        <ele>2345.27</ele>
        <time>2010-04-14T08:23:07Z</time>
      </trkpt>
      <trkpt lat="46.03335" lon="7.40778">
        <ele>2346.23</ele>
        <time>2010-04-14T08:23:20Z</time>
      </trkpt>
      <trkpt lat="46.03335" lon="7.4079">
        <ele>2347.68</ele>
        <time>2010-04-14T08:23:33Z</time>
      </trkpt>
      <trkpt lat="46.03334" lon="7.40795">
        <ele>2349.12</ele>
        <time>2010-04-14T08:23:46Z</time>
      </trkpt>
      <trkpt lat="46.03332" lon="7.40801">
        <ele>2350.56</ele>
        <time>2010-04-14T08:24:04Z</time>
      </trkpt>
      <trkpt lat="46.0333" lon="7.40808">
        <ele>2353.44</ele>
        <time>2010-04-14T08:24:14Z</time>
      </trkpt>
      <trkpt lat="46.03327" lon="7.40822">
        <ele>2354.41</ele>
        <time>2010-04-14T08:24:25Z</time>
      </trkpt>
      <trkpt lat="46.03325" lon="7.40827">
        <ele>2355.85</ele>
        <time>2010-04-14T08:24:38Z</time>
      </trkpt>
      <trkpt lat="46.03322" lon="7.40835">
        <ele>2357.77</ele>
        <time>2010-04-14T08:24:47Z</time>
      </trkpt>
      <trkpt lat="46.0332" lon="7.40845">
        <ele>2359.69</ele>
        <time>2010-04-14T08:25:03Z</time>
      </trkpt>
      <trkpt lat="46.03318" lon="7.40855">
        <ele>2361.62</ele>
        <time>2010-04-14T08:25:17Z</time>
      </trkpt>
      <trkpt lat="46.03315" lon="7.40868">
        <ele>2364.5</ele>
        <time>2010-04-14T08:25:40Z</time>
      </trkpt>
      <trkpt lat="46.03314" lon="7.40873">
        <ele>2366.9</ele>
        <time>2010-04-14T08:25:53Z</time>
      </trkpt>
      <trkpt lat="46.03314" lon="7.40873">
        <ele>2367.86</ele>
        <time>2010-04-14T08:26:10Z</time>
      </trkpt>
      <trkpt lat="46.03311" lon="7.40883">
        <ele>2369.31</ele>
        <time>2010-04-14T08:26:20Z</time>
      </trkpt>
      <trkpt lat="46.03309" lon="7.4089">
        <ele>2372.67</ele>
        <time>2010-04-14T08:26:35Z</time>
      </trkpt>
      <trkpt lat="46.03305" lon="7.40908">
        <ele>2373.63</ele>
        <time>2010-04-14T08:26:48Z</time>
      </trkpt>
      <trkpt lat="46.03307" lon="7.40913">
        <ele>2374.11</ele>
        <time>2010-04-14T08:27:01Z</time>
      </trkpt>
      <trkpt lat="46.03308" lon="7.40915">
        <ele>2375.07</ele>
        <time>2010-04-14T08:27:18Z</time>
      </trkpt>
      <trkpt lat="46.03309" lon="7.40923">
        <ele>2375.55</ele>
        <time>2010-04-14T08:27:37Z</time>
      </trkpt>
      <trkpt lat="46.0331" lon="7.40926">
        <ele>2377</ele>
        <time>2010-04-14T08:27:49Z</time>
      </trkpt>
      <trkpt lat="46.0331" lon="7.4093">
        <ele>2377.96</ele>
        <time>2010-04-14T08:28:00Z</time>
      </trkpt>
      <trkpt lat="46.0331" lon="7.40932">
        <ele>2378.44</ele>
        <time>2010-04-14T08:28:16Z</time>
      </trkpt>
      <trkpt lat="46.0331" lon="7.40938">
        <ele>2380.84</ele>
        <time>2010-04-14T08:28:27Z</time>
      </trkpt>
      <trkpt lat="46.03309" lon="7.40942">
        <ele>2381.32</ele>
        <time>2010-04-14T08:28:38Z</time>
      </trkpt>
      <trkpt lat="46.03309" lon="7.40945">
        <ele>2380.84</ele>
        <time>2010-04-14T08:28:50Z</time>
      </trkpt>
      <trkpt lat="46.0331" lon="7.40948">
        <ele>2382.28</ele>
        <time>2010-04-14T08:28:59Z</time>
      </trkpt>
      <trkpt lat="46.03311" lon="7.40949">
        <ele>2383.25</ele>
        <time>2010-04-14T08:29:13Z</time>
      </trkpt>
      <trkpt lat="46.03313" lon="7.40951">
        <ele>2383.73</ele>
        <time>2010-04-14T08:29:27Z</time>
      </trkpt>
      <trkpt lat="46.03313" lon="7.40953">
        <ele>2384.21</ele>
        <time>2010-04-14T08:29:34Z</time>
      </trkpt>
      <trkpt lat="46.03317" lon="7.40961">
        <ele>2385.65</ele>
        <time>2010-04-14T08:29:42Z</time>
      </trkpt>
      <trkpt lat="46.0332" lon="7.40971">
        <ele>2385.65</ele>
        <time>2010-04-14T08:29:54Z</time>
      </trkpt>
      <trkpt lat="46.03318" lon="7.40977">
        <ele>2388.05</ele>
        <time>2010-04-14T08:30:09Z</time>
      </trkpt>
      <trkpt lat="46.03317" lon="7.4098">
        <ele>2389.01</ele>
        <time>2010-04-14T08:30:24Z</time>
      </trkpt>
      <trkpt lat="46.03316" lon="7.40982">
        <ele>2389.97</ele>
        <time>2010-04-14T08:30:34Z</time>
      </trkpt>
      <trkpt lat="46.03314" lon="7.40994">
        <ele>2391.9</ele>
        <time>2010-04-14T08:30:46Z</time>
      </trkpt>
      <trkpt lat="46.03312" lon="7.40999">
        <ele>2391.9</ele>
        <time>2010-04-14T08:31:18Z</time>
      </trkpt>
      <trkpt lat="46.03312" lon="7.41004">
        <ele>2392.86</ele>
        <time>2010-04-14T08:31:42Z</time>
      </trkpt>
      <trkpt lat="46.03311" lon="7.41001">
        <ele>2393.82</ele>
        <time>2010-04-14T08:31:52Z</time>
      </trkpt>
      <trkpt lat="46.03307" lon="7.40987">
        <ele>2396.7</ele>
        <time>2010-04-14T08:32:06Z</time>
      </trkpt>
      <trkpt lat="46.03306" lon="7.40983">
        <ele>2396.7</ele>
        <time>2010-04-14T08:32:23Z</time>
      </trkpt>
      <trkpt lat="46.03305" lon="7.40984">
        <ele>2396.22</ele>
        <time>2010-04-14T08:32:40Z</time>
      </trkpt>
      <trkpt lat="46.03305" lon="7.40985">
        <ele>2400.55</ele>
        <time>2010-04-14T08:33:03Z</time>
      </trkpt>
      <trkpt lat="46.03305" lon="7.40985">
        <ele>2398.63</ele>
        <time>2010-04-14T08:33:04Z</time>
      </trkpt>
      <trkpt lat="46.03305" lon="7.40985">
        <ele>2395.74</ele>
        <time>2010-04-14T08:33:05Z</time>
      </trkpt>
      <trkpt lat="46.03305" lon="7.40985">
        <ele>2395.74</ele>
        <time>2010-04-14T08:33:06Z</time>
      </trkpt>
      <trkpt lat="46.03305" lon="7.40987">
        <ele>2399.11</ele>
        <time>2010-04-14T08:33:40Z</time>
      </trkpt>
      <trkpt lat="46.03306" lon="7.40987">
        <ele>2394.78</ele>
        <time>2010-04-14T08:33:42Z</time>
      </trkpt>
      <trkpt lat="46.03306" lon="7.40987">
        <ele>2395.74</ele>
        <time>2010-04-14T08:33:43Z</time>
      </trkpt>
      <trkpt lat="46.03306" lon="7.40987">
        <ele>2396.7</ele>
        <time>2010-04-14T08:33:59Z</time>
      </trkpt>
      <trkpt lat="46.03303" lon="7.4099">
        <ele>2397.18</ele>
        <time>2010-04-14T08:35:32Z</time>
      </trkpt>
      <trkpt lat="46.03304" lon="7.40991">
        <ele>2397.18</ele>
        <time>2010-04-14T08:35:48Z</time>
      </trkpt>
      <trkpt lat="46.03304" lon="7.40984">
        <ele>2399.11</ele>
        <time>2010-04-14T08:36:25Z</time>
      </trkpt>
      <trkpt lat="46.03303" lon="7.40974">
        <ele>2400.55</ele>
        <time>2010-04-14T08:36:39Z</time>
      </trkpt>
      <trkpt lat="46.03302" lon="7.40976">
        <ele>2401.99</ele>
        <time>2010-04-14T08:36:56Z</time>
      </trkpt>
      <trkpt lat="46.03298" lon="7.40989">
        <ele>2403.91</ele>
        <time>2010-04-14T08:37:08Z</time>
      </trkpt>
      <trkpt lat="46.03297" lon="7.41">
        <ele>2406.32</ele>
        <time>2010-04-14T08:37:34Z</time>
      </trkpt>
      <trkpt lat="46.0329" lon="7.41009">
        <ele>2407.76</ele>
        <time>2010-04-14T08:37:46Z</time>
      </trkpt>
      <trkpt lat="46.03288" lon="7.41007">
        <ele>2411.12</ele>
        <time>2010-04-14T08:37:56Z</time>
      </trkpt>
      <trkpt lat="46.03287" lon="7.40998">
        <ele>2412.09</ele>
        <time>2010-04-14T08:38:09Z</time>
      </trkpt>
      <trkpt lat="46.03283" lon="7.40987">
        <ele>2414.97</ele>
        <time>2010-04-14T08:38:23Z</time>
      </trkpt>
      <trkpt lat="46.03274" lon="7.40989">
        <ele>2416.41</ele>
        <time>2010-04-14T08:38:37Z</time>
      </trkpt>
      <trkpt lat="46.03267" lon="7.40994">
        <ele>2418.33</ele>
        <time>2010-04-14T08:38:50Z</time>
      </trkpt>
      <trkpt lat="46.03265" lon="7.40996">
        <ele>2421.22</ele>
        <time>2010-04-14T08:39:01Z</time>
      </trkpt>
      <trkpt lat="46.03259" lon="7.40998">
        <ele>2423.14</ele>
        <time>2010-04-14T08:39:13Z</time>
      </trkpt>
      <trkpt lat="46.03253" lon="7.41003">
        <ele>2424.58</ele>
        <time>2010-04-14T08:39:28Z</time>
      </trkpt>
      <trkpt lat="46.03244" lon="7.41011">
        <ele>2427.47</ele>
        <time>2010-04-14T08:39:41Z</time>
      </trkpt>
      <trkpt lat="46.03237" lon="7.41022">
        <ele>2429.39</ele>
        <time>2010-04-14T08:39:53Z</time>
      </trkpt>
      <trkpt lat="46.03234" lon="7.4103">
        <ele>2430.83</ele>
        <time>2010-04-14T08:40:05Z</time>
      </trkpt>
      <trkpt lat="46.03232" lon="7.41035">
        <ele>2432.27</ele>
        <time>2010-04-14T08:40:14Z</time>
      </trkpt>
      <trkpt lat="46.03227" lon="7.41046">
        <ele>2434.68</ele>
        <time>2010-04-14T08:40:27Z</time>
      </trkpt>
      <trkpt lat="46.03225" lon="7.41053">
        <ele>2435.64</ele>
        <time>2010-04-14T08:40:36Z</time>
      </trkpt>
      <trkpt lat="46.03223" lon="7.4106">
        <ele>2437.08</ele>
        <time>2010-04-14T08:40:47Z</time>
      </trkpt>
      <trkpt lat="46.03225" lon="7.41063">
        <ele>2439</ele>
        <time>2010-04-14T08:40:59Z</time>
      </trkpt>
      <trkpt lat="46.03234" lon="7.41069">
        <ele>2439.48</ele>
        <time>2010-04-14T08:41:13Z</time>
      </trkpt>
      <trkpt lat="46.03237" lon="7.4108">
        <ele>2442.37</ele>
        <time>2010-04-14T08:41:26Z</time>
      </trkpt>
      <trkpt lat="46.03237" lon="7.4109">
        <ele>2443.81</ele>
        <time>2010-04-14T08:41:38Z</time>
      </trkpt>
      <trkpt lat="46.03236" lon="7.41095">
        <ele>2445.25</ele>
        <time>2010-04-14T08:41:46Z</time>
      </trkpt>
      <trkpt lat="46.03234" lon="7.41101">
        <ele>2446.21</ele>
        <time>2010-04-14T08:41:52Z</time>
      </trkpt>
      <trkpt lat="46.0323" lon="7.4111">
        <ele>2449.1</ele>
        <time>2010-04-14T08:42:05Z</time>
      </trkpt>
      <trkpt lat="46.03225" lon="7.41112">
        <ele>2450.54</ele>
        <time>2010-04-14T08:42:18Z</time>
      </trkpt>
      <trkpt lat="46.03218" lon="7.41115">
        <ele>2452.94</ele>
        <time>2010-04-14T08:42:31Z</time>
      </trkpt>
      <trkpt lat="46.03216" lon="7.41115">
        <ele>2453.9</ele>
        <time>2010-04-14T08:42:33Z</time>
      </trkpt>
      <trkpt lat="46.03209" lon="7.41116">
        <ele>2454.38</ele>
        <time>2010-04-14T08:42:45Z</time>
      </trkpt>
      <trkpt lat="46.03209" lon="7.41116">
        <ele>2454.86</ele>
        <time>2010-04-14T08:43:45Z</time>
      </trkpt>
      <trkpt lat="46.03209" lon="7.41116">
        <ele>2453.9</ele>
        <time>2010-04-14T08:44:15Z</time>
      </trkpt>
      <trkpt lat="46.03211" lon="7.41119">
        <ele>2454.86</ele>
        <time>2010-04-14T08:45:30Z</time>
      </trkpt>
      <trkpt lat="46.03211" lon="7.4112">
        <ele>2455.34</ele>
        <time>2010-04-14T08:46:10Z</time>
      </trkpt>
      <trkpt lat="46.03208" lon="7.41119">
        <ele>2455.82</ele>
        <time>2010-04-14T08:46:23Z</time>
      </trkpt>
      <trkpt lat="46.03204" lon="7.41125">
        <ele>2456.79</ele>
        <time>2010-04-14T08:46:44Z</time>
      </trkpt>
      <trkpt lat="46.03199" lon="7.41129">
        <ele>2458.71</ele>
        <time>2010-04-14T08:47:03Z</time>
      </trkpt>
      <trkpt lat="46.03197" lon="7.4113">
        <ele>2459.19</ele>
        <time>2010-04-14T08:47:17Z</time>
      </trkpt>
      <trkpt lat="46.03195" lon="7.41131">
        <ele>2460.15</ele>
        <time>2010-04-14T08:47:31Z</time>
      </trkpt>
      <trkpt lat="46.03187" lon="7.41134">
        <ele>2462.07</ele>
        <time>2010-04-14T08:47:46Z</time>
      </trkpt>
      <trkpt lat="46.03181" lon="7.41135">
        <ele>2463.04</ele>
        <time>2010-04-14T08:47:56Z</time>
      </trkpt>
      <trkpt lat="46.03172" lon="7.41141">
        <ele>2465.92</ele>
        <time>2010-04-14T08:48:11Z</time>
      </trkpt>
      <trkpt lat="46.03167" lon="7.41144">
        <ele>2467.84</ele>
        <time>2010-04-14T08:48:27Z</time>
      </trkpt>
      <trkpt lat="46.03162" lon="7.41148">
        <ele>2469.28</ele>
        <time>2010-04-14T08:48:38Z</time>
      </trkpt>
      <trkpt lat="46.03156" lon="7.41149">
        <ele>2471.21</ele>
        <time>2010-04-14T08:48:53Z</time>
      </trkpt>
      <trkpt lat="46.03149" lon="7.41152">
        <ele>2472.65</ele>
        <time>2010-04-14T08:49:07Z</time>
      </trkpt>
      <trkpt lat="46.03144" lon="7.41149">
        <ele>2474.57</ele>
        <time>2010-04-14T08:49:19Z</time>
      </trkpt>
      <trkpt lat="46.03144" lon="7.41143">
        <ele>2477.45</ele>
        <time>2010-04-14T08:49:34Z</time>
      </trkpt>
      <trkpt lat="46.03143" lon="7.41137">
        <ele>2477.45</ele>
        <time>2010-04-14T08:49:49Z</time>
      </trkpt>
      <trkpt lat="46.03142" lon="7.41135">
        <ele>2478.42</ele>
        <time>2010-04-14T08:49:59Z</time>
      </trkpt>
      <trkpt lat="46.03142" lon="7.41133">
        <ele>2479.38</ele>
        <time>2010-04-14T08:50:16Z</time>
      </trkpt>
      <trkpt lat="46.0314" lon="7.41122">
        <ele>2480.82</ele>
        <time>2010-04-14T08:50:28Z</time>
      </trkpt>
      <trkpt lat="46.03136" lon="7.41111">
        <ele>2483.22</ele>
        <time>2010-04-14T08:50:40Z</time>
      </trkpt>
      <trkpt lat="46.03134" lon="7.41105">
        <ele>2484.18</ele>
        <time>2010-04-14T08:50:52Z</time>
      </trkpt>
      <trkpt lat="46.03131" lon="7.41098">
        <ele>2486.11</ele>
        <time>2010-04-14T08:51:04Z</time>
      </trkpt>
      <trkpt lat="46.03129" lon="7.41094">
        <ele>2488.03</ele>
        <time>2010-04-14T08:51:17Z</time>
      </trkpt>
      <trkpt lat="46.03126" lon="7.41087">
        <ele>2488.99</ele>
        <time>2010-04-14T08:51:27Z</time>
      </trkpt>
      <trkpt lat="46.03125" lon="7.41084">
        <ele>2489.95</ele>
        <time>2010-04-14T08:51:37Z</time>
      </trkpt>
      <trkpt lat="46.03123" lon="7.41082">
        <ele>2491.39</ele>
        <time>2010-04-14T08:51:52Z</time>
      </trkpt>
      <trkpt lat="46.0312" lon="7.41086">
        <ele>2492.84</ele>
        <time>2010-04-14T08:52:02Z</time>
      </trkpt>
      <trkpt lat="46.03112" lon="7.41095">
        <ele>2494.76</ele>
        <time>2010-04-14T08:52:17Z</time>
      </trkpt>
      <trkpt lat="46.03108" lon="7.41101">
        <ele>2497.16</ele>
        <time>2010-04-14T08:52:34Z</time>
      </trkpt>
      <trkpt lat="46.03102" lon="7.41107">
        <ele>2498.6</ele>
        <time>2010-04-14T08:52:46Z</time>
      </trkpt>
      <trkpt lat="46.03098" lon="7.41111">
        <ele>2500.53</ele>
        <time>2010-04-14T08:52:59Z</time>
      </trkpt>
      <trkpt lat="46.03093" lon="7.41115">
        <ele>2502.45</ele>
        <time>2010-04-14T08:53:12Z</time>
      </trkpt>
      <trkpt lat="46.03089" lon="7.41117">
        <ele>2502.93</ele>
        <time>2010-04-14T08:53:24Z</time>
      </trkpt>
      <trkpt lat="46.03083" lon="7.41122">
        <ele>2504.37</ele>
        <time>2010-04-14T08:53:35Z</time>
      </trkpt>
      <trkpt lat="46.03079" lon="7.41125">
        <ele>2505.81</ele>
        <time>2010-04-14T08:53:46Z</time>
      </trkpt>
      <trkpt lat="46.03076" lon="7.4113">
        <ele>2507.26</ele>
        <time>2010-04-14T08:53:57Z</time>
      </trkpt>
      <trkpt lat="46.03074" lon="7.41133">
        <ele>2508.22</ele>
        <time>2010-04-14T08:54:03Z</time>
      </trkpt>
      <trkpt lat="46.0307" lon="7.4114">
        <ele>2510.14</ele>
        <time>2010-04-14T08:54:18Z</time>
      </trkpt>
      <trkpt lat="46.03064" lon="7.41147">
        <ele>2512.06</ele>
        <time>2010-04-14T08:54:34Z</time>
      </trkpt>
      <trkpt lat="46.03063" lon="7.4115">
        <ele>2513.5</ele>
        <time>2010-04-14T08:54:42Z</time>
      </trkpt>
      <trkpt lat="46.03057" lon="7.41157">
        <ele>2514.95</ele>
        <time>2010-04-14T08:54:55Z</time>
      </trkpt>
      <trkpt lat="46.03055" lon="7.4116">
        <ele>2516.39</ele>
        <time>2010-04-14T08:55:06Z</time>
      </trkpt>
      <trkpt lat="46.03051" lon="7.41165">
        <ele>2518.79</ele>
        <time>2010-04-14T08:55:19Z</time>
      </trkpt>
      <trkpt lat="46.03048" lon="7.41169">
        <ele>2520.23</ele>
        <time>2010-04-14T08:55:33Z</time>
      </trkpt>
      <trkpt lat="46.03044" lon="7.41176">
        <ele>2522.64</ele>
        <time>2010-04-14T08:55:48Z</time>
      </trkpt>
      <trkpt lat="46.03042" lon="7.41179">
        <ele>2523.6</ele>
        <time>2010-04-14T08:55:55Z</time>
      </trkpt>
      <trkpt lat="46.0304" lon="7.41183">
        <ele>2524.56</ele>
        <time>2010-04-14T08:56:08Z</time>
      </trkpt>
      <trkpt lat="46.03039" lon="7.41183">
        <ele>2524.56</ele>
        <time>2010-04-14T08:56:29Z</time>
      </trkpt>
      <trkpt lat="46.03039" lon="7.41183">
        <ele>2524.56</ele>
        <time>2010-04-14T08:57:00Z</time>
      </trkpt>
      <trkpt lat="46.03039" lon="7.41183">
        <ele>2524.08</ele>
        <time>2010-04-14T08:58:26Z</time>
      </trkpt>
      <trkpt lat="46.03039" lon="7.41183">
        <ele>2523.12</ele>
        <time>2010-04-14T08:58:52Z</time>
      </trkpt>
      <trkpt lat="46.03038" lon="7.41184">
        <ele>2523.6</ele>
        <time>2010-04-14T08:59:13Z</time>
      </trkpt>
      <trkpt lat="46.03037" lon="7.41185">
        <ele>2525.04</ele>
        <time>2010-04-14T08:59:37Z</time>
      </trkpt>
      <trkpt lat="46.03033" lon="7.4119">
        <ele>2526.48</ele>
        <time>2010-04-14T08:59:50Z</time>
      </trkpt>
      <trkpt lat="46.03027" lon="7.41198">
        <ele>2528.4</ele>
        <time>2010-04-14T09:00:03Z</time>
      </trkpt>
      <trkpt lat="46.03025" lon="7.41201">
        <ele>2530.33</ele>
        <time>2010-04-14T09:00:17Z</time>
      </trkpt>
      <trkpt lat="46.03021" lon="7.41206">
        <ele>2530.33</ele>
        <time>2010-04-14T09:00:30Z</time>
      </trkpt>
      <trkpt lat="46.03016" lon="7.41213">
        <ele>2532.25</ele>
        <time>2010-04-14T09:00:42Z</time>
      </trkpt>
      <trkpt lat="46.03013" lon="7.41218">
        <ele>2533.21</ele>
        <time>2010-04-14T09:00:57Z</time>
      </trkpt>
      <trkpt lat="46.03007" lon="7.41226">
        <ele>2535.13</ele>
        <time>2010-04-14T09:01:13Z</time>
      </trkpt>
      <trkpt lat="46.03003" lon="7.41235">
        <ele>2536.58</ele>
        <time>2010-04-14T09:01:26Z</time>
      </trkpt>
      <trkpt lat="46.03" lon="7.4124">
        <ele>2538.5</ele>
        <time>2010-04-14T09:01:39Z</time>
      </trkpt>
      <trkpt lat="46.02997" lon="7.41248">
        <ele>2539.46</ele>
        <time>2010-04-14T09:01:50Z</time>
      </trkpt>
      <trkpt lat="46.02996" lon="7.41255">
        <ele>2541.38</ele>
        <time>2010-04-14T09:02:04Z</time>
      </trkpt>
      <trkpt lat="46.02993" lon="7.41261">
        <ele>2543.31</ele>
        <time>2010-04-14T09:02:17Z</time>
      </trkpt>
      <trkpt lat="46.02989" lon="7.41267">
        <ele>2544.75</ele>
        <time>2010-04-14T09:02:31Z</time>
      </trkpt>
      <trkpt lat="46.02987" lon="7.41274">
        <ele>2546.19</ele>
        <time>2010-04-14T09:02:45Z</time>
      </trkpt>
      <trkpt lat="46.02985" lon="7.41282">
        <ele>2548.11</ele>
        <time>2010-04-14T09:02:57Z</time>
      </trkpt>
      <trkpt lat="46.02983" lon="7.41289">
        <ele>2549.55</ele>
        <time>2010-04-14T09:03:11Z</time>
      </trkpt>
      <trkpt lat="46.0298" lon="7.41296">
        <ele>2551</ele>
        <time>2010-04-14T09:03:25Z</time>
      </trkpt>
      <trkpt lat="46.02978" lon="7.413">
        <ele>2552.44</ele>
        <time>2010-04-14T09:03:37Z</time>
      </trkpt>
      <trkpt lat="46.02977" lon="7.41302">
        <ele>2552.44</ele>
        <time>2010-04-14T09:03:48Z</time>
      </trkpt>
      <trkpt lat="46.02974" lon="7.41295">
        <ele>2553.88</ele>
        <time>2010-04-14T09:04:00Z</time>
      </trkpt>
      <trkpt lat="46.02969" lon="7.41288">
        <ele>2555.8</ele>
        <time>2010-04-14T09:04:12Z</time>
      </trkpt>
      <trkpt lat="46.02966" lon="7.41282">
        <ele>2557.24</ele>
        <time>2010-04-14T09:04:24Z</time>
      </trkpt>
      <trkpt lat="46.02964" lon="7.41278">
        <ele>2559.65</ele>
        <time>2010-04-14T09:04:37Z</time>
      </trkpt>
      <trkpt lat="46.02961" lon="7.4127">
        <ele>2561.57</ele>
        <time>2010-04-14T09:04:48Z</time>
      </trkpt>
      <trkpt lat="46.02959" lon="7.41264">
        <ele>2563.01</ele>
        <time>2010-04-14T09:05:02Z</time>
      </trkpt>
      <trkpt lat="46.02957" lon="7.41259">
        <ele>2565.42</ele>
        <time>2010-04-14T09:05:14Z</time>
      </trkpt>
      <trkpt lat="46.02955" lon="7.41253">
        <ele>2566.38</ele>
        <time>2010-04-14T09:05:26Z</time>
      </trkpt>
      <trkpt lat="46.02953" lon="7.41249">
        <ele>2567.34</ele>
        <time>2010-04-14T09:05:36Z</time>
      </trkpt>
      <trkpt lat="46.02951" lon="7.41244">
        <ele>2569.26</ele>
        <time>2010-04-14T09:05:47Z</time>
      </trkpt>
      <trkpt lat="46.02948" lon="7.41247">
        <ele>2569.74</ele>
        <time>2010-04-14T09:05:59Z</time>
      </trkpt>
      <trkpt lat="46.02944" lon="7.41256">
        <ele>2572.14</ele>
        <time>2010-04-14T09:06:13Z</time>
      </trkpt>
      <trkpt lat="46.02941" lon="7.41263">
        <ele>2573.11</ele>
        <time>2010-04-14T09:06:28Z</time>
      </trkpt>
      <trkpt lat="46.02937" lon="7.4127">
        <ele>2574.55</ele>
        <time>2010-04-14T09:06:39Z</time>
      </trkpt>
      <trkpt lat="46.02935" lon="7.41274">
        <ele>2575.99</ele>
        <time>2010-04-14T09:06:53Z</time>
      </trkpt>
      <trkpt lat="46.02932" lon="7.41284">
        <ele>2577.43</ele>
        <time>2010-04-14T09:07:04Z</time>
      </trkpt>
      <trkpt lat="46.02931" lon="7.41285">
        <ele>2577.43</ele>
        <time>2010-04-14T09:07:17Z</time>
      </trkpt>
      <trkpt lat="46.02929" lon="7.41292">
        <ele>2578.87</ele>
        <time>2010-04-14T09:07:47Z</time>
      </trkpt>
      <trkpt lat="46.02926" lon="7.41304">
        <ele>2580.8</ele>
        <time>2010-04-14T09:07:59Z</time>
      </trkpt>
      <trkpt lat="46.02924" lon="7.41316">
        <ele>2582.72</ele>
        <time>2010-04-14T09:08:14Z</time>
      </trkpt>
      <trkpt lat="46.02922" lon="7.41325">
        <ele>2584.64</ele>
        <time>2010-04-14T09:08:24Z</time>
      </trkpt>
      <trkpt lat="46.02918" lon="7.41334">
        <ele>2586.56</ele>
        <time>2010-04-14T09:08:39Z</time>
      </trkpt>
      <trkpt lat="46.02913" lon="7.41343">
        <ele>2589.45</ele>
        <time>2010-04-14T09:08:52Z</time>
      </trkpt>
      <trkpt lat="46.02911" lon="7.4135">
        <ele>2588.97</ele>
        <time>2010-04-14T09:08:59Z</time>
      </trkpt>
      <trkpt lat="46.02908" lon="7.41363">
        <ele>2590.41</ele>
        <time>2010-04-14T09:09:10Z</time>
      </trkpt>
      <trkpt lat="46.02906" lon="7.4137">
        <ele>2591.37</ele>
        <time>2010-04-14T09:09:16Z</time>
      </trkpt>
      <trkpt lat="46.02905" lon="7.41384">
        <ele>2593.77</ele>
        <time>2010-04-14T09:09:29Z</time>
      </trkpt>
      <trkpt lat="46.02903" lon="7.41392">
        <ele>2595.22</ele>
        <time>2010-04-14T09:09:37Z</time>
      </trkpt>
      <trkpt lat="46.02896" lon="7.41405">
        <ele>2598.1</ele>
        <time>2010-04-14T09:09:50Z</time>
      </trkpt>
      <trkpt lat="46.02896" lon="7.41406">
        <ele>2597.62</ele>
        <time>2010-04-14T09:09:51Z</time>
      </trkpt>
      <trkpt lat="46.02886" lon="7.41415">
        <ele>2600.5</ele>
        <time>2010-04-14T09:10:05Z</time>
      </trkpt>
      <trkpt lat="46.02882" lon="7.41424">
        <ele>2601.95</ele>
        <time>2010-04-14T09:10:16Z</time>
      </trkpt>
      <trkpt lat="46.02878" lon="7.41436">
        <ele>2604.35</ele>
        <time>2010-04-14T09:10:28Z</time>
      </trkpt>
      <trkpt lat="46.02873" lon="7.41443">
        <ele>2605.79</ele>
        <time>2010-04-14T09:10:37Z</time>
      </trkpt>
      <trkpt lat="46.02869" lon="7.41451">
        <ele>2607.23</ele>
        <time>2010-04-14T09:10:50Z</time>
      </trkpt>
      <trkpt lat="46.02868" lon="7.41453">
        <ele>2606.75</ele>
        <time>2010-04-14T09:11:07Z</time>
      </trkpt>
      <trkpt lat="46.02865" lon="7.41455">
        <ele>2608.19</ele>
        <time>2010-04-14T09:11:45Z</time>
      </trkpt>
      <trkpt lat="46.0286" lon="7.4146">
        <ele>2609.64</ele>
        <time>2010-04-14T09:11:55Z</time>
      </trkpt>
      <trkpt lat="46.02856" lon="7.41462">
        <ele>2609.16</ele>
        <time>2010-04-14T09:12:07Z</time>
      </trkpt>
      <trkpt lat="46.02853" lon="7.41462">
        <ele>2610.6</ele>
        <time>2010-04-14T09:12:42Z</time>
      </trkpt>
      <trkpt lat="46.02846" lon="7.41463">
        <ele>2612.04</ele>
        <time>2010-04-14T09:12:56Z</time>
      </trkpt>
      <trkpt lat="46.02837" lon="7.41462">
        <ele>2613</ele>
        <time>2010-04-14T09:13:09Z</time>
      </trkpt>
      <trkpt lat="46.02832" lon="7.41462">
        <ele>2613.96</ele>
        <time>2010-04-14T09:13:15Z</time>
      </trkpt>
      <trkpt lat="46.0283" lon="7.41463">
        <ele>2612.52</ele>
        <time>2010-04-14T09:13:20Z</time>
      </trkpt>
      <trkpt lat="46.02824" lon="7.41463">
        <ele>2614.44</ele>
        <time>2010-04-14T09:13:32Z</time>
      </trkpt>
      <trkpt lat="46.02815" lon="7.41465">
        <ele>2614.44</ele>
        <time>2010-04-14T09:13:44Z</time>
      </trkpt>
      <trkpt lat="46.02803" lon="7.41466">
        <ele>2616.37</ele>
        <time>2010-04-14T09:13:57Z</time>
      </trkpt>
      <trkpt lat="46.02802" lon="7.41466">
        <ele>2615.4</ele>
        <time>2010-04-14T09:13:58Z</time>
      </trkpt>
      <trkpt lat="46.02792" lon="7.41469">
        <ele>2617.81</ele>
        <time>2010-04-14T09:14:11Z</time>
      </trkpt>
      <trkpt lat="46.02783" lon="7.41471">
        <ele>2618.29</ele>
        <time>2010-04-14T09:14:23Z</time>
      </trkpt>
      <trkpt lat="46.02773" lon="7.41472">
        <ele>2618.77</ele>
        <time>2010-04-14T09:14:35Z</time>
      </trkpt>
      <trkpt lat="46.02772" lon="7.41473">
        <ele>2618.29</ele>
        <time>2010-04-14T09:14:36Z</time>
      </trkpt>
      <trkpt lat="46.02766" lon="7.41474">
        <ele>2619.25</ele>
        <time>2010-04-14T09:14:41Z</time>
      </trkpt>
      <trkpt lat="46.02759" lon="7.41476">
        <ele>2616.85</ele>
        <time>2010-04-14T09:14:46Z</time>
      </trkpt>
      <trkpt lat="46.02749" lon="7.41479">
        <ele>2619.25</ele>
        <time>2010-04-14T09:14:57Z</time>
      </trkpt>
      <trkpt lat="46.02744" lon="7.41481">
        <ele>2619.25</ele>
        <time>2010-04-14T09:15:03Z</time>
      </trkpt>
      <trkpt lat="46.02738" lon="7.41483">
        <ele>2619.73</ele>
        <time>2010-04-14T09:15:10Z</time>
      </trkpt>
      <trkpt lat="46.02727" lon="7.41484">
        <ele>2620.69</ele>
        <time>2010-04-14T09:15:21Z</time>
      </trkpt>
      <trkpt lat="46.02713" lon="7.41485">
        <ele>2620.21</ele>
        <time>2010-04-14T09:15:35Z</time>
      </trkpt>
      <trkpt lat="46.027" lon="7.41484">
        <ele>2620.21</ele>
        <time>2010-04-14T09:15:46Z</time>
      </trkpt>
      <trkpt lat="46.02697" lon="7.41483">
        <ele>2620.21</ele>
        <time>2010-04-14T09:15:48Z</time>
      </trkpt>
      <trkpt lat="46.02696" lon="7.41482">
        <ele>2620.69</ele>
        <time>2010-04-14T09:15:50Z</time>
      </trkpt>
      <trkpt lat="46.02683" lon="7.41491">
        <ele>2620.69</ele>
        <time>2010-04-14T09:16:02Z</time>
      </trkpt>
      <trkpt lat="46.02673" lon="7.41503">
        <ele>2620.69</ele>
        <time>2010-04-14T09:16:15Z</time>
      </trkpt>
      <trkpt lat="46.02662" lon="7.41515">
        <ele>2619.73</ele>
        <time>2010-04-14T09:16:25Z</time>
      </trkpt>
      <trkpt lat="46.0265" lon="7.41528">
        <ele>2621.17</ele>
        <time>2010-04-14T09:16:35Z</time>
      </trkpt>
      <trkpt lat="46.02639" lon="7.4154">
        <ele>2622.13</ele>
        <time>2010-04-14T09:16:46Z</time>
      </trkpt>
      <trkpt lat="46.02636" lon="7.41544">
        <ele>2621.65</ele>
        <time>2010-04-14T09:16:49Z</time>
      </trkpt>
      <trkpt lat="46.0263" lon="7.4155">
        <ele>2622.13</ele>
        <time>2010-04-14T09:16:54Z</time>
      </trkpt>
      <trkpt lat="46.02616" lon="7.41563">
        <ele>2621.65</ele>
        <time>2010-04-14T09:17:07Z</time>
      </trkpt>
      <trkpt lat="46.02614" lon="7.41565">
        <ele>2621.65</ele>
        <time>2010-04-14T09:17:09Z</time>
      </trkpt>
      <trkpt lat="46.02607" lon="7.41572">
        <ele>2622.13</ele>
        <time>2010-04-14T09:17:17Z</time>
      </trkpt>
      <trkpt lat="46.02595" lon="7.41586">
        <ele>2622.13</ele>
        <time>2010-04-14T09:17:28Z</time>
      </trkpt>
      <trkpt lat="46.02588" lon="7.416">
        <ele>2623.09</ele>
        <time>2010-04-14T09:17:40Z</time>
      </trkpt>
      <trkpt lat="46.02583" lon="7.41611">
        <ele>2625.02</ele>
        <time>2010-04-14T09:17:51Z</time>
      </trkpt>
      <trkpt lat="46.02581" lon="7.41616">
        <ele>2626.46</ele>
        <time>2010-04-14T09:17:55Z</time>
      </trkpt>
      <trkpt lat="46.02578" lon="7.41627">
        <ele>2627.42</ele>
        <time>2010-04-14T09:18:03Z</time>
      </trkpt>
      <trkpt lat="46.02575" lon="7.41634">
        <ele>2628.86</ele>
        <time>2010-04-14T09:18:10Z</time>
      </trkpt>
      <trkpt lat="46.0257" lon="7.41649">
        <ele>2630.3</ele>
        <time>2010-04-14T09:18:23Z</time>
      </trkpt>
      <trkpt lat="46.02564" lon="7.41664">
        <ele>2630.79</ele>
        <time>2010-04-14T09:18:36Z</time>
      </trkpt>
      <trkpt lat="46.02563" lon="7.41667">
        <ele>2630.79</ele>
        <time>2010-04-14T09:18:38Z</time>
      </trkpt>
      <trkpt lat="46.02556" lon="7.41679">
        <ele>2631.75</ele>
        <time>2010-04-14T09:18:51Z</time>
      </trkpt>
      <trkpt lat="46.02549" lon="7.41688">
        <ele>2632.71</ele>
        <time>2010-04-14T09:19:05Z</time>
      </trkpt>
      <trkpt lat="46.02543" lon="7.41699">
        <ele>2634.15</ele>
        <time>2010-04-14T09:19:17Z</time>
      </trkpt>
      <trkpt lat="46.02542" lon="7.417">
        <ele>2634.15</ele>
        <time>2010-04-14T09:19:18Z</time>
      </trkpt>
      <trkpt lat="46.02534" lon="7.41715">
        <ele>2635.11</ele>
        <time>2010-04-14T09:19:29Z</time>
      </trkpt>
      <trkpt lat="46.02526" lon="7.41722">
        <ele>2636.55</ele>
        <time>2010-04-14T09:19:41Z</time>
      </trkpt>
      <trkpt lat="46.02517" lon="7.41731">
        <ele>2636.55</ele>
        <time>2010-04-14T09:19:55Z</time>
      </trkpt>
      <trkpt lat="46.02508" lon="7.41733">
        <ele>2636.55</ele>
        <time>2010-04-14T09:20:05Z</time>
      </trkpt>
      <trkpt lat="46.02493" lon="7.41734">
        <ele>2637.03</ele>
        <time>2010-04-14T09:20:20Z</time>
      </trkpt>
      <trkpt lat="46.02491" lon="7.41735">
        <ele>2637.03</ele>
        <time>2010-04-14T09:20:22Z</time>
      </trkpt>
      <trkpt lat="46.02486" lon="7.41735">
        <ele>2637.51</ele>
        <time>2010-04-14T09:20:27Z</time>
      </trkpt>
      <trkpt lat="46.0248" lon="7.41735">
        <ele>2637.99</ele>
        <time>2010-04-14T09:20:34Z</time>
      </trkpt>
      <trkpt lat="46.02471" lon="7.4175">
        <ele>2635.11</ele>
        <time>2010-04-14T09:20:40Z</time>
      </trkpt>
      <trkpt lat="46.02467" lon="7.41752">
        <ele>2634.63</ele>
        <time>2010-04-14T09:20:44Z</time>
      </trkpt>
      <trkpt lat="46.02461" lon="7.41758">
        <ele>2635.11</ele>
        <time>2010-04-14T09:20:57Z</time>
      </trkpt>
      <trkpt lat="46.02461" lon="7.41758">
        <ele>2634.63</ele>
        <time>2010-04-14T09:21:17Z</time>
      </trkpt>
      <trkpt lat="46.02462" lon="7.41758">
        <ele>2633.67</ele>
        <time>2010-04-14T09:21:35Z</time>
      </trkpt>
      <trkpt lat="46.02462" lon="7.41758">
        <ele>2632.71</ele>
        <time>2010-04-14T09:21:51Z</time>
      </trkpt>
      <trkpt lat="46.02463" lon="7.41756">
        <ele>2633.67</ele>
        <time>2010-04-14T09:25:35Z</time>
      </trkpt>
      <trkpt lat="46.02463" lon="7.41756">
        <ele>2632.23</ele>
        <time>2010-04-14T09:25:54Z</time>
      </trkpt>
      <trkpt lat="46.02462" lon="7.41757">
        <ele>2632.23</ele>
        <time>2010-04-14T09:26:52Z</time>
      </trkpt>
      <trkpt lat="46.02462" lon="7.41757">
        <ele>2631.75</ele>
        <time>2010-04-14T09:27:10Z</time>
      </trkpt>
      <trkpt lat="46.02462" lon="7.41757">
        <ele>2631.27</ele>
        <time>2010-04-14T09:27:42Z</time>
      </trkpt>
      <trkpt lat="46.02462" lon="7.41757">
        <ele>2631.27</ele>
        <time>2010-04-14T09:30:43Z</time>
      </trkpt>
      <trkpt lat="46.02462" lon="7.41756">
        <ele>2631.75</ele>
        <time>2010-04-14T09:32:33Z</time>
      </trkpt>
      <trkpt lat="46.02462" lon="7.41756">
        <ele>2632.23</ele>
        <time>2010-04-14T09:33:18Z</time>
      </trkpt>
      <trkpt lat="46.02463" lon="7.41755">
        <ele>2630.79</ele>
        <time>2010-04-14T09:34:01Z</time>
      </trkpt>
      <trkpt lat="46.02462" lon="7.41758">
        <ele>2632.71</ele>
        <time>2010-04-14T09:34:36Z</time>
      </trkpt>
      <trkpt lat="46.02463" lon="7.41758">
        <ele>2630.79</ele>
        <time>2010-04-14T09:34:39Z</time>
      </trkpt>
      <trkpt lat="46.02463" lon="7.41758">
        <ele>2630.79</ele>
        <time>2010-04-14T09:35:36Z</time>
      </trkpt>
      <trkpt lat="46.02463" lon="7.41758">
        <ele>2632.23</ele>
        <time>2010-04-14T09:35:38Z</time>
      </trkpt>
      <trkpt lat="46.02462" lon="7.41757">
        <ele>2630.79</ele>
        <time>2010-04-14T09:41:12Z</time>
      </trkpt>
      <trkpt lat="46.02462" lon="7.41757">
        <ele>2625.02</ele>
        <time>2010-04-14T09:41:31Z</time>
      </trkpt>
      <trkpt lat="46.02462" lon="7.41757">
        <ele>2635.11</ele>
        <time>2010-04-14T09:41:32Z</time>
      </trkpt>
      <trkpt lat="46.02462" lon="7.41757">
        <ele>2633.19</ele>
        <time>2010-04-14T09:41:33Z</time>
      </trkpt>
      <trkpt lat="46.02462" lon="7.41757">
        <ele>2630.3</ele>
        <time>2010-04-14T09:41:34Z</time>
      </trkpt>
      <trkpt lat="46.02462" lon="7.41757">
        <ele>2631.27</ele>
        <time>2010-04-14T09:41:35Z</time>
      </trkpt>
      <trkpt lat="46.02462" lon="7.41758">
        <ele>2632.71</ele>
        <time>2010-04-14T09:45:09Z</time>
      </trkpt>
      <trkpt lat="46.02461" lon="7.41759">
        <ele>2632.71</ele>
        <time>2010-04-14T09:45:21Z</time>
      </trkpt>
      <trkpt lat="46.02461" lon="7.41759">
        <ele>2632.23</ele>
        <time>2010-04-14T09:45:41Z</time>
      </trkpt>
      <trkpt lat="46.02461" lon="7.41759">
        <ele>2632.23</ele>
        <time>2010-04-14T09:45:55Z</time>
      </trkpt>
      <trkpt lat="46.02461" lon="7.41759">
        <ele>2632.23</ele>
        <time>2010-04-14T09:45:58Z</time>
      </trkpt>
      <trkpt lat="46.02458" lon="7.41758">
        <ele>2633.19</ele>
        <time>2010-04-14T09:46:09Z</time>
      </trkpt>
      <trkpt lat="46.02458" lon="7.41757">
        <ele>2633.19</ele>
        <time>2010-04-14T09:46:30Z</time>
      </trkpt>
      <trkpt lat="46.02458" lon="7.41757">
        <ele>2633.19</ele>
        <time>2010-04-14T09:46:57Z</time>
      </trkpt>
      <trkpt lat="46.02457" lon="7.41758">
        <ele>2633.19</ele>
        <time>2010-04-14T09:47:19Z</time>
      </trkpt>
      <trkpt lat="46.02457" lon="7.41759">
        <ele>2632.71</ele>
        <time>2010-04-14T09:47:44Z</time>
      </trkpt>
      <trkpt lat="46.02458" lon="7.41759">
        <ele>2632.71</ele>
        <time>2010-04-14T09:47:58Z</time>
      </trkpt>
      <trkpt lat="46.02458" lon="7.4176">
        <ele>2633.19</ele>
        <time>2010-04-14T09:48:16Z</time>
      </trkpt>
      <trkpt lat="46.02457" lon="7.41763">
        <ele>2632.71</ele>
        <time>2010-04-14T09:48:42Z</time>
      </trkpt>
      <trkpt lat="46.02455" lon="7.41767">
        <ele>2632.71</ele>
        <time>2010-04-14T09:48:46Z</time>
      </trkpt>
      <trkpt lat="46.02448" lon="7.41774">
        <ele>2633.19</ele>
        <time>2010-04-14T09:48:57Z</time>
      </trkpt>
      <trkpt lat="46.02441" lon="7.4178">
        <ele>2634.63</ele>
        <time>2010-04-14T09:49:07Z</time>
      </trkpt>
      <trkpt lat="46.02435" lon="7.41786">
        <ele>2635.59</ele>
        <time>2010-04-14T09:49:21Z</time>
      </trkpt>
      <trkpt lat="46.02435" lon="7.41786">
        <ele>2636.07</ele>
        <time>2010-04-14T09:49:23Z</time>
      </trkpt>
      <trkpt lat="46.02427" lon="7.41791">
        <ele>2637.03</ele>
        <time>2010-04-14T09:49:37Z</time>
      </trkpt>
      <trkpt lat="46.02418" lon="7.41796">
        <ele>2638.48</ele>
        <time>2010-04-14T09:49:51Z</time>
      </trkpt>
      <trkpt lat="46.02416" lon="7.41797">
        <ele>2638.96</ele>
        <time>2010-04-14T09:49:53Z</time>
      </trkpt>
      <trkpt lat="46.02401" lon="7.41803">
        <ele>2638.48</ele>
        <time>2010-04-14T09:50:07Z</time>
      </trkpt>
      <trkpt lat="46.02392" lon="7.41807">
        <ele>2638.96</ele>
        <time>2010-04-14T09:50:18Z</time>
      </trkpt>
      <trkpt lat="46.0238" lon="7.41816">
        <ele>2638.48</ele>
        <time>2010-04-14T09:50:30Z</time>
      </trkpt>
      <trkpt lat="46.02373" lon="7.4182">
        <ele>2638.48</ele>
        <time>2010-04-14T09:50:37Z</time>
      </trkpt>
      <trkpt lat="46.02367" lon="7.41828">
        <ele>2638.48</ele>
        <time>2010-04-14T09:50:45Z</time>
      </trkpt>
      <trkpt lat="46.02356" lon="7.41838">
        <ele>2638.48</ele>
        <time>2010-04-14T09:50:59Z</time>
      </trkpt>
      <trkpt lat="46.02346" lon="7.41845">
        <ele>2638.96</ele>
        <time>2010-04-14T09:51:11Z</time>
      </trkpt>
      <trkpt lat="46.02337" lon="7.4185">
        <ele>2638.96</ele>
        <time>2010-04-14T09:51:23Z</time>
      </trkpt>
      <trkpt lat="46.02334" lon="7.41851">
        <ele>2639.44</ele>
        <time>2010-04-14T09:51:27Z</time>
      </trkpt>
      <trkpt lat="46.02326" lon="7.41853">
        <ele>2639.92</ele>
        <time>2010-04-14T09:51:39Z</time>
      </trkpt>
      <trkpt lat="46.02318" lon="7.41855">
        <ele>2640.88</ele>
        <time>2010-04-14T09:51:52Z</time>
      </trkpt>
      <trkpt lat="46.02314" lon="7.41858">
        <ele>2641.36</ele>
        <time>2010-04-14T09:51:59Z</time>
      </trkpt>
      <trkpt lat="46.02306" lon="7.41861">
        <ele>2643.28</ele>
        <time>2010-04-14T09:52:12Z</time>
      </trkpt>
      <trkpt lat="46.02297" lon="7.41867">
        <ele>2644.72</ele>
        <time>2010-04-14T09:52:26Z</time>
      </trkpt>
      <trkpt lat="46.0229" lon="7.41873">
        <ele>2645.69</ele>
        <time>2010-04-14T09:52:41Z</time>
      </trkpt>
      <trkpt lat="46.02281" lon="7.41877">
        <ele>2647.61</ele>
        <time>2010-04-14T09:52:55Z</time>
      </trkpt>
      <trkpt lat="46.02279" lon="7.41878">
        <ele>2648.09</ele>
        <time>2010-04-14T09:52:59Z</time>
      </trkpt>
      <trkpt lat="46.02269" lon="7.41883">
        <ele>2648.57</ele>
        <time>2010-04-14T09:53:12Z</time>
      </trkpt>
      <trkpt lat="46.02262" lon="7.41883">
        <ele>2649.53</ele>
        <time>2010-04-14T09:53:24Z</time>
      </trkpt>
      <trkpt lat="46.02257" lon="7.41883">
        <ele>2649.53</ele>
        <time>2010-04-14T09:53:30Z</time>
      </trkpt>
      <trkpt lat="46.0225" lon="7.41883">
        <ele>2650.97</ele>
        <time>2010-04-14T09:53:41Z</time>
      </trkpt>
      <trkpt lat="46.02248" lon="7.41884">
        <ele>2651.93</ele>
        <time>2010-04-14T09:53:46Z</time>
      </trkpt>
      <trkpt lat="46.02245" lon="7.41885">
        <ele>2651.45</ele>
        <time>2010-04-14T09:53:50Z</time>
      </trkpt>
      <trkpt lat="46.02239" lon="7.4189">
        <ele>2653.86</ele>
        <time>2010-04-14T09:54:02Z</time>
      </trkpt>
      <trkpt lat="46.0223" lon="7.41897">
        <ele>2654.82</ele>
        <time>2010-04-14T09:54:15Z</time>
      </trkpt>
      <trkpt lat="46.02223" lon="7.41898">
        <ele>2656.26</ele>
        <time>2010-04-14T09:54:28Z</time>
      </trkpt>
      <trkpt lat="46.02219" lon="7.41898">
        <ele>2656.74</ele>
        <time>2010-04-14T09:54:38Z</time>
      </trkpt>
      <trkpt lat="46.02217" lon="7.41898">
        <ele>2657.22</ele>
        <time>2010-04-14T09:54:40Z</time>
      </trkpt>
      <trkpt lat="46.02211" lon="7.41894">
        <ele>2658.18</ele>
        <time>2010-04-14T09:54:50Z</time>
      </trkpt>
      <trkpt lat="46.02201" lon="7.41892">
        <ele>2658.66</ele>
        <time>2010-04-14T09:55:03Z</time>
      </trkpt>
      <trkpt lat="46.02197" lon="7.41891">
        <ele>2659.62</ele>
        <time>2010-04-14T09:55:11Z</time>
      </trkpt>
      <trkpt lat="46.0219" lon="7.41889">
        <ele>2661.55</ele>
        <time>2010-04-14T09:55:22Z</time>
      </trkpt>
      <trkpt lat="46.02183" lon="7.41886">
        <ele>2662.99</ele>
        <time>2010-04-14T09:55:34Z</time>
      </trkpt>
      <trkpt lat="46.02175" lon="7.41885">
        <ele>2664.43</ele>
        <time>2010-04-14T09:55:46Z</time>
      </trkpt>
      <trkpt lat="46.0217" lon="7.41885">
        <ele>2663.95</ele>
        <time>2010-04-14T09:55:54Z</time>
      </trkpt>
      <trkpt lat="46.02164" lon="7.41885">
        <ele>2665.87</ele>
        <time>2010-04-14T09:56:06Z</time>
      </trkpt>
      <trkpt lat="46.02156" lon="7.41882">
        <ele>2666.83</ele>
        <time>2010-04-14T09:56:19Z</time>
      </trkpt>
      <trkpt lat="46.02154" lon="7.41879">
        <ele>2666.35</ele>
        <time>2010-04-14T09:56:22Z</time>
      </trkpt>
      <trkpt lat="46.02155" lon="7.41873">
        <ele>2667.31</ele>
        <time>2010-04-14T09:56:31Z</time>
      </trkpt>
      <trkpt lat="46.02157" lon="7.41864">
        <ele>2668.76</ele>
        <time>2010-04-14T09:56:44Z</time>
      </trkpt>
      <trkpt lat="46.02155" lon="7.41859">
        <ele>2671.64</ele>
        <time>2010-04-14T09:56:58Z</time>
      </trkpt>
      <trkpt lat="46.02152" lon="7.41855">
        <ele>2672.6</ele>
        <time>2010-04-14T09:57:12Z</time>
      </trkpt>
      <trkpt lat="46.02146" lon="7.41852">
        <ele>2674.04</ele>
        <time>2010-04-14T09:57:25Z</time>
      </trkpt>
      <trkpt lat="46.02139" lon="7.41852">
        <ele>2674.52</ele>
        <time>2010-04-14T09:57:32Z</time>
      </trkpt>
      <trkpt lat="46.0213" lon="7.41854">
        <ele>2675.49</ele>
        <time>2010-04-14T09:57:45Z</time>
      </trkpt>
      <trkpt lat="46.02119" lon="7.41856">
        <ele>2675.97</ele>
        <time>2010-04-14T09:58:00Z</time>
      </trkpt>
      <trkpt lat="46.02117" lon="7.41856">
        <ele>2676.93</ele>
        <time>2010-04-14T09:58:03Z</time>
      </trkpt>
      <trkpt lat="46.02107" lon="7.41857">
        <ele>2678.37</ele>
        <time>2010-04-14T09:58:17Z</time>
      </trkpt>
      <trkpt lat="46.02107" lon="7.41857">
        <ele>2679.33</ele>
        <time>2010-04-14T09:58:22Z</time>
      </trkpt>
      <trkpt lat="46.02107" lon="7.41857">
        <ele>2677.89</ele>
        <time>2010-04-14T09:58:24Z</time>
      </trkpt>
      <trkpt lat="46.021" lon="7.41853">
        <ele>2679.81</ele>
        <time>2010-04-14T09:58:36Z</time>
      </trkpt>
      <trkpt lat="46.02089" lon="7.41852">
        <ele>2680.77</ele>
        <time>2010-04-14T09:58:51Z</time>
      </trkpt>
      <trkpt lat="46.0208" lon="7.41851">
        <ele>2680.77</ele>
        <time>2010-04-14T09:59:04Z</time>
      </trkpt>
      <trkpt lat="46.02071" lon="7.41852">
        <ele>2682.22</ele>
        <time>2010-04-14T09:59:17Z</time>
      </trkpt>
      <trkpt lat="46.02063" lon="7.41853">
        <ele>2683.18</ele>
        <time>2010-04-14T09:59:30Z</time>
      </trkpt>
      <trkpt lat="46.02054" lon="7.41854">
        <ele>2683.66</ele>
        <time>2010-04-14T09:59:43Z</time>
      </trkpt>
      <trkpt lat="46.02046" lon="7.41857">
        <ele>2685.58</ele>
        <time>2010-04-14T09:59:54Z</time>
      </trkpt>
      <trkpt lat="46.02041" lon="7.41858">
        <ele>2685.58</ele>
        <time>2010-04-14T10:00:02Z</time>
      </trkpt>
      <trkpt lat="46.02032" lon="7.41855">
        <ele>2686.06</ele>
        <time>2010-04-14T10:00:14Z</time>
      </trkpt>
      <trkpt lat="46.02022" lon="7.41855">
        <ele>2687.02</ele>
        <time>2010-04-14T10:00:28Z</time>
      </trkpt>
      <trkpt lat="46.02014" lon="7.41857">
        <ele>2688.46</ele>
        <time>2010-04-14T10:00:39Z</time>
      </trkpt>
      <trkpt lat="46.02009" lon="7.41858">
        <ele>2689.43</ele>
        <time>2010-04-14T10:00:50Z</time>
      </trkpt>
      <trkpt lat="46.02007" lon="7.41858">
        <ele>2690.87</ele>
        <time>2010-04-14T10:01:05Z</time>
      </trkpt>
      <trkpt lat="46.02005" lon="7.41858">
        <ele>2692.31</ele>
        <time>2010-04-14T10:01:18Z</time>
      </trkpt>
      <trkpt lat="46.01993" lon="7.41863">
        <ele>2693.75</ele>
        <time>2010-04-14T10:01:32Z</time>
      </trkpt>
      <trkpt lat="46.01981" lon="7.41869">
        <ele>2694.23</ele>
        <time>2010-04-14T10:01:42Z</time>
      </trkpt>
      <trkpt lat="46.01976" lon="7.41869">
        <ele>2695.67</ele>
        <time>2010-04-14T10:01:53Z</time>
      </trkpt>
      <trkpt lat="46.01969" lon="7.4187">
        <ele>2696.64</ele>
        <time>2010-04-14T10:02:05Z</time>
      </trkpt>
      <trkpt lat="46.01965" lon="7.41872">
        <ele>2698.08</ele>
        <time>2010-04-14T10:02:14Z</time>
      </trkpt>
      <trkpt lat="46.0196" lon="7.41873">
        <ele>2698.08</ele>
        <time>2010-04-14T10:02:24Z</time>
      </trkpt>
      <trkpt lat="46.01956" lon="7.41873">
        <ele>2700.48</ele>
        <time>2010-04-14T10:02:38Z</time>
      </trkpt>
      <trkpt lat="46.0195" lon="7.41874">
        <ele>2701.92</ele>
        <time>2010-04-14T10:02:50Z</time>
      </trkpt>
      <trkpt lat="46.01943" lon="7.41876">
        <ele>2703.36</ele>
        <time>2010-04-14T10:03:04Z</time>
      </trkpt>
      <trkpt lat="46.01942" lon="7.41876">
        <ele>2703.85</ele>
        <time>2010-04-14T10:03:06Z</time>
      </trkpt>
      <trkpt lat="46.01936" lon="7.41874">
        <ele>2704.81</ele>
        <time>2010-04-14T10:03:17Z</time>
      </trkpt>
      <trkpt lat="46.01933" lon="7.41872">
        <ele>2705.77</ele>
        <time>2010-04-14T10:03:28Z</time>
      </trkpt>
      <trkpt lat="46.01924" lon="7.41874">
        <ele>2706.73</ele>
        <time>2010-04-14T10:03:40Z</time>
      </trkpt>
      <trkpt lat="46.01916" lon="7.41872">
        <ele>2707.69</ele>
        <time>2010-04-14T10:03:52Z</time>
      </trkpt>
      <trkpt lat="46.01912" lon="7.4187">
        <ele>2708.65</ele>
        <time>2010-04-14T10:03:58Z</time>
      </trkpt>
      <trkpt lat="46.01905" lon="7.41869">
        <ele>2709.13</ele>
        <time>2010-04-14T10:04:11Z</time>
      </trkpt>
      <trkpt lat="46.01894" lon="7.41868">
        <ele>2710.57</ele>
        <time>2010-04-14T10:04:24Z</time>
      </trkpt>
      <trkpt lat="46.01886" lon="7.41866">
        <ele>2710.09</ele>
        <time>2010-04-14T10:04:35Z</time>
      </trkpt>
      <trkpt lat="46.01878" lon="7.41866">
        <ele>2711.54</ele>
        <time>2010-04-14T10:04:49Z</time>
      </trkpt>
      <trkpt lat="46.01871" lon="7.41866">
        <ele>2712.98</ele>
        <time>2010-04-14T10:05:01Z</time>
      </trkpt>
      <trkpt lat="46.01867" lon="7.41866">
        <ele>2713.46</ele>
        <time>2010-04-14T10:05:06Z</time>
      </trkpt>
      <trkpt lat="46.0186" lon="7.41868">
        <ele>2715.38</ele>
        <time>2010-04-14T10:05:18Z</time>
      </trkpt>
      <trkpt lat="46.01853" lon="7.41869">
        <ele>2715.86</ele>
        <time>2010-04-14T10:05:30Z</time>
      </trkpt>
      <trkpt lat="46.0185" lon="7.41868">
        <ele>2716.82</ele>
        <time>2010-04-14T10:05:43Z</time>
      </trkpt>
      <trkpt lat="46.01846" lon="7.41869">
        <ele>2717.3</ele>
        <time>2010-04-14T10:05:53Z</time>
      </trkpt>
      <trkpt lat="46.01838" lon="7.41872">
        <ele>2718.27</ele>
        <time>2010-04-14T10:06:04Z</time>
      </trkpt>
      <trkpt lat="46.01833" lon="7.41874">
        <ele>2720.67</ele>
        <time>2010-04-14T10:06:18Z</time>
      </trkpt>
      <trkpt lat="46.01823" lon="7.4188">
        <ele>2721.15</ele>
        <time>2010-04-14T10:06:30Z</time>
      </trkpt>
      <trkpt lat="46.01813" lon="7.41889">
        <ele>2723.07</ele>
        <time>2010-04-14T10:06:44Z</time>
      </trkpt>
      <trkpt lat="46.01803" lon="7.41898">
        <ele>2724.03</ele>
        <time>2010-04-14T10:06:59Z</time>
      </trkpt>
      <trkpt lat="46.01802" lon="7.41902">
        <ele>2724.99</ele>
        <time>2010-04-14T10:07:04Z</time>
      </trkpt>
      <trkpt lat="46.01795" lon="7.4191">
        <ele>2726.44</ele>
        <time>2010-04-14T10:07:19Z</time>
      </trkpt>
      <trkpt lat="46.01792" lon="7.41913">
        <ele>2727.4</ele>
        <time>2010-04-14T10:07:30Z</time>
      </trkpt>
      <trkpt lat="46.01786" lon="7.41916">
        <ele>2728.36</ele>
        <time>2010-04-14T10:07:42Z</time>
      </trkpt>
      <trkpt lat="46.0178" lon="7.41918">
        <ele>2729.8</ele>
        <time>2010-04-14T10:07:53Z</time>
      </trkpt>
      <trkpt lat="46.01777" lon="7.41919">
        <ele>2730.28</ele>
        <time>2010-04-14T10:07:58Z</time>
      </trkpt>
      <trkpt lat="46.01772" lon="7.41922">
        <ele>2732.2</ele>
        <time>2010-04-14T10:08:10Z</time>
      </trkpt>
      <trkpt lat="46.01769" lon="7.41924">
        <ele>2733.65</ele>
        <time>2010-04-14T10:08:26Z</time>
      </trkpt>
      <trkpt lat="46.01764" lon="7.41928">
        <ele>2735.09</ele>
        <time>2010-04-14T10:08:37Z</time>
      </trkpt>
      <trkpt lat="46.01758" lon="7.41935">
        <ele>2737.01</ele>
        <time>2010-04-14T10:08:51Z</time>
      </trkpt>
      <trkpt lat="46.01755" lon="7.41937">
        <ele>2737.97</ele>
        <time>2010-04-14T10:09:02Z</time>
      </trkpt>
      <trkpt lat="46.01753" lon="7.41936">
        <ele>2739.89</ele>
        <time>2010-04-14T10:09:14Z</time>
      </trkpt>
      <trkpt lat="46.01743" lon="7.41943">
        <ele>2742.3</ele>
        <time>2010-04-14T10:09:27Z</time>
      </trkpt>
      <trkpt lat="46.01741" lon="7.41942">
        <ele>2742.78</ele>
        <time>2010-04-14T10:09:31Z</time>
      </trkpt>
      <trkpt lat="46.01738" lon="7.41934">
        <ele>2743.74</ele>
        <time>2010-04-14T10:09:42Z</time>
      </trkpt>
      <trkpt lat="46.01738" lon="7.41925">
        <ele>2744.7</ele>
        <time>2010-04-14T10:09:54Z</time>
      </trkpt>
      <trkpt lat="46.01739" lon="7.41924">
        <ele>2745.66</ele>
        <time>2010-04-14T10:10:07Z</time>
      </trkpt>
      <trkpt lat="46.0174" lon="7.41921">
        <ele>2746.14</ele>
        <time>2010-04-14T10:10:24Z</time>
      </trkpt>
      <trkpt lat="46.01731" lon="7.41925">
        <ele>2747.59</ele>
        <time>2010-04-14T10:10:36Z</time>
      </trkpt>
      <trkpt lat="46.01724" lon="7.41928">
        <ele>2749.03</ele>
        <time>2010-04-14T10:10:48Z</time>
      </trkpt>
      <trkpt lat="46.01724" lon="7.41929">
        <ele>2749.51</ele>
        <time>2010-04-14T10:10:49Z</time>
      </trkpt>
      <trkpt lat="46.01718" lon="7.41935">
        <ele>2750.47</ele>
        <time>2010-04-14T10:11:01Z</time>
      </trkpt>
      <trkpt lat="46.01716" lon="7.41936">
        <ele>2751.91</ele>
        <time>2010-04-14T10:11:11Z</time>
      </trkpt>
      <trkpt lat="46.01711" lon="7.41937">
        <ele>2753.35</ele>
        <time>2010-04-14T10:11:24Z</time>
      </trkpt>
      <trkpt lat="46.01701" lon="7.41939">
        <ele>2754.8</ele>
        <time>2010-04-14T10:11:34Z</time>
      </trkpt>
      <trkpt lat="46.01694" lon="7.41939">
        <ele>2756.72</ele>
        <time>2010-04-14T10:11:45Z</time>
      </trkpt>
      <trkpt lat="46.01688" lon="7.41938">
        <ele>2758.16</ele>
        <time>2010-04-14T10:11:56Z</time>
      </trkpt>
      <trkpt lat="46.01687" lon="7.41938">
        <ele>2758.64</ele>
        <time>2010-04-14T10:12:09Z</time>
      </trkpt>
      <trkpt lat="46.01685" lon="7.41937">
        <ele>2759.12</ele>
        <time>2010-04-14T10:12:22Z</time>
      </trkpt>
      <trkpt lat="46.01674" lon="7.41934">
        <ele>2761.52</ele>
        <time>2010-04-14T10:12:37Z</time>
      </trkpt>
      <trkpt lat="46.01668" lon="7.41933">
        <ele>2762.49</ele>
        <time>2010-04-14T10:12:49Z</time>
      </trkpt>
      <trkpt lat="46.01661" lon="7.41937">
        <ele>2763.45</ele>
        <time>2010-04-14T10:13:00Z</time>
      </trkpt>
      <trkpt lat="46.01655" lon="7.41946">
        <ele>2764.89</ele>
        <time>2010-04-14T10:13:13Z</time>
      </trkpt>
      <trkpt lat="46.01652" lon="7.41955">
        <ele>2766.81</ele>
        <time>2010-04-14T10:13:25Z</time>
      </trkpt>
      <trkpt lat="46.01646" lon="7.41964">
        <ele>2767.29</ele>
        <time>2010-04-14T10:13:40Z</time>
      </trkpt>
      <trkpt lat="46.01645" lon="7.41965">
        <ele>2766.81</ele>
        <time>2010-04-14T10:13:53Z</time>
      </trkpt>
      <trkpt lat="46.01645" lon="7.41965">
        <ele>2767.77</ele>
        <time>2010-04-14T10:14:07Z</time>
      </trkpt>
      <trkpt lat="46.01646" lon="7.41966">
        <ele>2767.29</ele>
        <time>2010-04-14T10:14:57Z</time>
      </trkpt>
      <trkpt lat="46.01645" lon="7.41966">
        <ele>2767.77</ele>
        <time>2010-04-14T10:16:19Z</time>
      </trkpt>
      <trkpt lat="46.01644" lon="7.41968">
        <ele>2767.29</ele>
        <time>2010-04-14T10:17:54Z</time>
      </trkpt>
      <trkpt lat="46.01644" lon="7.41968">
        <ele>2767.29</ele>
        <time>2010-04-14T10:19:01Z</time>
      </trkpt>
      <trkpt lat="46.01639" lon="7.41969">
        <ele>2768.73</ele>
        <time>2010-04-14T10:19:12Z</time>
      </trkpt>
      <trkpt lat="46.01634" lon="7.41974">
        <ele>2768.25</ele>
        <time>2010-04-14T10:19:22Z</time>
      </trkpt>
      <trkpt lat="46.01626" lon="7.41979">
        <ele>2768.73</ele>
        <time>2010-04-14T10:19:34Z</time>
      </trkpt>
      <trkpt lat="46.01619" lon="7.41983">
        <ele>2769.7</ele>
        <time>2010-04-14T10:19:44Z</time>
      </trkpt>
      <trkpt lat="46.01607" lon="7.41987">
        <ele>2770.18</ele>
        <time>2010-04-14T10:19:58Z</time>
      </trkpt>
      <trkpt lat="46.01594" lon="7.41992">
        <ele>2770.66</ele>
        <time>2010-04-14T10:20:10Z</time>
      </trkpt>
      <trkpt lat="46.01589" lon="7.41993">
        <ele>2771.62</ele>
        <time>2010-04-14T10:20:21Z</time>
      </trkpt>
      <trkpt lat="46.01585" lon="7.41992">
        <ele>2772.1</ele>
        <time>2010-04-14T10:20:28Z</time>
      </trkpt>
      <trkpt lat="46.0158" lon="7.41994">
        <ele>2773.54</ele>
        <time>2010-04-14T10:20:39Z</time>
      </trkpt>
      <trkpt lat="46.01575" lon="7.41995">
        <ele>2774.5</ele>
        <time>2010-04-14T10:20:46Z</time>
      </trkpt>
      <trkpt lat="46.01568" lon="7.41997">
        <ele>2774.5</ele>
        <time>2010-04-14T10:20:55Z</time>
      </trkpt>
      <trkpt lat="46.01557" lon="7.41998">
        <ele>2774.98</ele>
        <time>2010-04-14T10:21:07Z</time>
      </trkpt>
      <trkpt lat="46.01548" lon="7.41997">
        <ele>2775.46</ele>
        <time>2010-04-14T10:21:17Z</time>
      </trkpt>
      <trkpt lat="46.01537" lon="7.41999">
        <ele>2775.46</ele>
        <time>2010-04-14T10:21:28Z</time>
      </trkpt>
      <trkpt lat="46.01525" lon="7.42">
        <ele>2776.42</ele>
        <time>2010-04-14T10:21:41Z</time>
      </trkpt>
      <trkpt lat="46.01522" lon="7.42001">
        <ele>2775.94</ele>
        <time>2010-04-14T10:21:45Z</time>
      </trkpt>
      <trkpt lat="46.01515" lon="7.42002">
        <ele>2776.91</ele>
        <time>2010-04-14T10:21:55Z</time>
      </trkpt>
      <trkpt lat="46.01506" lon="7.42007">
        <ele>2775.94</ele>
        <time>2010-04-14T10:22:08Z</time>
      </trkpt>
      <trkpt lat="46.01498" lon="7.42009">
        <ele>2775.94</ele>
        <time>2010-04-14T10:22:17Z</time>
      </trkpt>
      <trkpt lat="46.0149" lon="7.4201">
        <ele>2775.94</ele>
        <time>2010-04-14T10:22:26Z</time>
      </trkpt>
      <trkpt lat="46.01481" lon="7.42012">
        <ele>2775.94</ele>
        <time>2010-04-14T10:22:36Z</time>
      </trkpt>
      <trkpt lat="46.01469" lon="7.42015">
        <ele>2776.42</ele>
        <time>2010-04-14T10:22:48Z</time>
      </trkpt>
      <trkpt lat="46.0146" lon="7.42018">
        <ele>2776.91</ele>
        <time>2010-04-14T10:22:59Z</time>
      </trkpt>
      <trkpt lat="46.01452" lon="7.42021">
        <ele>2776.91</ele>
        <time>2010-04-14T10:23:07Z</time>
      </trkpt>
      <trkpt lat="46.01443" lon="7.42024">
        <ele>2777.87</ele>
        <time>2010-04-14T10:23:18Z</time>
      </trkpt>
      <trkpt lat="46.01435" lon="7.42025">
        <ele>2777.87</ele>
        <time>2010-04-14T10:23:27Z</time>
      </trkpt>
      <trkpt lat="46.01422" lon="7.42026">
        <ele>2777.87</ele>
        <time>2010-04-14T10:23:38Z</time>
      </trkpt>
      <trkpt lat="46.01414" lon="7.42028">
        <ele>2778.35</ele>
        <time>2010-04-14T10:23:48Z</time>
      </trkpt>
      <trkpt lat="46.01405" lon="7.42031">
        <ele>2778.35</ele>
        <time>2010-04-14T10:24:00Z</time>
      </trkpt>
      <trkpt lat="46.01396" lon="7.42033">
        <ele>2779.31</ele>
        <time>2010-04-14T10:24:09Z</time>
      </trkpt>
      <trkpt lat="46.0139" lon="7.42033">
        <ele>2779.31</ele>
        <time>2010-04-14T10:24:16Z</time>
      </trkpt>
      <trkpt lat="46.0138" lon="7.42035">
        <ele>2780.27</ele>
        <time>2010-04-14T10:24:27Z</time>
      </trkpt>
      <trkpt lat="46.01371" lon="7.42038">
        <ele>2781.71</ele>
        <time>2010-04-14T10:24:38Z</time>
      </trkpt>
      <trkpt lat="46.01369" lon="7.42038">
        <ele>2782.19</ele>
        <time>2010-04-14T10:24:40Z</time>
      </trkpt>
      <trkpt lat="46.01361" lon="7.42041">
        <ele>2782.67</ele>
        <time>2010-04-14T10:24:52Z</time>
      </trkpt>
      <trkpt lat="46.01354" lon="7.42044">
        <ele>2783.15</ele>
        <time>2010-04-14T10:25:02Z</time>
      </trkpt>
      <trkpt lat="46.01347" lon="7.42046">
        <ele>2784.12</ele>
        <time>2010-04-14T10:25:12Z</time>
      </trkpt>
      <trkpt lat="46.01341" lon="7.42048">
        <ele>2785.08</ele>
        <time>2010-04-14T10:25:23Z</time>
      </trkpt>
      <trkpt lat="46.01334" lon="7.4205">
        <ele>2786.04</ele>
        <time>2010-04-14T10:25:33Z</time>
      </trkpt>
      <trkpt lat="46.01329" lon="7.42052">
        <ele>2787</ele>
        <time>2010-04-14T10:25:44Z</time>
      </trkpt>
      <trkpt lat="46.01323" lon="7.42056">
        <ele>2787</ele>
        <time>2010-04-14T10:25:53Z</time>
      </trkpt>
      <trkpt lat="46.01316" lon="7.4206">
        <ele>2788.44</ele>
        <time>2010-04-14T10:26:05Z</time>
      </trkpt>
      <trkpt lat="46.01311" lon="7.4206">
        <ele>2788.92</ele>
        <time>2010-04-14T10:26:16Z</time>
      </trkpt>
      <trkpt lat="46.01302" lon="7.42062">
        <ele>2790.84</ele>
        <time>2010-04-14T10:26:29Z</time>
      </trkpt>
      <trkpt lat="46.01299" lon="7.42061">
        <ele>2791.81</ele>
        <time>2010-04-14T10:26:34Z</time>
      </trkpt>
      <trkpt lat="46.0129" lon="7.42057">
        <ele>2793.25</ele>
        <time>2010-04-14T10:26:46Z</time>
      </trkpt>
      <trkpt lat="46.01282" lon="7.4205">
        <ele>2794.69</ele>
        <time>2010-04-14T10:26:58Z</time>
      </trkpt>
      <trkpt lat="46.01272" lon="7.42045">
        <ele>2797.09</ele>
        <time>2010-04-14T10:27:10Z</time>
      </trkpt>
      <trkpt lat="46.01264" lon="7.42042">
        <ele>2797.57</ele>
        <time>2010-04-14T10:27:21Z</time>
      </trkpt>
      <trkpt lat="46.01256" lon="7.4204">
        <ele>2799.5</ele>
        <time>2010-04-14T10:27:32Z</time>
      </trkpt>
      <trkpt lat="46.01251" lon="7.42038">
        <ele>2800.94</ele>
        <time>2010-04-14T10:27:42Z</time>
      </trkpt>
      <trkpt lat="46.01244" lon="7.42037">
        <ele>2802.38</ele>
        <time>2010-04-14T10:27:53Z</time>
      </trkpt>
      <trkpt lat="46.01235" lon="7.42035">
        <ele>2804.78</ele>
        <time>2010-04-14T10:28:04Z</time>
      </trkpt>
      <trkpt lat="46.01224" lon="7.42034">
        <ele>2806.23</ele>
        <time>2010-04-14T10:28:16Z</time>
      </trkpt>
      <trkpt lat="46.01217" lon="7.42033">
        <ele>2809.11</ele>
        <time>2010-04-14T10:28:26Z</time>
      </trkpt>
      <trkpt lat="46.01212" lon="7.4203">
        <ele>2810.07</ele>
        <time>2010-04-14T10:28:34Z</time>
      </trkpt>
      <trkpt lat="46.01211" lon="7.42027">
        <ele>2810.55</ele>
        <time>2010-04-14T10:28:37Z</time>
      </trkpt>
      <trkpt lat="46.01208" lon="7.42017">
        <ele>2811.51</ele>
        <time>2010-04-14T10:28:51Z</time>
      </trkpt>
      <trkpt lat="46.01208" lon="7.42016">
        <ele>2812.47</ele>
        <time>2010-04-14T10:28:52Z</time>
      </trkpt>
      <trkpt lat="46.01202" lon="7.42007">
        <ele>2814.88</ele>
        <time>2010-04-14T10:29:06Z</time>
      </trkpt>
      <trkpt lat="46.01199" lon="7.42005">
        <ele>2816.32</ele>
        <time>2010-04-14T10:29:14Z</time>
      </trkpt>
      <trkpt lat="46.01188" lon="7.41999">
        <ele>2817.76</ele>
        <time>2010-04-14T10:29:25Z</time>
      </trkpt>
      <trkpt lat="46.01181" lon="7.41993">
        <ele>2819.68</ele>
        <time>2010-04-14T10:29:37Z</time>
      </trkpt>
      <trkpt lat="46.01173" lon="7.41988">
        <ele>2820.16</ele>
        <time>2010-04-14T10:30:02Z</time>
      </trkpt>
      <trkpt lat="46.01165" lon="7.41987">
        <ele>2821.13</ele>
        <time>2010-04-14T10:30:12Z</time>
      </trkpt>
      <trkpt lat="46.0116" lon="7.41986">
        <ele>2822.09</ele>
        <time>2010-04-14T10:30:18Z</time>
      </trkpt>
      <trkpt lat="46.01151" lon="7.41991">
        <ele>2823.05</ele>
        <time>2010-04-14T10:30:26Z</time>
      </trkpt>
      <trkpt lat="46.01147" lon="7.41996">
        <ele>2824.01</ele>
        <time>2010-04-14T10:30:31Z</time>
      </trkpt>
      <trkpt lat="46.01143" lon="7.41999">
        <ele>2824.01</ele>
        <time>2010-04-14T10:30:36Z</time>
      </trkpt>
      <trkpt lat="46.0114" lon="7.42001">
        <ele>2824.97</ele>
        <time>2010-04-14T10:30:42Z</time>
      </trkpt>
      <trkpt lat="46.01132" lon="7.42002">
        <ele>2826.41</ele>
        <time>2010-04-14T10:30:54Z</time>
      </trkpt>
      <trkpt lat="46.01129" lon="7.42">
        <ele>2828.82</ele>
        <time>2010-04-14T10:31:00Z</time>
      </trkpt>
      <trkpt lat="46.01119" lon="7.41997">
        <ele>2829.3</ele>
        <time>2010-04-14T10:31:11Z</time>
      </trkpt>
      <trkpt lat="46.01112" lon="7.41989">
        <ele>2830.74</ele>
        <time>2010-04-14T10:31:22Z</time>
      </trkpt>
      <trkpt lat="46.01104" lon="7.41981">
        <ele>2832.18</ele>
        <time>2010-04-14T10:31:34Z</time>
      </trkpt>
      <trkpt lat="46.01095" lon="7.41972">
        <ele>2834.1</ele>
        <time>2010-04-14T10:31:46Z</time>
      </trkpt>
      <trkpt lat="46.01089" lon="7.41964">
        <ele>2834.58</ele>
        <time>2010-04-14T10:31:57Z</time>
      </trkpt>
      <trkpt lat="46.01078" lon="7.41957">
        <ele>2836.51</ele>
        <time>2010-04-14T10:32:10Z</time>
      </trkpt>
      <trkpt lat="46.01075" lon="7.41955">
        <ele>2837.47</ele>
        <time>2010-04-14T10:32:20Z</time>
      </trkpt>
      <trkpt lat="46.01069" lon="7.41947">
        <ele>2839.87</ele>
        <time>2010-04-14T10:32:32Z</time>
      </trkpt>
      <trkpt lat="46.01063" lon="7.41939">
        <ele>2842.28</ele>
        <time>2010-04-14T10:32:44Z</time>
      </trkpt>
      <trkpt lat="46.01061" lon="7.41934">
        <ele>2843.72</ele>
        <time>2010-04-14T10:32:50Z</time>
      </trkpt>
      <trkpt lat="46.01056" lon="7.41925">
        <ele>2845.64</ele>
        <time>2010-04-14T10:33:02Z</time>
      </trkpt>
      <trkpt lat="46.01054" lon="7.41916">
        <ele>2847.56</ele>
        <time>2010-04-14T10:33:15Z</time>
      </trkpt>
      <trkpt lat="46.01047" lon="7.41905">
        <ele>2849.48</ele>
        <time>2010-04-14T10:33:28Z</time>
      </trkpt>
      <trkpt lat="46.01045" lon="7.419">
        <ele>2849.97</ele>
        <time>2010-04-14T10:33:34Z</time>
      </trkpt>
      <trkpt lat="46.01044" lon="7.41896">
        <ele>2851.41</ele>
        <time>2010-04-14T10:33:39Z</time>
      </trkpt>
      <trkpt lat="46.01041" lon="7.41888">
        <ele>2853.81</ele>
        <time>2010-04-14T10:33:49Z</time>
      </trkpt>
      <trkpt lat="46.01041" lon="7.41888">
        <ele>2853.81</ele>
        <time>2010-04-14T10:33:50Z</time>
      </trkpt>
      <trkpt lat="46.01035" lon="7.41875">
        <ele>2856.21</ele>
        <time>2010-04-14T10:34:02Z</time>
      </trkpt>
      <trkpt lat="46.01032" lon="7.41865">
        <ele>2858.14</ele>
        <time>2010-04-14T10:34:14Z</time>
      </trkpt>
      <trkpt lat="46.01032" lon="7.41865">
        <ele>2858.62</ele>
        <time>2010-04-14T10:34:15Z</time>
      </trkpt>
      <trkpt lat="46.01029" lon="7.41862">
        <ele>2859.1</ele>
        <time>2010-04-14T10:34:26Z</time>
      </trkpt>
      <trkpt lat="46.01029" lon="7.41862">
        <ele>2858.62</ele>
        <time>2010-04-14T10:34:32Z</time>
      </trkpt>
      <trkpt lat="46.01028" lon="7.41861">
        <ele>2857.66</ele>
        <time>2010-04-14T10:34:34Z</time>
      </trkpt>
      <trkpt lat="46.01029" lon="7.4186">
        <ele>2857.18</ele>
        <time>2010-04-14T10:34:52Z</time>
      </trkpt>
      <trkpt lat="46.0103" lon="7.41861">
        <ele>2857.18</ele>
        <time>2010-04-14T10:36:38Z</time>
      </trkpt>
      <trkpt lat="46.0103" lon="7.41861">
        <ele>2856.21</ele>
        <time>2010-04-14T10:37:05Z</time>
      </trkpt>
      <trkpt lat="46.01029" lon="7.41861">
        <ele>2856.21</ele>
        <time>2010-04-14T10:39:31Z</time>
      </trkpt>
      <trkpt lat="46.01029" lon="7.41862">
        <ele>2856.69</ele>
        <time>2010-04-14T10:40:38Z</time>
      </trkpt>
      <trkpt lat="46.01029" lon="7.41862">
        <ele>2857.66</ele>
        <time>2010-04-14T10:40:58Z</time>
      </trkpt>
      <trkpt lat="46.01028" lon="7.41862">
        <ele>2857.66</ele>
        <time>2010-04-14T10:41:08Z</time>
      </trkpt>
      <trkpt lat="46.01028" lon="7.41861">
        <ele>2857.18</ele>
        <time>2010-04-14T10:41:43Z</time>
      </trkpt>
      <trkpt lat="46.01029" lon="7.41851">
        <ele>2859.1</ele>
        <time>2010-04-14T10:42:07Z</time>
      </trkpt>
      <trkpt lat="46.01027" lon="7.41839">
        <ele>2860.54</ele>
        <time>2010-04-14T10:42:21Z</time>
      </trkpt>
      <trkpt lat="46.01027" lon="7.41837">
        <ele>2861.5</ele>
        <time>2010-04-14T10:42:23Z</time>
      </trkpt>
      <trkpt lat="46.01024" lon="7.41828">
        <ele>2863.42</ele>
        <time>2010-04-14T10:42:35Z</time>
      </trkpt>
      <trkpt lat="46.01023" lon="7.41822">
        <ele>2865.35</ele>
        <time>2010-04-14T10:42:46Z</time>
      </trkpt>
      <trkpt lat="46.01021" lon="7.41815">
        <ele>2866.79</ele>
        <time>2010-04-14T10:42:59Z</time>
      </trkpt>
      <trkpt lat="46.0102" lon="7.41803">
        <ele>2868.71</ele>
        <time>2010-04-14T10:43:12Z</time>
      </trkpt>
      <trkpt lat="46.01019" lon="7.41799">
        <ele>2870.63</ele>
        <time>2010-04-14T10:43:22Z</time>
      </trkpt>
      <trkpt lat="46.01018" lon="7.41792">
        <ele>2871.11</ele>
        <time>2010-04-14T10:43:34Z</time>
      </trkpt>
      <trkpt lat="46.01014" lon="7.41777">
        <ele>2873.04</ele>
        <time>2010-04-14T10:43:46Z</time>
      </trkpt>
      <trkpt lat="46.01011" lon="7.41768">
        <ele>2874.48</ele>
        <time>2010-04-14T10:43:56Z</time>
      </trkpt>
      <trkpt lat="46.01008" lon="7.41758">
        <ele>2876.4</ele>
        <time>2010-04-14T10:44:07Z</time>
      </trkpt>
      <trkpt lat="46.01007" lon="7.41755">
        <ele>2876.4</ele>
        <time>2010-04-14T10:44:11Z</time>
      </trkpt>
      <trkpt lat="46.01003" lon="7.41746">
        <ele>2877.36</ele>
        <time>2010-04-14T10:44:22Z</time>
      </trkpt>
      <trkpt lat="46.01001" lon="7.4174">
        <ele>2879.29</ele>
        <time>2010-04-14T10:44:34Z</time>
      </trkpt>
      <trkpt lat="46.00999" lon="7.41734">
        <ele>2881.69</ele>
        <time>2010-04-14T10:44:46Z</time>
      </trkpt>
      <trkpt lat="46.00998" lon="7.41729">
        <ele>2882.17</ele>
        <time>2010-04-14T10:44:51Z</time>
      </trkpt>
      <trkpt lat="46.00995" lon="7.4172">
        <ele>2884.09</ele>
        <time>2010-04-14T10:45:06Z</time>
      </trkpt>
      <trkpt lat="46.00992" lon="7.41712">
        <ele>2885.53</ele>
        <time>2010-04-14T10:45:17Z</time>
      </trkpt>
      <trkpt lat="46.00989" lon="7.41705">
        <ele>2886.98</ele>
        <time>2010-04-14T10:45:27Z</time>
      </trkpt>
      <trkpt lat="46.00987" lon="7.41701">
        <ele>2888.42</ele>
        <time>2010-04-14T10:45:40Z</time>
      </trkpt>
      <trkpt lat="46.00983" lon="7.41691">
        <ele>2890.82</ele>
        <time>2010-04-14T10:45:50Z</time>
      </trkpt>
      <trkpt lat="46.00981" lon="7.41685">
        <ele>2891.78</ele>
        <time>2010-04-14T10:46:02Z</time>
      </trkpt>
      <trkpt lat="46.00978" lon="7.41677">
        <ele>2893.71</ele>
        <time>2010-04-14T10:46:11Z</time>
      </trkpt>
      <trkpt lat="46.00975" lon="7.41671">
        <ele>2894.67</ele>
        <time>2010-04-14T10:46:23Z</time>
      </trkpt>
      <trkpt lat="46.00973" lon="7.41666">
        <ele>2897.07</ele>
        <time>2010-04-14T10:46:34Z</time>
      </trkpt>
      <trkpt lat="46.00972" lon="7.41663">
        <ele>2897.55</ele>
        <time>2010-04-14T10:46:46Z</time>
      </trkpt>
      <trkpt lat="46.00972" lon="7.4166">
        <ele>2898.51</ele>
        <time>2010-04-14T10:46:59Z</time>
      </trkpt>
      <trkpt lat="46.00974" lon="7.41659">
        <ele>2900.44</ele>
        <time>2010-04-14T10:47:11Z</time>
      </trkpt>
      <trkpt lat="46.00974" lon="7.41652">
        <ele>2901.88</ele>
        <time>2010-04-14T10:47:24Z</time>
      </trkpt>
      <trkpt lat="46.00975" lon="7.41651">
        <ele>2902.84</ele>
        <time>2010-04-14T10:47:38Z</time>
      </trkpt>
      <trkpt lat="46.00976" lon="7.41651">
        <ele>2903.8</ele>
        <time>2010-04-14T10:47:39Z</time>
      </trkpt>
      <trkpt lat="46.00983" lon="7.41648">
        <ele>2905.72</ele>
        <time>2010-04-14T10:47:50Z</time>
      </trkpt>
      <trkpt lat="46.00983" lon="7.41648">
        <ele>2905.72</ele>
        <time>2010-04-14T10:48:11Z</time>
      </trkpt>
      <trkpt lat="46.00982" lon="7.41646">
        <ele>2905.72</ele>
        <time>2010-04-14T10:48:15Z</time>
      </trkpt>
      <trkpt lat="46.0098" lon="7.41639">
        <ele>2908.61</ele>
        <time>2010-04-14T10:48:25Z</time>
      </trkpt>
      <trkpt lat="46.00984" lon="7.4164">
        <ele>2909.57</ele>
        <time>2010-04-14T10:48:29Z</time>
      </trkpt>
      <trkpt lat="46.0099" lon="7.41646">
        <ele>2911.01</ele>
        <time>2010-04-14T10:48:40Z</time>
      </trkpt>
      <trkpt lat="46.01" lon="7.41652">
        <ele>2912.45</ele>
        <time>2010-04-14T10:48:53Z</time>
      </trkpt>
      <trkpt lat="46.01002" lon="7.41653">
        <ele>2914.85</ele>
        <time>2010-04-14T10:49:02Z</time>
      </trkpt>
      <trkpt lat="46.01002" lon="7.41653">
        <ele>2912.45</ele>
        <time>2010-04-14T10:49:04Z</time>
      </trkpt>
      <trkpt lat="46.01009" lon="7.41657">
        <ele>2913.89</ele>
        <time>2010-04-14T10:49:14Z</time>
      </trkpt>
      <trkpt lat="46.01013" lon="7.41659">
        <ele>2915.34</ele>
        <time>2010-04-14T10:49:21Z</time>
      </trkpt>
      <trkpt lat="46.01025" lon="7.41665">
        <ele>2915.82</ele>
        <time>2010-04-14T10:49:34Z</time>
      </trkpt>
      <trkpt lat="46.01037" lon="7.41672">
        <ele>2916.78</ele>
        <time>2010-04-14T10:49:47Z</time>
      </trkpt>
      <trkpt lat="46.01044" lon="7.41678">
        <ele>2917.26</ele>
        <time>2010-04-14T10:49:55Z</time>
      </trkpt>
      <trkpt lat="46.01046" lon="7.41679">
        <ele>2916.78</ele>
        <time>2010-04-14T10:49:57Z</time>
      </trkpt>
      <trkpt lat="46.01053" lon="7.41689">
        <ele>2917.74</ele>
        <time>2010-04-14T10:50:08Z</time>
      </trkpt>
      <trkpt lat="46.01055" lon="7.41694">
        <ele>2917.74</ele>
        <time>2010-04-14T10:50:12Z</time>
      </trkpt>
      <trkpt lat="46.01057" lon="7.41696">
        <ele>2918.22</ele>
        <time>2010-04-14T10:50:14Z</time>
      </trkpt>
      <trkpt lat="46.01065" lon="7.41707">
        <ele>2918.22</ele>
        <time>2010-04-14T10:50:25Z</time>
      </trkpt>
      <trkpt lat="46.01065" lon="7.41708">
        <ele>2918.7</ele>
        <time>2010-04-14T10:50:26Z</time>
      </trkpt>
      <trkpt lat="46.01071" lon="7.41715">
        <ele>2919.18</ele>
        <time>2010-04-14T10:50:33Z</time>
      </trkpt>
      <trkpt lat="46.01076" lon="7.41727">
        <ele>2920.14</ele>
        <time>2010-04-14T10:50:44Z</time>
      </trkpt>
      <trkpt lat="46.01079" lon="7.41734">
        <ele>2923.51</ele>
        <time>2010-04-14T10:50:53Z</time>
      </trkpt>
      <trkpt lat="46.01085" lon="7.41746">
        <ele>2925.43</ele>
        <time>2010-04-14T10:51:05Z</time>
      </trkpt>
      <trkpt lat="46.0109" lon="7.41755">
        <ele>2927.83</ele>
        <time>2010-04-14T10:51:17Z</time>
      </trkpt>
      <trkpt lat="46.01093" lon="7.41758">
        <ele>2930.72</ele>
        <time>2010-04-14T10:51:28Z</time>
      </trkpt>
      <trkpt lat="46.01094" lon="7.41757">
        <ele>2930.24</ele>
        <time>2010-04-14T10:51:29Z</time>
      </trkpt>
      <trkpt lat="46.01101" lon="7.41742">
        <ele>2932.16</ele>
        <time>2010-04-14T10:51:43Z</time>
      </trkpt>
      <trkpt lat="46.01101" lon="7.4174">
        <ele>2931.68</ele>
        <time>2010-04-14T10:51:45Z</time>
      </trkpt>
      <trkpt lat="46.01102" lon="7.41739">
        <ele>2931.68</ele>
        <time>2010-04-14T10:51:58Z</time>
      </trkpt>
      <trkpt lat="46.01103" lon="7.41741">
        <ele>2931.68</ele>
        <time>2010-04-14T10:52:14Z</time>
      </trkpt>
      <trkpt lat="46.01104" lon="7.41742">
        <ele>2929.75</ele>
        <time>2010-04-14T10:52:32Z</time>
      </trkpt>
      <trkpt lat="46.01104" lon="7.41742">
        <ele>2933.12</ele>
        <time>2010-04-14T10:52:33Z</time>
      </trkpt>
      <trkpt lat="46.01104" lon="7.41742">
        <ele>2932.16</ele>
        <time>2010-04-14T10:52:34Z</time>
      </trkpt>
      <trkpt lat="46.01104" lon="7.41752">
        <ele>2933.12</ele>
        <time>2010-04-14T10:52:45Z</time>
      </trkpt>
      <trkpt lat="46.01105" lon="7.41754">
        <ele>2933.6</ele>
        <time>2010-04-14T10:52:47Z</time>
      </trkpt>
      <trkpt lat="46.01104" lon="7.4175">
        <ele>2933.12</ele>
        <time>2010-04-14T10:53:10Z</time>
      </trkpt>
      <trkpt lat="46.01104" lon="7.4175">
        <ele>2932.16</ele>
        <time>2010-04-14T10:56:28Z</time>
      </trkpt>
      <trkpt lat="46.01103" lon="7.41747">
        <ele>2933.6</ele>
        <time>2010-04-14T11:05:28Z</time>
      </trkpt>
      <trkpt lat="46.01111" lon="7.41746">
        <ele>2930.24</ele>
        <time>2010-04-14T11:05:58Z</time>
      </trkpt>
      <trkpt lat="46.0112" lon="7.41743">
        <ele>2932.16</ele>
        <time>2010-04-14T11:06:15Z</time>
      </trkpt>
      <trkpt lat="46.0112" lon="7.41743">
        <ele>2932.64</ele>
        <time>2010-04-14T11:08:04Z</time>
      </trkpt>
      <trkpt lat="46.0112" lon="7.41743">
        <ele>2933.12</ele>
        <time>2010-04-14T11:11:03Z</time>
      </trkpt>
      <trkpt lat="46.0112" lon="7.41743">
        <ele>2932.16</ele>
        <time>2010-04-14T11:11:05Z</time>
      </trkpt>
      <trkpt lat="46.0112" lon="7.41743">
        <ele>2933.6</ele>
        <time>2010-04-14T11:11:06Z</time>
      </trkpt>
      <trkpt lat="46.0112" lon="7.41743">
        <ele>2934.56</ele>
        <time>2010-04-14T11:11:10Z</time>
      </trkpt>
      <trkpt lat="46.0112" lon="7.41743">
        <ele>2932.16</ele>
        <time>2010-04-14T11:11:22Z</time>
      </trkpt>
      <trkpt lat="46.0112" lon="7.41743">
        <ele>2931.2</ele>
        <time>2010-04-14T11:11:24Z</time>
      </trkpt>
      <trkpt lat="46.0112" lon="7.41743">
        <ele>2931.68</ele>
        <time>2010-04-14T11:11:29Z</time>
      </trkpt>
    </trkseg>
  </trk>
</gpx>